<?xml version="1.0" encoding="UTF-8" standalone="no" ?>
<gpx xmlns="http://www.topografix.com/GPX/1/1" xmlns:xsi="http://www.w3.org/2001/XMLSchema-instance" xsi:schemaLocation="http://www.topografix.com/GPX/1/1 http://www.topografix.com/GPX/1/1/gpx.xsd" version="1.1" creator="VisuGPX - https://www.visugpx.com">
  <metadata>
    <name>TEST refuge en beys</name>
    <desc><![CDATA[Randonnée au refuge d'en beys , saupoudrage]]></desc>
  </metadata>
  <trk>
    <name><![CDATA[20180126154028-2d6BY]]></name>
    <trkseg>
      <trkpt lat="42.67859" lon="1.94971">
        <ele>1150</ele>
        <time>2017-09-16T06:59:28.571Z</time>
      </trkpt>
      <trkpt lat="42.67858" lon="1.94973">
        <ele>1149</ele>
        <time>2017-09-16T06:59:30.571Z</time>
      </trkpt>
      <trkpt lat="42.67849" lon="1.94981">
        <ele>1149</ele>
        <time>2017-09-16T07:00:08.571Z</time>
      </trkpt>
      <trkpt lat="42.67842" lon="1.94992">
        <ele>1147</ele>
        <time>2017-09-16T07:00:18.571Z</time>
      </trkpt>
      <trkpt lat="42.67835" lon="1.95002">
        <ele>1146</ele>
        <time>2017-09-16T07:00:26.571Z</time>
      </trkpt>
      <trkpt lat="42.67826" lon="1.95008">
        <ele>1149</ele>
        <time>2017-09-16T07:00:34.571Z</time>
      </trkpt>
      <trkpt lat="42.67815" lon="1.9501">
        <ele>1151</ele>
        <time>2017-09-16T07:00:47.571Z</time>
      </trkpt>
      <trkpt lat="42.67805" lon="1.95015">
        <ele>1153</ele>
        <time>2017-09-16T07:00:54.571Z</time>
      </trkpt>
      <trkpt lat="42.67801" lon="1.95028">
        <ele>1154</ele>
        <time>2017-09-16T07:01:04.571Z</time>
      </trkpt>
      <trkpt lat="42.67796" lon="1.9504">
        <ele>1154</ele>
        <time>2017-09-16T07:01:12.571Z</time>
      </trkpt>
      <trkpt lat="42.67789" lon="1.95052">
        <ele>1155</ele>
        <time>2017-09-16T07:01:21.571Z</time>
      </trkpt>
      <trkpt lat="42.67781" lon="1.95061">
        <ele>1155</ele>
        <time>2017-09-16T07:01:31.571Z</time>
      </trkpt>
      <trkpt lat="42.67774" lon="1.95071">
        <ele>1156</ele>
        <time>2017-09-16T07:01:40.571Z</time>
      </trkpt>
      <trkpt lat="42.67767" lon="1.95085">
        <ele>1158</ele>
        <time>2017-09-16T07:01:46.571Z</time>
      </trkpt>
      <trkpt lat="42.67761" lon="1.95097">
        <ele>1158</ele>
        <time>2017-09-16T07:01:58.571Z</time>
      </trkpt>
      <trkpt lat="42.67752" lon="1.95106">
        <ele>1158</ele>
        <time>2017-09-16T07:02:06.571Z</time>
      </trkpt>
      <trkpt lat="42.67744" lon="1.95114">
        <ele>1164</ele>
        <time>2017-09-16T07:02:13.571Z</time>
      </trkpt>
      <trkpt lat="42.67734" lon="1.95121">
        <ele>1164</ele>
        <time>2017-09-16T07:02:21.571Z</time>
      </trkpt>
      <trkpt lat="42.67728" lon="1.95131">
        <ele>1165</ele>
        <time>2017-09-16T07:02:29.571Z</time>
      </trkpt>
      <trkpt lat="42.67719" lon="1.95137">
        <ele>1165</ele>
        <time>2017-09-16T07:02:36.571Z</time>
      </trkpt>
      <trkpt lat="42.67709" lon="1.95142">
        <ele>1166</ele>
        <time>2017-09-16T07:02:44.571Z</time>
      </trkpt>
      <trkpt lat="42.67703" lon="1.95154">
        <ele>1167</ele>
        <time>2017-09-16T07:02:52.571Z</time>
      </trkpt>
      <trkpt lat="42.67698" lon="1.95167">
        <ele>1165</ele>
        <time>2017-09-16T07:03:00.571Z</time>
      </trkpt>
      <trkpt lat="42.6769" lon="1.95177">
        <ele>1166</ele>
        <time>2017-09-16T07:03:06.571Z</time>
      </trkpt>
      <trkpt lat="42.67681" lon="1.95185">
        <ele>1166</ele>
        <time>2017-09-16T07:03:16.571Z</time>
      </trkpt>
      <trkpt lat="42.67671" lon="1.95187">
        <ele>1167</ele>
        <time>2017-09-16T07:03:23.571Z</time>
      </trkpt>
      <trkpt lat="42.67661" lon="1.9519">
        <ele>1174</ele>
        <time>2017-09-16T07:03:33.571Z</time>
      </trkpt>
      <trkpt lat="42.6765" lon="1.95193">
        <ele>1175</ele>
        <time>2017-09-16T07:03:40.571Z</time>
      </trkpt>
      <trkpt lat="42.67642" lon="1.95201">
        <ele>1175</ele>
        <time>2017-09-16T07:03:51.571Z</time>
      </trkpt>
      <trkpt lat="42.67636" lon="1.95214">
        <ele>1175</ele>
        <time>2017-09-16T07:04:02.571Z</time>
      </trkpt>
      <trkpt lat="42.67628" lon="1.95224">
        <ele>1175</ele>
        <time>2017-09-16T07:04:10.571Z</time>
      </trkpt>
      <trkpt lat="42.67618" lon="1.95233">
        <ele>1175</ele>
        <time>2017-09-16T07:04:17.571Z</time>
      </trkpt>
      <trkpt lat="42.6761" lon="1.95241">
        <ele>1176</ele>
        <time>2017-09-16T07:04:22.571Z</time>
      </trkpt>
      <trkpt lat="42.67606" lon="1.95255">
        <ele>1171</ele>
        <time>2017-09-16T07:04:31.571Z</time>
      </trkpt>
      <trkpt lat="42.67605" lon="1.95269">
        <ele>1170</ele>
        <time>2017-09-16T07:04:39.571Z</time>
      </trkpt>
      <trkpt lat="42.67598" lon="1.95283">
        <ele>1170</ele>
        <time>2017-09-16T07:04:46.571Z</time>
      </trkpt>
      <trkpt lat="42.67596" lon="1.95296">
        <ele>1170</ele>
        <time>2017-09-16T07:04:51.571Z</time>
      </trkpt>
      <trkpt lat="42.67596" lon="1.95312">
        <ele>1169</ele>
        <time>2017-09-16T07:04:58.571Z</time>
      </trkpt>
      <trkpt lat="42.67594" lon="1.95325">
        <ele>1169</ele>
        <time>2017-09-16T07:05:04.571Z</time>
      </trkpt>
      <trkpt lat="42.67587" lon="1.95336">
        <ele>1170</ele>
        <time>2017-09-16T07:05:11.571Z</time>
      </trkpt>
      <trkpt lat="42.67578" lon="1.95344">
        <ele>1174</ele>
        <time>2017-09-16T07:05:20.571Z</time>
      </trkpt>
      <trkpt lat="42.67567" lon="1.95346">
        <ele>1176</ele>
        <time>2017-09-16T07:05:26.571Z</time>
      </trkpt>
      <trkpt lat="42.67556" lon="1.95347">
        <ele>1178</ele>
        <time>2017-09-16T07:05:31.571Z</time>
      </trkpt>
      <trkpt lat="42.67546" lon="1.95351">
        <ele>1180</ele>
        <time>2017-09-16T07:05:39.571Z</time>
      </trkpt>
      <trkpt lat="42.67537" lon="1.9536">
        <ele>1181</ele>
        <time>2017-09-16T07:05:47.571Z</time>
      </trkpt>
      <trkpt lat="42.6753" lon="1.95371">
        <ele>1182</ele>
        <time>2017-09-16T07:05:56.571Z</time>
      </trkpt>
      <trkpt lat="42.67521" lon="1.95376">
        <ele>1182</ele>
        <time>2017-09-16T07:06:04.571Z</time>
      </trkpt>
      <trkpt lat="42.6751" lon="1.95381">
        <ele>1183</ele>
        <time>2017-09-16T07:06:16.571Z</time>
      </trkpt>
      <trkpt lat="42.67503" lon="1.95391">
        <ele>1182</ele>
        <time>2017-09-16T07:06:27.571Z</time>
      </trkpt>
      <trkpt lat="42.67496" lon="1.95401">
        <ele>1189</ele>
        <time>2017-09-16T07:06:35.571Z</time>
      </trkpt>
      <trkpt lat="42.6749" lon="1.95413">
        <ele>1187</ele>
        <time>2017-09-16T07:06:43.571Z</time>
      </trkpt>
      <trkpt lat="42.67482" lon="1.95423">
        <ele>1186</ele>
        <time>2017-09-16T07:06:53.571Z</time>
      </trkpt>
      <trkpt lat="42.67474" lon="1.95431">
        <ele>1188</ele>
        <time>2017-09-16T07:07:02.571Z</time>
      </trkpt>
      <trkpt lat="42.67466" lon="1.95441">
        <ele>1189</ele>
        <time>2017-09-16T07:07:10.571Z</time>
      </trkpt>
      <trkpt lat="42.67457" lon="1.9545">
        <ele>1190</ele>
        <time>2017-09-16T07:07:18.571Z</time>
      </trkpt>
      <trkpt lat="42.6745" lon="1.95461">
        <ele>1190</ele>
        <time>2017-09-16T07:07:28.571Z</time>
      </trkpt>
      <trkpt lat="42.6744" lon="1.95466">
        <ele>1190</ele>
        <time>2017-09-16T07:07:36.571Z</time>
      </trkpt>
      <trkpt lat="42.67432" lon="1.95476">
        <ele>1190</ele>
        <time>2017-09-16T07:07:45.571Z</time>
      </trkpt>
      <trkpt lat="42.67425" lon="1.95488">
        <ele>1189</ele>
        <time>2017-09-16T07:07:53.571Z</time>
      </trkpt>
      <trkpt lat="42.67421" lon="1.95501">
        <ele>1189</ele>
        <time>2017-09-16T07:08:01.571Z</time>
      </trkpt>
      <trkpt lat="42.67413" lon="1.95511">
        <ele>1190</ele>
        <time>2017-09-16T07:08:12.571Z</time>
      </trkpt>
      <trkpt lat="42.67403" lon="1.95515">
        <ele>1191</ele>
        <time>2017-09-16T07:08:24.571Z</time>
      </trkpt>
      <trkpt lat="42.67393" lon="1.95521">
        <ele>1192</ele>
        <time>2017-09-16T07:08:31.571Z</time>
      </trkpt>
      <trkpt lat="42.67383" lon="1.95525">
        <ele>1192</ele>
        <time>2017-09-16T07:08:36.571Z</time>
      </trkpt>
      <trkpt lat="42.67374" lon="1.95528">
        <ele>1193</ele>
        <time>2017-09-16T07:08:44.571Z</time>
      </trkpt>
      <trkpt lat="42.67364" lon="1.95533">
        <ele>1194</ele>
        <time>2017-09-16T07:08:50.571Z</time>
      </trkpt>
      <trkpt lat="42.67355" lon="1.95537">
        <ele>1194</ele>
        <time>2017-09-16T07:08:59.571Z</time>
      </trkpt>
      <trkpt lat="42.67348" lon="1.95549">
        <ele>1193</ele>
        <time>2017-09-16T07:09:10.571Z</time>
      </trkpt>
      <trkpt lat="42.67341" lon="1.9556">
        <ele>1193</ele>
        <time>2017-09-16T07:09:18.571Z</time>
      </trkpt>
      <trkpt lat="42.67333" lon="1.95551">
        <ele>1204</ele>
        <time>2017-09-16T07:09:26.571Z</time>
      </trkpt>
      <trkpt lat="42.67332" lon="1.95536">
        <ele>1206</ele>
        <time>2017-09-16T07:09:35.571Z</time>
      </trkpt>
      <trkpt lat="42.67327" lon="1.95524">
        <ele>1206</ele>
        <time>2017-09-16T07:09:46.571Z</time>
      </trkpt>
      <trkpt lat="42.67318" lon="1.9553">
        <ele>1207</ele>
        <time>2017-09-16T07:10:03.571Z</time>
      </trkpt>
      <trkpt lat="42.67314" lon="1.95543">
        <ele>1206</ele>
        <time>2017-09-16T07:10:13.571Z</time>
      </trkpt>
      <trkpt lat="42.67313" lon="1.95558">
        <ele>1205</ele>
        <time>2017-09-16T07:10:21.571Z</time>
      </trkpt>
      <trkpt lat="42.67312" lon="1.95572">
        <ele>1203</ele>
        <time>2017-09-16T07:10:29.571Z</time>
      </trkpt>
      <trkpt lat="42.67309" lon="1.95586">
        <ele>1198</ele>
        <time>2017-09-16T07:10:38.571Z</time>
      </trkpt>
      <trkpt lat="42.673" lon="1.95596">
        <ele>1200</ele>
        <time>2017-09-16T07:10:46.571Z</time>
      </trkpt>
      <trkpt lat="42.67295" lon="1.95609">
        <ele>1201</ele>
        <time>2017-09-16T07:10:58.571Z</time>
      </trkpt>
      <trkpt lat="42.67286" lon="1.95618">
        <ele>1202</ele>
        <time>2017-09-16T07:11:07.571Z</time>
      </trkpt>
      <trkpt lat="42.67276" lon="1.95624">
        <ele>1202</ele>
        <time>2017-09-16T07:11:16.571Z</time>
      </trkpt>
      <trkpt lat="42.67266" lon="1.95628">
        <ele>1203</ele>
        <time>2017-09-16T07:11:24.571Z</time>
      </trkpt>
      <trkpt lat="42.67256" lon="1.95631">
        <ele>1203</ele>
        <time>2017-09-16T07:11:32.571Z</time>
      </trkpt>
      <trkpt lat="42.67248" lon="1.95638">
        <ele>1213</ele>
        <time>2017-09-16T07:11:42.571Z</time>
      </trkpt>
      <trkpt lat="42.6724" lon="1.95646">
        <ele>1211</ele>
        <time>2017-09-16T07:11:51.571Z</time>
      </trkpt>
      <trkpt lat="42.67232" lon="1.95655">
        <ele>1211</ele>
        <time>2017-09-16T07:11:59.571Z</time>
      </trkpt>
      <trkpt lat="42.67223" lon="1.95661">
        <ele>1213</ele>
        <time>2017-09-16T07:12:05.571Z</time>
      </trkpt>
      <trkpt lat="42.67216" lon="1.95671">
        <ele>1209</ele>
        <time>2017-09-16T07:12:12.571Z</time>
      </trkpt>
      <trkpt lat="42.67207" lon="1.95683">
        <ele>1210</ele>
        <time>2017-09-16T07:12:22.571Z</time>
      </trkpt>
      <trkpt lat="42.67198" lon="1.9569">
        <ele>1211</ele>
        <time>2017-09-16T07:12:27.571Z</time>
      </trkpt>
      <trkpt lat="42.67189" lon="1.95699">
        <ele>1211</ele>
        <time>2017-09-16T07:12:33.571Z</time>
      </trkpt>
      <trkpt lat="42.67183" lon="1.9571">
        <ele>1211</ele>
        <time>2017-09-16T07:12:41.571Z</time>
      </trkpt>
      <trkpt lat="42.67175" lon="1.95716">
        <ele>1211</ele>
        <time>2017-09-16T07:12:46.571Z</time>
      </trkpt>
      <trkpt lat="42.67168" lon="1.9572">
        <ele>1211</ele>
        <time>2017-09-16T07:12:51.571Z</time>
      </trkpt>
      <trkpt lat="42.67159" lon="1.95725">
        <ele>1218</ele>
        <time>2017-09-16T07:12:57.571Z</time>
      </trkpt>
      <trkpt lat="42.67151" lon="1.95729">
        <ele>1218</ele>
        <time>2017-09-16T07:13:02.571Z</time>
      </trkpt>
      <trkpt lat="42.6714" lon="1.95734">
        <ele>1219</ele>
        <time>2017-09-16T07:13:10.571Z</time>
      </trkpt>
      <trkpt lat="42.67132" lon="1.95739">
        <ele>1220</ele>
        <time>2017-09-16T07:13:17.571Z</time>
      </trkpt>
      <trkpt lat="42.67124" lon="1.95741">
        <ele>1221</ele>
        <time>2017-09-16T07:13:23.571Z</time>
      </trkpt>
      <trkpt lat="42.67117" lon="1.95743">
        <ele>1222</ele>
        <time>2017-09-16T07:13:29.571Z</time>
      </trkpt>
      <trkpt lat="42.67107" lon="1.95745">
        <ele>1223</ele>
        <time>2017-09-16T07:13:35.571Z</time>
      </trkpt>
      <trkpt lat="42.67096" lon="1.95748">
        <ele>1224</ele>
        <time>2017-09-16T07:13:44.571Z</time>
      </trkpt>
      <trkpt lat="42.67087" lon="1.95749">
        <ele>1225</ele>
        <time>2017-09-16T07:13:50.571Z</time>
      </trkpt>
      <trkpt lat="42.67077" lon="1.9575">
        <ele>1233</ele>
        <time>2017-09-16T07:13:58.571Z</time>
      </trkpt>
      <trkpt lat="42.67067" lon="1.95752">
        <ele>1237</ele>
        <time>2017-09-16T07:14:05.571Z</time>
      </trkpt>
      <trkpt lat="42.67057" lon="1.95756">
        <ele>1242</ele>
        <time>2017-09-16T07:14:14.571Z</time>
      </trkpt>
      <trkpt lat="42.67052" lon="1.95768">
        <ele>1244</ele>
        <time>2017-09-16T07:14:26.571Z</time>
      </trkpt>
      <trkpt lat="42.67051" lon="1.95782">
        <ele>1245</ele>
        <time>2017-09-16T07:14:36.571Z</time>
      </trkpt>
      <trkpt lat="42.67046" lon="1.95796">
        <ele>1246</ele>
        <time>2017-09-16T07:14:43.571Z</time>
      </trkpt>
      <trkpt lat="42.67043" lon="1.9581">
        <ele>1246</ele>
        <time>2017-09-16T07:14:51.571Z</time>
      </trkpt>
      <trkpt lat="42.67041" lon="1.95823">
        <ele>1247</ele>
        <time>2017-09-16T07:14:59.571Z</time>
      </trkpt>
      <trkpt lat="42.67036" lon="1.95836">
        <ele>1249</ele>
        <time>2017-09-16T07:15:07.571Z</time>
      </trkpt>
      <trkpt lat="42.67033" lon="1.9585">
        <ele>1250</ele>
        <time>2017-09-16T07:15:15.571Z</time>
      </trkpt>
      <trkpt lat="42.67036" lon="1.95863">
        <ele>1249</ele>
        <time>2017-09-16T07:15:23.571Z</time>
      </trkpt>
      <trkpt lat="42.6704" lon="1.95876">
        <ele>1249</ele>
        <time>2017-09-16T07:15:32.571Z</time>
      </trkpt>
      <trkpt lat="42.67037" lon="1.9589">
        <ele>1250</ele>
        <time>2017-09-16T07:15:40.571Z</time>
      </trkpt>
      <trkpt lat="42.67036" lon="1.95904">
        <ele>1251</ele>
        <time>2017-09-16T07:15:48.571Z</time>
      </trkpt>
      <trkpt lat="42.67033" lon="1.95919">
        <ele>1254</ele>
        <time>2017-09-16T07:15:56.571Z</time>
      </trkpt>
      <trkpt lat="42.67032" lon="1.95934">
        <ele>1253</ele>
        <time>2017-09-16T07:16:03.571Z</time>
      </trkpt>
      <trkpt lat="42.67032" lon="1.95943">
        <ele>1253</ele>
        <time>2017-09-16T07:16:08.571Z</time>
      </trkpt>
      <trkpt lat="42.67029" lon="1.95958">
        <ele>1252</ele>
        <time>2017-09-16T07:16:16.571Z</time>
      </trkpt>
      <trkpt lat="42.67027" lon="1.95972">
        <ele>1252</ele>
        <time>2017-09-16T07:16:22.571Z</time>
      </trkpt>
      <trkpt lat="42.67023" lon="1.95985">
        <ele>1252</ele>
        <time>2017-09-16T07:16:29.571Z</time>
      </trkpt>
      <trkpt lat="42.67019" lon="1.95997">
        <ele>1252</ele>
        <time>2017-09-16T07:16:37.571Z</time>
      </trkpt>
      <trkpt lat="42.67015" lon="1.9601">
        <ele>1252</ele>
        <time>2017-09-16T07:16:45.571Z</time>
      </trkpt>
      <trkpt lat="42.67014" lon="1.96015">
        <ele>1252</ele>
        <time>2017-09-16T07:16:50.571Z</time>
      </trkpt>
      <trkpt lat="42.67011" lon="1.96021">
        <ele>1252</ele>
        <time>2017-09-16T07:16:55.571Z</time>
      </trkpt>
      <trkpt lat="42.67004" lon="1.96035">
        <ele>1252</ele>
        <time>2017-09-16T07:17:04.571Z</time>
      </trkpt>
      <trkpt lat="42.66998" lon="1.96055">
        <ele>1267</ele>
        <time>2017-09-16T07:17:14.571Z</time>
      </trkpt>
      <trkpt lat="42.6699" lon="1.96066">
        <ele>1265</ele>
        <time>2017-09-16T07:17:23.571Z</time>
      </trkpt>
      <trkpt lat="42.66984" lon="1.96077">
        <ele>1264</ele>
        <time>2017-09-16T07:17:29.571Z</time>
      </trkpt>
      <trkpt lat="42.66973" lon="1.9608">
        <ele>1270</ele>
        <time>2017-09-16T07:17:34.571Z</time>
      </trkpt>
      <trkpt lat="42.66966" lon="1.96089">
        <ele>1268</ele>
        <time>2017-09-16T07:17:46.571Z</time>
      </trkpt>
      <trkpt lat="42.66961" lon="1.96102">
        <ele>1270</ele>
        <time>2017-09-16T07:17:55.571Z</time>
      </trkpt>
      <trkpt lat="42.66953" lon="1.96113">
        <ele>1271</ele>
        <time>2017-09-16T07:18:03.571Z</time>
      </trkpt>
      <trkpt lat="42.66945" lon="1.96124">
        <ele>1272</ele>
        <time>2017-09-16T07:18:10.571Z</time>
      </trkpt>
      <trkpt lat="42.66937" lon="1.96134">
        <ele>1271</ele>
        <time>2017-09-16T07:18:19.571Z</time>
      </trkpt>
      <trkpt lat="42.6693" lon="1.96143">
        <ele>1271</ele>
        <time>2017-09-16T07:18:24.571Z</time>
      </trkpt>
      <trkpt lat="42.66923" lon="1.96155">
        <ele>1270</ele>
        <time>2017-09-16T07:18:34.571Z</time>
      </trkpt>
      <trkpt lat="42.66915" lon="1.96161">
        <ele>1276</ele>
        <time>2017-09-16T07:18:42.571Z</time>
      </trkpt>
      <trkpt lat="42.66907" lon="1.9617">
        <ele>1273</ele>
        <time>2017-09-16T07:18:50.571Z</time>
      </trkpt>
      <trkpt lat="42.66898" lon="1.96178">
        <ele>1276</ele>
        <time>2017-09-16T07:18:56.571Z</time>
      </trkpt>
      <trkpt lat="42.66888" lon="1.96181">
        <ele>1278</ele>
        <time>2017-09-16T07:19:01.571Z</time>
      </trkpt>
      <trkpt lat="42.66878" lon="1.96186">
        <ele>1280</ele>
        <time>2017-09-16T07:19:07.571Z</time>
      </trkpt>
      <trkpt lat="42.66869" lon="1.96193">
        <ele>1281</ele>
        <time>2017-09-16T07:19:13.571Z</time>
      </trkpt>
      <trkpt lat="42.66861" lon="1.96201">
        <ele>1282</ele>
        <time>2017-09-16T07:19:19.571Z</time>
      </trkpt>
      <trkpt lat="42.66852" lon="1.96212">
        <ele>1281</ele>
        <time>2017-09-16T07:19:26.571Z</time>
      </trkpt>
      <trkpt lat="42.66844" lon="1.96221">
        <ele>1280</ele>
        <time>2017-09-16T07:19:32.571Z</time>
      </trkpt>
      <trkpt lat="42.66835" lon="1.9623">
        <ele>1278</ele>
        <time>2017-09-16T07:19:39.571Z</time>
      </trkpt>
      <trkpt lat="42.66828" lon="1.96241">
        <ele>1287</ele>
        <time>2017-09-16T07:19:51.571Z</time>
      </trkpt>
      <trkpt lat="42.66818" lon="1.96257">
        <ele>1281</ele>
        <time>2017-09-16T07:20:02.571Z</time>
      </trkpt>
      <trkpt lat="42.66805" lon="1.96265">
        <ele>1285</ele>
        <time>2017-09-16T07:20:10.571Z</time>
      </trkpt>
      <trkpt lat="42.66796" lon="1.96275">
        <ele>1287</ele>
        <time>2017-09-16T07:20:17.571Z</time>
      </trkpt>
      <trkpt lat="42.6679" lon="1.96286">
        <ele>1288</ele>
        <time>2017-09-16T07:20:23.571Z</time>
      </trkpt>
      <trkpt lat="42.66784" lon="1.96297">
        <ele>1288</ele>
        <time>2017-09-16T07:20:30.571Z</time>
      </trkpt>
      <trkpt lat="42.66772" lon="1.9631">
        <ele>1288</ele>
        <time>2017-09-16T07:20:43.571Z</time>
      </trkpt>
      <trkpt lat="42.66764" lon="1.96318">
        <ele>1289</ele>
        <time>2017-09-16T07:20:49.571Z</time>
      </trkpt>
      <trkpt lat="42.66754" lon="1.96319">
        <ele>1289</ele>
        <time>2017-09-16T07:20:55.571Z</time>
      </trkpt>
      <trkpt lat="42.66746" lon="1.96336">
        <ele>1292</ele>
        <time>2017-09-16T07:21:06.571Z</time>
      </trkpt>
      <trkpt lat="42.66737" lon="1.96346">
        <ele>1298</ele>
        <time>2017-09-16T07:21:15.571Z</time>
      </trkpt>
      <trkpt lat="42.66735" lon="1.9636">
        <ele>1299</ele>
        <time>2017-09-16T07:21:21.571Z</time>
      </trkpt>
      <trkpt lat="42.66735" lon="1.96377">
        <ele>1298</ele>
        <time>2017-09-16T07:21:31.571Z</time>
      </trkpt>
      <trkpt lat="42.66728" lon="1.96392">
        <ele>1297</ele>
        <time>2017-09-16T07:21:38.571Z</time>
      </trkpt>
      <trkpt lat="42.66722" lon="1.96404">
        <ele>1296</ele>
        <time>2017-09-16T07:21:44.571Z</time>
      </trkpt>
      <trkpt lat="42.66712" lon="1.9641">
        <ele>1300</ele>
        <time>2017-09-16T07:21:50.571Z</time>
      </trkpt>
      <trkpt lat="42.66705" lon="1.9642">
        <ele>1293</ele>
        <time>2017-09-16T07:21:56.571Z</time>
      </trkpt>
      <trkpt lat="42.66702" lon="1.96434">
        <ele>1293</ele>
        <time>2017-09-16T07:22:02.568Z</time>
      </trkpt>
      <trkpt lat="42.66694" lon="1.96446">
        <ele>1294</ele>
        <time>2017-09-16T07:22:12.571Z</time>
      </trkpt>
      <trkpt lat="42.66693" lon="1.96461">
        <ele>1293</ele>
        <time>2017-09-16T07:22:20.570Z</time>
      </trkpt>
      <trkpt lat="42.66691" lon="1.96474">
        <ele>1292</ele>
        <time>2017-09-16T07:22:30.565Z</time>
      </trkpt>
      <trkpt lat="42.66684" lon="1.96492">
        <ele>1292</ele>
        <time>2017-09-16T07:22:40.571Z</time>
      </trkpt>
      <trkpt lat="42.66673" lon="1.96498">
        <ele>1293</ele>
        <time>2017-09-16T07:22:47.570Z</time>
      </trkpt>
      <trkpt lat="42.66653" lon="1.96515">
        <ele>1308</ele>
        <time>2017-09-16T07:23:01.571Z</time>
      </trkpt>
      <trkpt lat="42.66645" lon="1.96525">
        <ele>1313</ele>
        <time>2017-09-16T07:23:09.571Z</time>
      </trkpt>
      <trkpt lat="42.66643" lon="1.96545">
        <ele>1313</ele>
        <time>2017-09-16T07:23:21.571Z</time>
      </trkpt>
      <trkpt lat="42.66652" lon="1.96553">
        <ele>1311</ele>
        <time>2017-09-16T07:23:29.571Z</time>
      </trkpt>
      <trkpt lat="42.66653" lon="1.96572">
        <ele>1308</ele>
        <time>2017-09-16T07:23:40.571Z</time>
      </trkpt>
      <trkpt lat="42.66653" lon="1.96586">
        <ele>1302</ele>
        <time>2017-09-16T07:23:46.571Z</time>
      </trkpt>
      <trkpt lat="42.66645" lon="1.96599">
        <ele>1304</ele>
        <time>2017-09-16T07:23:53.571Z</time>
      </trkpt>
      <trkpt lat="42.66638" lon="1.9661">
        <ele>1305</ele>
        <time>2017-09-16T07:24:01.571Z</time>
      </trkpt>
      <trkpt lat="42.66636" lon="1.96623">
        <ele>1305</ele>
        <time>2017-09-16T07:24:08.571Z</time>
      </trkpt>
      <trkpt lat="42.66628" lon="1.96635">
        <ele>1305</ele>
        <time>2017-09-16T07:24:17.569Z</time>
      </trkpt>
      <trkpt lat="42.66618" lon="1.96639">
        <ele>1304</ele>
        <time>2017-09-16T07:24:24.581Z</time>
      </trkpt>
      <trkpt lat="42.66607" lon="1.96645">
        <ele>1303</ele>
        <time>2017-09-16T07:24:30.571Z</time>
      </trkpt>
      <trkpt lat="42.66596" lon="1.96647">
        <ele>1302</ele>
        <time>2017-09-16T07:24:35.566Z</time>
      </trkpt>
      <trkpt lat="42.66581" lon="1.96642">
        <ele>1307</ele>
        <time>2017-09-16T07:24:46.571Z</time>
      </trkpt>
      <trkpt lat="42.66568" lon="1.96638">
        <ele>1310</ele>
        <time>2017-09-16T07:24:57.571Z</time>
      </trkpt>
      <trkpt lat="42.66556" lon="1.96639">
        <ele>1311</ele>
        <time>2017-09-16T07:25:04.571Z</time>
      </trkpt>
      <trkpt lat="42.66546" lon="1.96641">
        <ele>1312</ele>
        <time>2017-09-16T07:25:10.571Z</time>
      </trkpt>
      <trkpt lat="42.66533" lon="1.96638">
        <ele>1313</ele>
        <time>2017-09-16T07:25:17.571Z</time>
      </trkpt>
      <trkpt lat="42.66523" lon="1.9664">
        <ele>1313</ele>
        <time>2017-09-16T07:25:24.571Z</time>
      </trkpt>
      <trkpt lat="42.66513" lon="1.96643">
        <ele>1312</ele>
        <time>2017-09-16T07:25:30.571Z</time>
      </trkpt>
      <trkpt lat="42.66404" lon="1.9666">
        <ele>1317</ele>
        <time>2017-09-16T07:26:53.571Z</time>
      </trkpt>
      <trkpt lat="42.66398" lon="1.96671">
        <ele>1310</ele>
        <time>2017-09-16T07:26:59.571Z</time>
      </trkpt>
      <trkpt lat="42.66388" lon="1.96676">
        <ele>1311</ele>
        <time>2017-09-16T07:27:08.571Z</time>
      </trkpt>
      <trkpt lat="42.66372" lon="1.9668">
        <ele>1313</ele>
        <time>2017-09-16T07:27:17.571Z</time>
      </trkpt>
      <trkpt lat="42.66359" lon="1.96683">
        <ele>1315</ele>
        <time>2017-09-16T07:27:23.571Z</time>
      </trkpt>
      <trkpt lat="42.66339" lon="1.96686">
        <ele>1317</ele>
        <time>2017-09-16T07:27:38.574Z</time>
      </trkpt>
      <trkpt lat="42.66333" lon="1.96681">
        <ele>1324</ele>
        <time>2017-09-16T07:27:43.571Z</time>
      </trkpt>
      <trkpt lat="42.66319" lon="1.96686">
        <ele>1325</ele>
        <time>2017-09-16T07:27:51.571Z</time>
      </trkpt>
      <trkpt lat="42.66328" lon="1.96668">
        <ele>1324</ele>
        <time>2017-09-16T07:28:05.571Z</time>
      </trkpt>
      <trkpt lat="42.66344" lon="1.96655">
        <ele>1327</ele>
        <time>2017-09-16T07:28:12.571Z</time>
      </trkpt>
      <trkpt lat="42.66352" lon="1.96647">
        <ele>1329</ele>
        <time>2017-09-16T07:28:20.571Z</time>
      </trkpt>
      <trkpt lat="42.66358" lon="1.96636">
        <ele>1331</ele>
        <time>2017-09-16T07:28:27.571Z</time>
      </trkpt>
      <trkpt lat="42.66348" lon="1.96637">
        <ele>1331</ele>
        <time>2017-09-16T07:28:48.571Z</time>
      </trkpt>
      <trkpt lat="42.66338" lon="1.96637">
        <ele>1331</ele>
        <time>2017-09-16T07:28:56.571Z</time>
      </trkpt>
      <trkpt lat="42.66327" lon="1.96639">
        <ele>1337</ele>
        <time>2017-09-16T07:29:06.571Z</time>
      </trkpt>
      <trkpt lat="42.66317" lon="1.96638">
        <ele>1338</ele>
        <time>2017-09-16T07:29:14.563Z</time>
      </trkpt>
      <trkpt lat="42.66303" lon="1.96641">
        <ele>1339</ele>
        <time>2017-09-16T07:29:27.571Z</time>
      </trkpt>
      <trkpt lat="42.66295" lon="1.96635">
        <ele>1340</ele>
        <time>2017-09-16T07:29:34.571Z</time>
      </trkpt>
      <trkpt lat="42.66279" lon="1.96633">
        <ele>1341</ele>
        <time>2017-09-16T07:29:42.571Z</time>
      </trkpt>
      <trkpt lat="42.6627" lon="1.96623">
        <ele>1344</ele>
        <time>2017-09-16T07:29:53.571Z</time>
      </trkpt>
      <trkpt lat="42.66264" lon="1.96612">
        <ele>1347</ele>
        <time>2017-09-16T07:30:01.569Z</time>
      </trkpt>
      <trkpt lat="42.66251" lon="1.96606">
        <ele>1349</ele>
        <time>2017-09-16T07:30:08.571Z</time>
      </trkpt>
      <trkpt lat="42.6624" lon="1.96605">
        <ele>1353</ele>
        <time>2017-09-16T07:30:20.571Z</time>
      </trkpt>
      <trkpt lat="42.66226" lon="1.96606">
        <ele>1352</ele>
        <time>2017-09-16T07:30:28.571Z</time>
      </trkpt>
      <trkpt lat="42.66216" lon="1.96607">
        <ele>1352</ele>
        <time>2017-09-16T07:30:35.571Z</time>
      </trkpt>
      <trkpt lat="42.66204" lon="1.96612">
        <ele>1352</ele>
        <time>2017-09-16T07:30:42.571Z</time>
      </trkpt>
      <trkpt lat="42.66183" lon="1.96612">
        <ele>1353</ele>
        <time>2017-09-16T07:30:54.565Z</time>
      </trkpt>
      <trkpt lat="42.66173" lon="1.96616">
        <ele>1353</ele>
        <time>2017-09-16T07:30:59.571Z</time>
      </trkpt>
      <trkpt lat="42.66158" lon="1.96624">
        <ele>1356</ele>
        <time>2017-09-16T07:31:11.571Z</time>
      </trkpt>
      <trkpt lat="42.66148" lon="1.96626">
        <ele>1356</ele>
        <time>2017-09-16T07:31:16.569Z</time>
      </trkpt>
      <trkpt lat="42.66138" lon="1.96621">
        <ele>1357</ele>
        <time>2017-09-16T07:31:26.871Z</time>
      </trkpt>
      <trkpt lat="42.66127" lon="1.96611">
        <ele>1357</ele>
        <time>2017-09-16T07:31:34.571Z</time>
      </trkpt>
      <trkpt lat="42.66117" lon="1.96603">
        <ele>1357</ele>
        <time>2017-09-16T07:31:41.563Z</time>
      </trkpt>
      <trkpt lat="42.66106" lon="1.96599">
        <ele>1357</ele>
        <time>2017-09-16T07:31:50.571Z</time>
      </trkpt>
      <trkpt lat="42.66099" lon="1.96604">
        <ele>1357</ele>
        <time>2017-09-16T07:31:56.572Z</time>
      </trkpt>
      <trkpt lat="42.66075" lon="1.96598">
        <ele>1359</ele>
        <time>2017-09-16T07:32:07.569Z</time>
      </trkpt>
      <trkpt lat="42.66056" lon="1.96587">
        <ele>1360</ele>
        <time>2017-09-16T07:32:16.571Z</time>
      </trkpt>
      <trkpt lat="42.66051" lon="1.96573">
        <ele>1364</ele>
        <time>2017-09-16T07:32:24.572Z</time>
      </trkpt>
      <trkpt lat="42.66041" lon="1.9657">
        <ele>1365</ele>
        <time>2017-09-16T07:32:35.573Z</time>
      </trkpt>
      <trkpt lat="42.66028" lon="1.96566">
        <ele>1365</ele>
        <time>2017-09-16T07:32:48.571Z</time>
      </trkpt>
      <trkpt lat="42.66017" lon="1.96569">
        <ele>1363</ele>
        <time>2017-09-16T07:32:54.571Z</time>
      </trkpt>
      <trkpt lat="42.66008" lon="1.96561">
        <ele>1364</ele>
        <time>2017-09-16T07:33:03.575Z</time>
      </trkpt>
      <trkpt lat="42.65999" lon="1.96557">
        <ele>1367</ele>
        <time>2017-09-16T07:33:09.571Z</time>
      </trkpt>
      <trkpt lat="42.6599" lon="1.96559">
        <ele>1367</ele>
        <time>2017-09-16T07:33:15.571Z</time>
      </trkpt>
      <trkpt lat="42.6598" lon="1.96552">
        <ele>1369</ele>
        <time>2017-09-16T07:33:22.571Z</time>
      </trkpt>
      <trkpt lat="42.65969" lon="1.96552">
        <ele>1370</ele>
        <time>2017-09-16T07:33:31.571Z</time>
      </trkpt>
      <trkpt lat="42.65959" lon="1.9655">
        <ele>1371</ele>
        <time>2017-09-16T07:33:39.571Z</time>
      </trkpt>
      <trkpt lat="42.6595" lon="1.96541">
        <ele>1372</ele>
        <time>2017-09-16T07:33:49.571Z</time>
      </trkpt>
      <trkpt lat="42.65953" lon="1.9653">
        <ele>1372</ele>
        <time>2017-09-16T07:33:57.571Z</time>
      </trkpt>
      <trkpt lat="42.65949" lon="1.96518">
        <ele>1373</ele>
        <time>2017-09-16T07:34:36.573Z</time>
      </trkpt>
      <trkpt lat="42.65941" lon="1.96517">
        <ele>1373</ele>
        <time>2017-09-16T07:34:46.570Z</time>
      </trkpt>
      <trkpt lat="42.6594" lon="1.96502">
        <ele>1374</ele>
        <time>2017-09-16T07:34:58.571Z</time>
      </trkpt>
      <trkpt lat="42.65935" lon="1.96499">
        <ele>1382</ele>
        <time>2017-09-16T07:35:06.571Z</time>
      </trkpt>
      <trkpt lat="42.65929" lon="1.96487">
        <ele>1382</ele>
        <time>2017-09-16T07:35:15.576Z</time>
      </trkpt>
      <trkpt lat="42.65926" lon="1.96474">
        <ele>1385</ele>
        <time>2017-09-16T07:35:25.571Z</time>
      </trkpt>
      <trkpt lat="42.65917" lon="1.96468">
        <ele>1385</ele>
        <time>2017-09-16T07:35:32.571Z</time>
      </trkpt>
      <trkpt lat="42.65907" lon="1.96461">
        <ele>1387</ele>
        <time>2017-09-16T07:35:40.571Z</time>
      </trkpt>
      <trkpt lat="42.65898" lon="1.96458">
        <ele>1388</ele>
        <time>2017-09-16T07:35:51.571Z</time>
      </trkpt>
      <trkpt lat="42.65883" lon="1.96457">
        <ele>1389</ele>
        <time>2017-09-16T07:36:03.571Z</time>
      </trkpt>
      <trkpt lat="42.65871" lon="1.96458">
        <ele>1389</ele>
        <time>2017-09-16T07:36:58.571Z</time>
      </trkpt>
      <trkpt lat="42.65864" lon="1.96468">
        <ele>1389</ele>
        <time>2017-09-16T07:37:05.576Z</time>
      </trkpt>
      <trkpt lat="42.65855" lon="1.96472">
        <ele>1389</ele>
        <time>2017-09-16T07:37:11.567Z</time>
      </trkpt>
      <trkpt lat="42.65845" lon="1.96475">
        <ele>1388</ele>
        <time>2017-09-16T07:37:16.571Z</time>
      </trkpt>
      <trkpt lat="42.65835" lon="1.96473">
        <ele>1389</ele>
        <time>2017-09-16T07:37:23.569Z</time>
      </trkpt>
      <trkpt lat="42.65826" lon="1.9648">
        <ele>1392</ele>
        <time>2017-09-16T07:37:30.566Z</time>
      </trkpt>
      <trkpt lat="42.65817" lon="1.96484">
        <ele>1392</ele>
        <time>2017-09-16T07:37:36.574Z</time>
      </trkpt>
      <trkpt lat="42.65808" lon="1.96487">
        <ele>1393</ele>
        <time>2017-09-16T07:37:43.571Z</time>
      </trkpt>
      <trkpt lat="42.65787" lon="1.96498">
        <ele>1394</ele>
        <time>2017-09-16T07:37:53.569Z</time>
      </trkpt>
      <trkpt lat="42.65772" lon="1.96493">
        <ele>1395</ele>
        <time>2017-09-16T07:38:07.571Z</time>
      </trkpt>
      <trkpt lat="42.65761" lon="1.96495">
        <ele>1394</ele>
        <time>2017-09-16T07:38:15.570Z</time>
      </trkpt>
      <trkpt lat="42.65751" lon="1.96489">
        <ele>1395</ele>
        <time>2017-09-16T07:38:24.564Z</time>
      </trkpt>
      <trkpt lat="42.65741" lon="1.96495">
        <ele>1395</ele>
        <time>2017-09-16T07:38:35.567Z</time>
      </trkpt>
      <trkpt lat="42.65729" lon="1.96495">
        <ele>1396</ele>
        <time>2017-09-16T07:38:41.572Z</time>
      </trkpt>
      <trkpt lat="42.65718" lon="1.96498">
        <ele>1397</ele>
        <time>2017-09-16T07:38:47.571Z</time>
      </trkpt>
      <trkpt lat="42.65708" lon="1.96503">
        <ele>1393</ele>
        <time>2017-09-16T07:38:54.571Z</time>
      </trkpt>
      <trkpt lat="42.657" lon="1.96501">
        <ele>1393</ele>
        <time>2017-09-16T07:39:00.569Z</time>
      </trkpt>
      <trkpt lat="42.6569" lon="1.96494">
        <ele>1396</ele>
        <time>2017-09-16T07:39:08.573Z</time>
      </trkpt>
      <trkpt lat="42.65681" lon="1.96485">
        <ele>1396</ele>
        <time>2017-09-16T07:39:18.570Z</time>
      </trkpt>
      <trkpt lat="42.65673" lon="1.96476">
        <ele>1397</ele>
        <time>2017-09-16T07:39:24.570Z</time>
      </trkpt>
      <trkpt lat="42.65664" lon="1.96471">
        <ele>1396</ele>
        <time>2017-09-16T07:39:33.567Z</time>
      </trkpt>
      <trkpt lat="42.65654" lon="1.96465">
        <ele>1396</ele>
        <time>2017-09-16T07:39:39.570Z</time>
      </trkpt>
      <trkpt lat="42.65645" lon="1.96458">
        <ele>1397</ele>
        <time>2017-09-16T07:39:47.563Z</time>
      </trkpt>
      <trkpt lat="42.65633" lon="1.96457">
        <ele>1397</ele>
        <time>2017-09-16T07:39:54.573Z</time>
      </trkpt>
      <trkpt lat="42.65612" lon="1.96447">
        <ele>1397</ele>
        <time>2017-09-16T07:40:05.571Z</time>
      </trkpt>
      <trkpt lat="42.65591" lon="1.96439">
        <ele>1397</ele>
        <time>2017-09-16T07:40:22.571Z</time>
      </trkpt>
      <trkpt lat="42.6558" lon="1.96436">
        <ele>1398</ele>
        <time>2017-09-16T07:40:29.575Z</time>
      </trkpt>
      <trkpt lat="42.6557" lon="1.96426">
        <ele>1398</ele>
        <time>2017-09-16T07:40:35.571Z</time>
      </trkpt>
      <trkpt lat="42.6556" lon="1.96425">
        <ele>1398</ele>
        <time>2017-09-16T07:40:41.571Z</time>
      </trkpt>
      <trkpt lat="42.6554" lon="1.96418">
        <ele>1398</ele>
        <time>2017-09-16T07:40:51.568Z</time>
      </trkpt>
      <trkpt lat="42.65529" lon="1.96421">
        <ele>1398</ele>
        <time>2017-09-16T07:40:58.565Z</time>
      </trkpt>
      <trkpt lat="42.65518" lon="1.9642">
        <ele>1399</ele>
        <time>2017-09-16T07:41:04.571Z</time>
      </trkpt>
      <trkpt lat="42.6551" lon="1.96413">
        <ele>1402</ele>
        <time>2017-09-16T07:41:14.577Z</time>
      </trkpt>
      <trkpt lat="42.655" lon="1.96406">
        <ele>1402</ele>
        <time>2017-09-16T07:41:22.567Z</time>
      </trkpt>
      <trkpt lat="42.65492" lon="1.96397">
        <ele>1402</ele>
        <time>2017-09-16T07:41:29.568Z</time>
      </trkpt>
      <trkpt lat="42.65477" lon="1.96395">
        <ele>1402</ele>
        <time>2017-09-16T07:41:37.571Z</time>
      </trkpt>
      <trkpt lat="42.65469" lon="1.96391">
        <ele>1402</ele>
        <time>2017-09-16T07:41:44.571Z</time>
      </trkpt>
      <trkpt lat="42.65461" lon="1.96382">
        <ele>1402</ele>
        <time>2017-09-16T07:41:51.574Z</time>
      </trkpt>
      <trkpt lat="42.65453" lon="1.96373">
        <ele>1402</ele>
        <time>2017-09-16T07:41:57.570Z</time>
      </trkpt>
      <trkpt lat="42.65444" lon="1.96367">
        <ele>1402</ele>
        <time>2017-09-16T07:42:04.572Z</time>
      </trkpt>
      <trkpt lat="42.65435" lon="1.96367">
        <ele>1402</ele>
        <time>2017-09-16T07:42:11.571Z</time>
      </trkpt>
      <trkpt lat="42.65421" lon="1.96348">
        <ele>1403</ele>
        <time>2017-09-16T07:42:20.575Z</time>
      </trkpt>
      <trkpt lat="42.65413" lon="1.96341">
        <ele>1403</ele>
        <time>2017-09-16T07:42:31.567Z</time>
      </trkpt>
      <trkpt lat="42.65402" lon="1.96339">
        <ele>1403</ele>
        <time>2017-09-16T07:42:38.579Z</time>
      </trkpt>
      <trkpt lat="42.65395" lon="1.96334">
        <ele>1403</ele>
        <time>2017-09-16T07:42:56.568Z</time>
      </trkpt>
      <trkpt lat="42.65387" lon="1.96327">
        <ele>1410</ele>
        <time>2017-09-16T07:43:03.568Z</time>
      </trkpt>
      <trkpt lat="42.65377" lon="1.96324">
        <ele>1410</ele>
        <time>2017-09-16T07:43:10.573Z</time>
      </trkpt>
      <trkpt lat="42.65366" lon="1.96318">
        <ele>1410</ele>
        <time>2017-09-16T07:43:16.571Z</time>
      </trkpt>
      <trkpt lat="42.65354" lon="1.96301">
        <ele>1412</ele>
        <time>2017-09-16T07:43:31.574Z</time>
      </trkpt>
      <trkpt lat="42.65345" lon="1.96305">
        <ele>1411</ele>
        <time>2017-09-16T07:43:43.571Z</time>
      </trkpt>
      <trkpt lat="42.65337" lon="1.96298">
        <ele>1412</ele>
        <time>2017-09-16T07:44:04.571Z</time>
      </trkpt>
      <trkpt lat="42.6533" lon="1.96287">
        <ele>1414</ele>
        <time>2017-09-16T07:44:11.272Z</time>
      </trkpt>
      <trkpt lat="42.6531" lon="1.96293">
        <ele>1413</ele>
        <time>2017-09-16T07:44:19.571Z</time>
      </trkpt>
      <trkpt lat="42.65299" lon="1.9629">
        <ele>1413</ele>
        <time>2017-09-16T07:44:28.568Z</time>
      </trkpt>
      <trkpt lat="42.65287" lon="1.96287">
        <ele>1414</ele>
        <time>2017-09-16T07:44:36.571Z</time>
      </trkpt>
      <trkpt lat="42.65283" lon="1.9628">
        <ele>1414</ele>
        <time>2017-09-16T07:44:43.867Z</time>
      </trkpt>
      <trkpt lat="42.65273" lon="1.96275">
        <ele>1415</ele>
        <time>2017-09-16T07:44:49.573Z</time>
      </trkpt>
      <trkpt lat="42.65262" lon="1.96268">
        <ele>1416</ele>
        <time>2017-09-16T07:44:57.571Z</time>
      </trkpt>
      <trkpt lat="42.65253" lon="1.96265">
        <ele>1416</ele>
        <time>2017-09-16T07:45:05.575Z</time>
      </trkpt>
      <trkpt lat="42.65245" lon="1.96256">
        <ele>1418</ele>
        <time>2017-09-16T07:45:13.566Z</time>
      </trkpt>
      <trkpt lat="42.6524" lon="1.96245">
        <ele>1423</ele>
        <time>2017-09-16T07:45:24.568Z</time>
      </trkpt>
      <trkpt lat="42.65234" lon="1.96234">
        <ele>1426</ele>
        <time>2017-09-16T07:45:31.576Z</time>
      </trkpt>
      <trkpt lat="42.65225" lon="1.9623">
        <ele>1428</ele>
        <time>2017-09-16T07:45:39.571Z</time>
      </trkpt>
      <trkpt lat="42.65211" lon="1.96233">
        <ele>1428</ele>
        <time>2017-09-16T07:45:47.571Z</time>
      </trkpt>
      <trkpt lat="42.65199" lon="1.96229">
        <ele>1428</ele>
        <time>2017-09-16T07:45:56.571Z</time>
      </trkpt>
      <trkpt lat="42.65188" lon="1.96226">
        <ele>1428</ele>
        <time>2017-09-16T07:46:09.571Z</time>
      </trkpt>
      <trkpt lat="42.65178" lon="1.96221">
        <ele>1429</ele>
        <time>2017-09-16T07:46:43.572Z</time>
      </trkpt>
      <trkpt lat="42.65166" lon="1.96215">
        <ele>1431</ele>
        <time>2017-09-16T07:46:52.571Z</time>
      </trkpt>
      <trkpt lat="42.65154" lon="1.96214">
        <ele>1432</ele>
        <time>2017-09-16T07:46:59.575Z</time>
      </trkpt>
      <trkpt lat="42.65144" lon="1.96204">
        <ele>1433</ele>
        <time>2017-09-16T07:47:18.571Z</time>
      </trkpt>
      <trkpt lat="42.65135" lon="1.9621">
        <ele>1433</ele>
        <time>2017-09-16T07:47:38.567Z</time>
      </trkpt>
      <trkpt lat="42.65112" lon="1.96215">
        <ele>1433</ele>
        <time>2017-09-16T07:47:49.571Z</time>
      </trkpt>
      <trkpt lat="42.651" lon="1.96217">
        <ele>1433</ele>
        <time>2017-09-16T07:47:56.571Z</time>
      </trkpt>
      <trkpt lat="42.65082" lon="1.96214">
        <ele>1435</ele>
        <time>2017-09-16T07:48:06.573Z</time>
      </trkpt>
      <trkpt lat="42.65072" lon="1.96211">
        <ele>1435</ele>
        <time>2017-09-16T07:48:13.567Z</time>
      </trkpt>
      <trkpt lat="42.6506" lon="1.96214">
        <ele>1435</ele>
        <time>2017-09-16T07:48:18.566Z</time>
      </trkpt>
      <trkpt lat="42.65048" lon="1.9622">
        <ele>1435</ele>
        <time>2017-09-16T07:48:24.575Z</time>
      </trkpt>
      <trkpt lat="42.65037" lon="1.96224">
        <ele>1434</ele>
        <time>2017-09-16T07:48:40.576Z</time>
      </trkpt>
      <trkpt lat="42.65027" lon="1.96222">
        <ele>1434</ele>
        <time>2017-09-16T07:48:46.568Z</time>
      </trkpt>
      <trkpt lat="42.65014" lon="1.9622">
        <ele>1434</ele>
        <time>2017-09-16T07:48:55.571Z</time>
      </trkpt>
      <trkpt lat="42.65003" lon="1.96221">
        <ele>1434</ele>
        <time>2017-09-16T07:49:01.575Z</time>
      </trkpt>
      <trkpt lat="42.64994" lon="1.96216">
        <ele>1432</ele>
        <time>2017-09-16T07:49:06.566Z</time>
      </trkpt>
      <trkpt lat="42.64984" lon="1.96212">
        <ele>1433</ele>
        <time>2017-09-16T07:49:12.571Z</time>
      </trkpt>
      <trkpt lat="42.64973" lon="1.96209">
        <ele>1433</ele>
        <time>2017-09-16T07:49:18.566Z</time>
      </trkpt>
      <trkpt lat="42.64956" lon="1.96202">
        <ele>1432</ele>
        <time>2017-09-16T07:49:30.570Z</time>
      </trkpt>
      <trkpt lat="42.64948" lon="1.96199">
        <ele>1432</ele>
        <time>2017-09-16T07:49:38.567Z</time>
      </trkpt>
      <trkpt lat="42.64936" lon="1.96195">
        <ele>1432</ele>
        <time>2017-09-16T07:49:45.565Z</time>
      </trkpt>
      <trkpt lat="42.64926" lon="1.96186">
        <ele>1432</ele>
        <time>2017-09-16T07:49:55.568Z</time>
      </trkpt>
      <trkpt lat="42.64905" lon="1.96178">
        <ele>1429</ele>
        <time>2017-09-16T07:50:06.572Z</time>
      </trkpt>
      <trkpt lat="42.64885" lon="1.96168">
        <ele>1428</ele>
        <time>2017-09-16T07:50:13.568Z</time>
      </trkpt>
      <trkpt lat="42.64869" lon="1.9615">
        <ele>1440</ele>
        <time>2017-09-16T07:50:31.568Z</time>
      </trkpt>
      <trkpt lat="42.64858" lon="1.96144">
        <ele>1440</ele>
        <time>2017-09-16T07:50:39.578Z</time>
      </trkpt>
      <trkpt lat="42.64847" lon="1.96142">
        <ele>1440</ele>
        <time>2017-09-16T07:50:45.564Z</time>
      </trkpt>
      <trkpt lat="42.64836" lon="1.9614">
        <ele>1440</ele>
        <time>2017-09-16T07:50:51.567Z</time>
      </trkpt>
      <trkpt lat="42.64825" lon="1.96136">
        <ele>1442</ele>
        <time>2017-09-16T07:51:01.571Z</time>
      </trkpt>
      <trkpt lat="42.64814" lon="1.96137">
        <ele>1442</ele>
        <time>2017-09-16T07:51:07.563Z</time>
      </trkpt>
      <trkpt lat="42.64805" lon="1.96131">
        <ele>1444</ele>
        <time>2017-09-16T07:51:14.571Z</time>
      </trkpt>
      <trkpt lat="42.64796" lon="1.96123">
        <ele>1445</ele>
        <time>2017-09-16T07:51:21.571Z</time>
      </trkpt>
      <trkpt lat="42.64776" lon="1.9612">
        <ele>1446</ele>
        <time>2017-09-16T07:51:39.571Z</time>
      </trkpt>
      <trkpt lat="42.64766" lon="1.96126">
        <ele>1444</ele>
        <time>2017-09-16T07:51:47.565Z</time>
      </trkpt>
      <trkpt lat="42.64752" lon="1.96123">
        <ele>1445</ele>
        <time>2017-09-16T07:52:04.571Z</time>
      </trkpt>
      <trkpt lat="42.6473" lon="1.96129">
        <ele>1440</ele>
        <time>2017-09-16T07:52:16.564Z</time>
      </trkpt>
      <trkpt lat="42.64718" lon="1.96126">
        <ele>1440</ele>
        <time>2017-09-16T07:52:24.576Z</time>
      </trkpt>
      <trkpt lat="42.64703" lon="1.96126">
        <ele>1439</ele>
        <time>2017-09-16T07:52:33.571Z</time>
      </trkpt>
      <trkpt lat="42.64693" lon="1.96126">
        <ele>1439</ele>
        <time>2017-09-16T07:52:39.571Z</time>
      </trkpt>
      <trkpt lat="42.64685" lon="1.96117">
        <ele>1441</ele>
        <time>2017-09-16T07:52:48.571Z</time>
      </trkpt>
      <trkpt lat="42.64668" lon="1.961">
        <ele>1445</ele>
        <time>2017-09-16T07:53:01.567Z</time>
      </trkpt>
      <trkpt lat="42.64661" lon="1.96096">
        <ele>1444</ele>
        <time>2017-09-16T07:53:08.571Z</time>
      </trkpt>
      <trkpt lat="42.6465" lon="1.96085">
        <ele>1443</ele>
        <time>2017-09-16T07:53:16.571Z</time>
      </trkpt>
      <trkpt lat="42.64639" lon="1.96077">
        <ele>1457</ele>
        <time>2017-09-16T07:53:24.571Z</time>
      </trkpt>
      <trkpt lat="42.64628" lon="1.96071">
        <ele>1457</ele>
        <time>2017-09-16T07:53:32.571Z</time>
      </trkpt>
      <trkpt lat="42.64618" lon="1.96068">
        <ele>1457</ele>
        <time>2017-09-16T07:53:39.571Z</time>
      </trkpt>
      <trkpt lat="42.64604" lon="1.96056">
        <ele>1457</ele>
        <time>2017-09-16T07:53:50.571Z</time>
      </trkpt>
      <trkpt lat="42.64595" lon="1.96049">
        <ele>1458</ele>
        <time>2017-09-16T07:53:57.571Z</time>
      </trkpt>
      <trkpt lat="42.64585" lon="1.96041">
        <ele>1460</ele>
        <time>2017-09-16T07:54:05.571Z</time>
      </trkpt>
      <trkpt lat="42.64577" lon="1.96033">
        <ele>1455</ele>
        <time>2017-09-16T07:54:12.571Z</time>
      </trkpt>
      <trkpt lat="42.64567" lon="1.96027">
        <ele>1456</ele>
        <time>2017-09-16T07:54:19.571Z</time>
      </trkpt>
      <trkpt lat="42.64557" lon="1.96021">
        <ele>1456</ele>
        <time>2017-09-16T07:54:27.571Z</time>
      </trkpt>
      <trkpt lat="42.64548" lon="1.96015">
        <ele>1455</ele>
        <time>2017-09-16T07:54:34.571Z</time>
      </trkpt>
      <trkpt lat="42.64539" lon="1.96008">
        <ele>1454</ele>
        <time>2017-09-16T07:54:41.571Z</time>
      </trkpt>
      <trkpt lat="42.6453" lon="1.96">
        <ele>1468</ele>
        <time>2017-09-16T07:54:49.571Z</time>
      </trkpt>
      <trkpt lat="42.64521" lon="1.95992">
        <ele>1466</ele>
        <time>2017-09-16T07:54:56.571Z</time>
      </trkpt>
      <trkpt lat="42.6451" lon="1.95985">
        <ele>1465</ele>
        <time>2017-09-16T07:55:03.571Z</time>
      </trkpt>
      <trkpt lat="42.645" lon="1.95982">
        <ele>1458</ele>
        <time>2017-09-16T07:55:10.571Z</time>
      </trkpt>
      <trkpt lat="42.6449" lon="1.95978">
        <ele>1459</ele>
        <time>2017-09-16T07:55:17.571Z</time>
      </trkpt>
      <trkpt lat="42.6448" lon="1.95976">
        <ele>1460</ele>
        <time>2017-09-16T07:55:25.571Z</time>
      </trkpt>
      <trkpt lat="42.64471" lon="1.95969">
        <ele>1462</ele>
        <time>2017-09-16T07:55:32.571Z</time>
      </trkpt>
      <trkpt lat="42.64462" lon="1.95963">
        <ele>1463</ele>
        <time>2017-09-16T07:55:39.571Z</time>
      </trkpt>
      <trkpt lat="42.64454" lon="1.95955">
        <ele>1463</ele>
        <time>2017-09-16T07:55:46.571Z</time>
      </trkpt>
      <trkpt lat="42.64444" lon="1.95948">
        <ele>1463</ele>
        <time>2017-09-16T07:55:53.571Z</time>
      </trkpt>
      <trkpt lat="42.64437" lon="1.95942">
        <ele>1463</ele>
        <time>2017-09-16T07:55:59.571Z</time>
      </trkpt>
      <trkpt lat="42.64429" lon="1.95936">
        <ele>1463</ele>
        <time>2017-09-16T07:56:05.571Z</time>
      </trkpt>
      <trkpt lat="42.64421" lon="1.95934">
        <ele>1463</ele>
        <time>2017-09-16T07:56:22.571Z</time>
      </trkpt>
      <trkpt lat="42.64415" lon="1.95941">
        <ele>1460</ele>
        <time>2017-09-16T07:56:37.571Z</time>
      </trkpt>
      <trkpt lat="42.64406" lon="1.95948">
        <ele>1460</ele>
        <time>2017-09-16T07:56:46.571Z</time>
      </trkpt>
      <trkpt lat="42.64404" lon="1.95952">
        <ele>1460</ele>
        <time>2017-09-16T07:56:51.571Z</time>
      </trkpt>
      <trkpt lat="42.64402" lon="1.95957">
        <ele>1459</ele>
        <time>2017-09-16T07:56:57.571Z</time>
      </trkpt>
      <trkpt lat="42.6439" lon="1.95975">
        <ele>1459</ele>
        <time>2017-09-16T07:57:12.571Z</time>
      </trkpt>
      <trkpt lat="42.64379" lon="1.9597">
        <ele>1460</ele>
        <time>2017-09-16T07:57:22.571Z</time>
      </trkpt>
      <trkpt lat="42.64375" lon="1.95954">
        <ele>1460</ele>
        <time>2017-09-16T07:57:29.571Z</time>
      </trkpt>
      <trkpt lat="42.64358" lon="1.9595">
        <ele>1461</ele>
        <time>2017-09-16T07:57:38.571Z</time>
      </trkpt>
      <trkpt lat="42.64349" lon="1.95944">
        <ele>1460</ele>
        <time>2017-09-16T07:57:45.567Z</time>
      </trkpt>
      <trkpt lat="42.64338" lon="1.95948">
        <ele>1461</ele>
        <time>2017-09-16T07:57:56.571Z</time>
      </trkpt>
      <trkpt lat="42.64321" lon="1.95937">
        <ele>1467</ele>
        <time>2017-09-16T07:58:04.571Z</time>
      </trkpt>
      <trkpt lat="42.64311" lon="1.95924">
        <ele>1467</ele>
        <time>2017-09-16T07:58:15.571Z</time>
      </trkpt>
      <trkpt lat="42.64302" lon="1.95918">
        <ele>1469</ele>
        <time>2017-09-16T07:58:22.571Z</time>
      </trkpt>
      <trkpt lat="42.64292" lon="1.95909">
        <ele>1467</ele>
        <time>2017-09-16T07:58:31.571Z</time>
      </trkpt>
      <trkpt lat="42.64281" lon="1.95907">
        <ele>1469</ele>
        <time>2017-09-16T07:58:38.571Z</time>
      </trkpt>
      <trkpt lat="42.6427" lon="1.95905">
        <ele>1470</ele>
        <time>2017-09-16T07:58:46.571Z</time>
      </trkpt>
      <trkpt lat="42.64262" lon="1.95894">
        <ele>1470</ele>
        <time>2017-09-16T07:58:53.571Z</time>
      </trkpt>
      <trkpt lat="42.64255" lon="1.95884">
        <ele>1469</ele>
        <time>2017-09-16T07:59:04.570Z</time>
      </trkpt>
      <trkpt lat="42.64244" lon="1.95874">
        <ele>1477</ele>
        <time>2017-09-16T07:59:13.571Z</time>
      </trkpt>
      <trkpt lat="42.64237" lon="1.95864">
        <ele>1477</ele>
        <time>2017-09-16T07:59:21.571Z</time>
      </trkpt>
      <trkpt lat="42.64238" lon="1.95849">
        <ele>1474</ele>
        <time>2017-09-16T07:59:30.571Z</time>
      </trkpt>
      <trkpt lat="42.64232" lon="1.95837">
        <ele>1474</ele>
        <time>2017-09-16T07:59:35.575Z</time>
      </trkpt>
      <trkpt lat="42.64221" lon="1.95803">
        <ele>1477</ele>
        <time>2017-09-16T07:59:53.571Z</time>
      </trkpt>
      <trkpt lat="42.64227" lon="1.9579">
        <ele>1477</ele>
        <time>2017-09-16T07:59:59.576Z</time>
      </trkpt>
      <trkpt lat="42.64218" lon="1.95774">
        <ele>1478</ele>
        <time>2017-09-16T08:00:11.571Z</time>
      </trkpt>
      <trkpt lat="42.64212" lon="1.95762">
        <ele>1479</ele>
        <time>2017-09-16T08:00:19.571Z</time>
      </trkpt>
      <trkpt lat="42.64203" lon="1.9574">
        <ele>1484</ele>
        <time>2017-09-16T08:00:31.571Z</time>
      </trkpt>
      <trkpt lat="42.64198" lon="1.95721">
        <ele>1484</ele>
        <time>2017-09-16T08:00:45.571Z</time>
      </trkpt>
      <trkpt lat="42.6419" lon="1.9571">
        <ele>1485</ele>
        <time>2017-09-16T08:00:52.571Z</time>
      </trkpt>
      <trkpt lat="42.64193" lon="1.95696">
        <ele>1485</ele>
        <time>2017-09-16T08:00:59.576Z</time>
      </trkpt>
      <trkpt lat="42.64194" lon="1.95683">
        <ele>1486</ele>
        <time>2017-09-16T08:01:08.573Z</time>
      </trkpt>
      <trkpt lat="42.64189" lon="1.95665">
        <ele>1491</ele>
        <time>2017-09-16T08:01:18.571Z</time>
      </trkpt>
      <trkpt lat="42.64181" lon="1.95657">
        <ele>1491</ele>
        <time>2017-09-16T08:01:31.571Z</time>
      </trkpt>
      <trkpt lat="42.64172" lon="1.95647">
        <ele>1491</ele>
        <time>2017-09-16T08:01:45.571Z</time>
      </trkpt>
      <trkpt lat="42.64158" lon="1.95637">
        <ele>1498</ele>
        <time>2017-09-16T08:02:01.571Z</time>
      </trkpt>
      <trkpt lat="42.6415" lon="1.95626">
        <ele>1500</ele>
        <time>2017-09-16T08:02:13.567Z</time>
      </trkpt>
      <trkpt lat="42.64145" lon="1.95609">
        <ele>1500</ele>
        <time>2017-09-16T08:02:25.571Z</time>
      </trkpt>
      <trkpt lat="42.64135" lon="1.95604">
        <ele>1502</ele>
        <time>2017-09-16T08:02:42.571Z</time>
      </trkpt>
      <trkpt lat="42.64124" lon="1.95601">
        <ele>1504</ele>
        <time>2017-09-16T08:02:53.571Z</time>
      </trkpt>
      <trkpt lat="42.64121" lon="1.95614">
        <ele>1505</ele>
        <time>2017-09-16T08:03:12.571Z</time>
      </trkpt>
      <trkpt lat="42.64113" lon="1.95623">
        <ele>1507</ele>
        <time>2017-09-16T08:03:31.571Z</time>
      </trkpt>
      <trkpt lat="42.64105" lon="1.95634">
        <ele>1508</ele>
        <time>2017-09-16T08:03:43.571Z</time>
      </trkpt>
      <trkpt lat="42.64093" lon="1.95633">
        <ele>1510</ele>
        <time>2017-09-16T08:03:51.571Z</time>
      </trkpt>
      <trkpt lat="42.64082" lon="1.95628">
        <ele>1535</ele>
        <time>2017-09-16T08:04:03.571Z</time>
      </trkpt>
      <trkpt lat="42.64076" lon="1.95612">
        <ele>1534</ele>
        <time>2017-09-16T08:04:10.571Z</time>
      </trkpt>
      <trkpt lat="42.64076" lon="1.95595">
        <ele>1529</ele>
        <time>2017-09-16T08:04:19.571Z</time>
      </trkpt>
      <trkpt lat="42.64071" lon="1.95583">
        <ele>1528</ele>
        <time>2017-09-16T08:04:32.571Z</time>
      </trkpt>
      <trkpt lat="42.64064" lon="1.95571">
        <ele>1533</ele>
        <time>2017-09-16T08:04:39.571Z</time>
      </trkpt>
      <trkpt lat="42.64062" lon="1.95556">
        <ele>1536</ele>
        <time>2017-09-16T08:04:52.571Z</time>
      </trkpt>
      <trkpt lat="42.64067" lon="1.95539">
        <ele>1535</ele>
        <time>2017-09-16T08:05:02.571Z</time>
      </trkpt>
      <trkpt lat="42.64062" lon="1.95526">
        <ele>1535</ele>
        <time>2017-09-16T08:05:11.571Z</time>
      </trkpt>
      <trkpt lat="42.64062" lon="1.95512">
        <ele>1532</ele>
        <time>2017-09-16T08:05:23.569Z</time>
      </trkpt>
      <trkpt lat="42.64057" lon="1.95491">
        <ele>1536</ele>
        <time>2017-09-16T08:05:34.571Z</time>
      </trkpt>
      <trkpt lat="42.64057" lon="1.95477">
        <ele>1538</ele>
        <time>2017-09-16T08:05:42.564Z</time>
      </trkpt>
      <trkpt lat="42.6405" lon="1.95467">
        <ele>1542</ele>
        <time>2017-09-16T08:05:54.579Z</time>
      </trkpt>
      <trkpt lat="42.64045" lon="1.95452">
        <ele>1544</ele>
        <time>2017-09-16T08:06:03.571Z</time>
      </trkpt>
      <trkpt lat="42.64041" lon="1.9544">
        <ele>1546</ele>
        <time>2017-09-16T08:06:17.571Z</time>
      </trkpt>
      <trkpt lat="42.64043" lon="1.95424">
        <ele>1546</ele>
        <time>2017-09-16T08:06:27.571Z</time>
      </trkpt>
      <trkpt lat="42.64041" lon="1.95408">
        <ele>1552</ele>
        <time>2017-09-16T08:06:37.571Z</time>
      </trkpt>
      <trkpt lat="42.64042" lon="1.95387">
        <ele>1552</ele>
        <time>2017-09-16T08:06:48.571Z</time>
      </trkpt>
      <trkpt lat="42.64041" lon="1.95373">
        <ele>1554</ele>
        <time>2017-09-16T08:06:56.571Z</time>
      </trkpt>
      <trkpt lat="42.63993" lon="1.95233">
        <ele>1583</ele>
        <time>2017-09-16T08:09:23.680Z</time>
      </trkpt>
      <trkpt lat="42.63984" lon="1.95285">
        <ele>1592</ele>
        <time>2017-09-16T08:10:34.571Z</time>
      </trkpt>
      <trkpt lat="42.63974" lon="1.95297">
        <ele>1595</ele>
        <time>2017-09-16T08:10:48.571Z</time>
      </trkpt>
      <trkpt lat="42.63964" lon="1.95291">
        <ele>1599</ele>
        <time>2017-09-16T08:11:03.571Z</time>
      </trkpt>
      <trkpt lat="42.63957" lon="1.95281">
        <ele>1601</ele>
        <time>2017-09-16T08:11:18.571Z</time>
      </trkpt>
      <trkpt lat="42.63955" lon="1.95273">
        <ele>1601</ele>
        <time>2017-09-16T08:11:25.571Z</time>
      </trkpt>
      <trkpt lat="42.63952" lon="1.95261">
        <ele>1602</ele>
        <time>2017-09-16T08:11:42.571Z</time>
      </trkpt>
      <trkpt lat="42.63947" lon="1.95251">
        <ele>1605</ele>
        <time>2017-09-16T08:11:54.575Z</time>
      </trkpt>
      <trkpt lat="42.63942" lon="1.95242">
        <ele>1603</ele>
        <time>2017-09-16T08:12:05.570Z</time>
      </trkpt>
      <trkpt lat="42.63943" lon="1.95228">
        <ele>1601</ele>
        <time>2017-09-16T08:12:15.567Z</time>
      </trkpt>
      <trkpt lat="42.63937" lon="1.95221">
        <ele>1602</ele>
        <time>2017-09-16T08:12:26.566Z</time>
      </trkpt>
      <trkpt lat="42.63933" lon="1.95211">
        <ele>1601</ele>
        <time>2017-09-16T08:12:37.573Z</time>
      </trkpt>
      <trkpt lat="42.63927" lon="1.95199">
        <ele>1601</ele>
        <time>2017-09-16T08:12:51.575Z</time>
      </trkpt>
      <trkpt lat="42.63919" lon="1.95192">
        <ele>1602</ele>
        <time>2017-09-16T08:13:00.564Z</time>
      </trkpt>
      <trkpt lat="42.63914" lon="1.95188">
        <ele>1621</ele>
        <time>2017-09-16T08:13:06.573Z</time>
      </trkpt>
      <trkpt lat="42.63906" lon="1.95182">
        <ele>1620</ele>
        <time>2017-09-16T08:13:15.571Z</time>
      </trkpt>
      <trkpt lat="42.63898" lon="1.95175">
        <ele>1622</ele>
        <time>2017-09-16T08:13:24.570Z</time>
      </trkpt>
      <trkpt lat="42.6389" lon="1.95166">
        <ele>1616</ele>
        <time>2017-09-16T08:13:36.571Z</time>
      </trkpt>
      <trkpt lat="42.63882" lon="1.95159">
        <ele>1619</ele>
        <time>2017-09-16T08:13:46.574Z</time>
      </trkpt>
      <trkpt lat="42.63874" lon="1.95151">
        <ele>1621</ele>
        <time>2017-09-16T08:13:54.570Z</time>
      </trkpt>
      <trkpt lat="42.63868" lon="1.95138">
        <ele>1621</ele>
        <time>2017-09-16T08:14:05.564Z</time>
      </trkpt>
      <trkpt lat="42.63862" lon="1.9513">
        <ele>1621</ele>
        <time>2017-09-16T08:14:19.566Z</time>
      </trkpt>
      <trkpt lat="42.63853" lon="1.95135">
        <ele>1624</ele>
        <time>2017-09-16T08:14:37.568Z</time>
      </trkpt>
      <trkpt lat="42.63845" lon="1.9513">
        <ele>1624</ele>
        <time>2017-09-16T08:14:46.572Z</time>
      </trkpt>
      <trkpt lat="42.63836" lon="1.95125">
        <ele>1624</ele>
        <time>2017-09-16T08:15:11.572Z</time>
      </trkpt>
      <trkpt lat="42.63825" lon="1.95127">
        <ele>1643</ele>
        <time>2017-09-16T08:15:19.574Z</time>
      </trkpt>
      <trkpt lat="42.63818" lon="1.95132">
        <ele>1644</ele>
        <time>2017-09-16T08:15:30.576Z</time>
      </trkpt>
      <trkpt lat="42.63809" lon="1.95133">
        <ele>1646</ele>
        <time>2017-09-16T08:15:39.574Z</time>
      </trkpt>
      <trkpt lat="42.63802" lon="1.95138">
        <ele>1647</ele>
        <time>2017-09-16T08:15:47.566Z</time>
      </trkpt>
      <trkpt lat="42.63793" lon="1.95139">
        <ele>1649</ele>
        <time>2017-09-16T08:15:56.863Z</time>
      </trkpt>
      <trkpt lat="42.63785" lon="1.95138">
        <ele>1651</ele>
        <time>2017-09-16T08:16:09.568Z</time>
      </trkpt>
      <trkpt lat="42.63776" lon="1.95139">
        <ele>1653</ele>
        <time>2017-09-16T08:16:26.568Z</time>
      </trkpt>
      <trkpt lat="42.63767" lon="1.95132">
        <ele>1653</ele>
        <time>2017-09-16T08:16:31.571Z</time>
      </trkpt>
      <trkpt lat="42.63762" lon="1.95119">
        <ele>1650</ele>
        <time>2017-09-16T08:16:42.571Z</time>
      </trkpt>
      <trkpt lat="42.63754" lon="1.95118">
        <ele>1651</ele>
        <time>2017-09-16T08:16:52.572Z</time>
      </trkpt>
      <trkpt lat="42.63747" lon="1.95109">
        <ele>1666</ele>
        <time>2017-09-16T08:17:16.571Z</time>
      </trkpt>
      <trkpt lat="42.63737" lon="1.95108">
        <ele>1667</ele>
        <time>2017-09-16T08:17:30.576Z</time>
      </trkpt>
      <trkpt lat="42.63729" lon="1.9511">
        <ele>1670</ele>
        <time>2017-09-16T08:17:38.568Z</time>
      </trkpt>
      <trkpt lat="42.6373" lon="1.95123">
        <ele>1673</ele>
        <time>2017-09-16T08:17:51.569Z</time>
      </trkpt>
      <trkpt lat="42.63736" lon="1.95129">
        <ele>1673</ele>
        <time>2017-09-16T08:18:01.570Z</time>
      </trkpt>
      <trkpt lat="42.63742" lon="1.95139">
        <ele>1674</ele>
        <time>2017-09-16T08:18:09.567Z</time>
      </trkpt>
      <trkpt lat="42.63741" lon="1.95151">
        <ele>1676</ele>
        <time>2017-09-16T08:18:19.566Z</time>
      </trkpt>
      <trkpt lat="42.6373" lon="1.9515">
        <ele>1677</ele>
        <time>2017-09-16T08:18:32.575Z</time>
      </trkpt>
      <trkpt lat="42.63722" lon="1.95143">
        <ele>1677</ele>
        <time>2017-09-16T08:18:41.574Z</time>
      </trkpt>
      <trkpt lat="42.63712" lon="1.95141">
        <ele>1679</ele>
        <time>2017-09-16T08:19:06.571Z</time>
      </trkpt>
      <trkpt lat="42.63701" lon="1.95141">
        <ele>1681</ele>
        <time>2017-09-16T08:19:22.571Z</time>
      </trkpt>
      <trkpt lat="42.6369" lon="1.95135">
        <ele>1682</ele>
        <time>2017-09-16T08:19:40.571Z</time>
      </trkpt>
      <trkpt lat="42.6368" lon="1.9513">
        <ele>1683</ele>
        <time>2017-09-16T08:19:53.571Z</time>
      </trkpt>
      <trkpt lat="42.6367" lon="1.95129">
        <ele>1684</ele>
        <time>2017-09-16T08:20:08.572Z</time>
      </trkpt>
      <trkpt lat="42.63662" lon="1.9512">
        <ele>1701</ele>
        <time>2017-09-16T08:20:20.564Z</time>
      </trkpt>
      <trkpt lat="42.63655" lon="1.9513">
        <ele>1703</ele>
        <time>2017-09-16T08:20:58.574Z</time>
      </trkpt>
      <trkpt lat="42.63648" lon="1.95139">
        <ele>1705</ele>
        <time>2017-09-16T08:21:16.578Z</time>
      </trkpt>
      <trkpt lat="42.6364" lon="1.95129">
        <ele>1705</ele>
        <time>2017-09-16T08:21:26.571Z</time>
      </trkpt>
      <trkpt lat="42.63629" lon="1.95123">
        <ele>1706</ele>
        <time>2017-09-16T08:21:37.571Z</time>
      </trkpt>
      <trkpt lat="42.63618" lon="1.95115">
        <ele>1706</ele>
        <time>2017-09-16T08:21:48.571Z</time>
      </trkpt>
      <trkpt lat="42.63612" lon="1.95104">
        <ele>1706</ele>
        <time>2017-09-16T08:22:01.571Z</time>
      </trkpt>
      <trkpt lat="42.63602" lon="1.951">
        <ele>1707</ele>
        <time>2017-09-16T08:22:14.572Z</time>
      </trkpt>
      <trkpt lat="42.63593" lon="1.95096">
        <ele>1707</ele>
        <time>2017-09-16T08:22:22.571Z</time>
      </trkpt>
      <trkpt lat="42.63584" lon="1.95088">
        <ele>1707</ele>
        <time>2017-09-16T08:22:31.576Z</time>
      </trkpt>
      <trkpt lat="42.63579" lon="1.95075">
        <ele>1707</ele>
        <time>2017-09-16T08:22:41.568Z</time>
      </trkpt>
      <trkpt lat="42.63568" lon="1.9508">
        <ele>1707</ele>
        <time>2017-09-16T08:22:51.573Z</time>
      </trkpt>
      <trkpt lat="42.63559" lon="1.95075">
        <ele>1707</ele>
        <time>2017-09-16T08:23:00.571Z</time>
      </trkpt>
      <trkpt lat="42.63547" lon="1.95074">
        <ele>1709</ele>
        <time>2017-09-16T08:23:12.568Z</time>
      </trkpt>
      <trkpt lat="42.63542" lon="1.95082">
        <ele>1710</ele>
        <time>2017-09-16T08:23:23.878Z</time>
      </trkpt>
      <trkpt lat="42.63537" lon="1.95089">
        <ele>1727</ele>
        <time>2017-09-16T08:23:32.571Z</time>
      </trkpt>
      <trkpt lat="42.63532" lon="1.95092">
        <ele>1728</ele>
        <time>2017-09-16T08:23:39.571Z</time>
      </trkpt>
      <trkpt lat="42.63526" lon="1.95092">
        <ele>1729</ele>
        <time>2017-09-16T08:23:44.571Z</time>
      </trkpt>
      <trkpt lat="42.63521" lon="1.95092">
        <ele>1729</ele>
        <time>2017-09-16T08:23:50.571Z</time>
      </trkpt>
      <trkpt lat="42.63515" lon="1.95094">
        <ele>1729</ele>
        <time>2017-09-16T08:24:03.564Z</time>
      </trkpt>
      <trkpt lat="42.63506" lon="1.95087">
        <ele>1728</ele>
        <time>2017-09-16T08:24:12.568Z</time>
      </trkpt>
      <trkpt lat="42.63498" lon="1.95078">
        <ele>1728</ele>
        <time>2017-09-16T08:24:26.571Z</time>
      </trkpt>
      <trkpt lat="42.63489" lon="1.95072">
        <ele>1730</ele>
        <time>2017-09-16T08:24:38.571Z</time>
      </trkpt>
      <trkpt lat="42.63479" lon="1.95068">
        <ele>1731</ele>
        <time>2017-09-16T08:24:50.571Z</time>
      </trkpt>
      <trkpt lat="42.63471" lon="1.95061">
        <ele>1732</ele>
        <time>2017-09-16T08:25:07.571Z</time>
      </trkpt>
      <trkpt lat="42.6346" lon="1.95065">
        <ele>1735</ele>
        <time>2017-09-16T08:25:18.568Z</time>
      </trkpt>
      <trkpt lat="42.63451" lon="1.95067">
        <ele>1738</ele>
        <time>2017-09-16T08:25:26.563Z</time>
      </trkpt>
      <trkpt lat="42.63443" lon="1.95065">
        <ele>1740</ele>
        <time>2017-09-16T08:25:36.572Z</time>
      </trkpt>
      <trkpt lat="42.63433" lon="1.95063">
        <ele>1743</ele>
        <time>2017-09-16T08:25:52.571Z</time>
      </trkpt>
      <trkpt lat="42.63423" lon="1.95067">
        <ele>1747</ele>
        <time>2017-09-16T08:26:07.571Z</time>
      </trkpt>
      <trkpt lat="42.63413" lon="1.95066">
        <ele>1766</ele>
        <time>2017-09-16T08:26:13.571Z</time>
      </trkpt>
      <trkpt lat="42.63404" lon="1.95066">
        <ele>1767</ele>
        <time>2017-09-16T08:26:29.570Z</time>
      </trkpt>
      <trkpt lat="42.63395" lon="1.9507">
        <ele>1769</ele>
        <time>2017-09-16T08:26:35.565Z</time>
      </trkpt>
      <trkpt lat="42.63385" lon="1.9507">
        <ele>1772</ele>
        <time>2017-09-16T08:26:44.569Z</time>
      </trkpt>
      <trkpt lat="42.63379" lon="1.95078">
        <ele>1774</ele>
        <time>2017-09-16T08:27:01.564Z</time>
      </trkpt>
      <trkpt lat="42.6337" lon="1.95072">
        <ele>1776</ele>
        <time>2017-09-16T08:27:14.570Z</time>
      </trkpt>
      <trkpt lat="42.63361" lon="1.95069">
        <ele>1779</ele>
        <time>2017-09-16T08:27:35.570Z</time>
      </trkpt>
      <trkpt lat="42.63353" lon="1.95065">
        <ele>1781</ele>
        <time>2017-09-16T08:27:49.565Z</time>
      </trkpt>
      <trkpt lat="42.63352" lon="1.95078">
        <ele>1784</ele>
        <time>2017-09-16T08:28:20.570Z</time>
      </trkpt>
      <trkpt lat="42.63345" lon="1.95086">
        <ele>1795</ele>
        <time>2017-09-16T08:28:41.576Z</time>
      </trkpt>
      <trkpt lat="42.63342" lon="1.95075">
        <ele>1788</ele>
        <time>2017-09-16T08:28:52.568Z</time>
      </trkpt>
      <trkpt lat="42.63353" lon="1.95073">
        <ele>1783</ele>
        <time>2017-09-16T08:29:42.571Z</time>
      </trkpt>
      <trkpt lat="42.63362" lon="1.95088">
        <ele>1792</ele>
        <time>2017-09-16T08:29:52.570Z</time>
      </trkpt>
      <trkpt lat="42.63348" lon="1.95091">
        <ele>1795</ele>
        <time>2017-09-16T08:30:10.571Z</time>
      </trkpt>
      <trkpt lat="42.63339" lon="1.95085">
        <ele>1796</ele>
        <time>2017-09-16T08:30:23.569Z</time>
      </trkpt>
      <trkpt lat="42.63327" lon="1.95084">
        <ele>1802</ele>
        <time>2017-09-16T08:30:36.578Z</time>
      </trkpt>
      <trkpt lat="42.63334" lon="1.95087">
        <ele>1797</ele>
        <time>2017-09-16T08:30:51.573Z</time>
      </trkpt>
      <trkpt lat="42.63341" lon="1.95094">
        <ele>1796</ele>
        <time>2017-09-16T08:30:56.573Z</time>
      </trkpt>
      <trkpt lat="42.63346" lon="1.95101">
        <ele>1796</ele>
        <time>2017-09-16T08:31:05.574Z</time>
      </trkpt>
      <trkpt lat="42.63352" lon="1.95112">
        <ele>1796</ele>
        <time>2017-09-16T08:31:15.571Z</time>
      </trkpt>
      <trkpt lat="42.63339" lon="1.95113">
        <ele>1797</ele>
        <time>2017-09-16T08:31:34.571Z</time>
      </trkpt>
      <trkpt lat="42.63328" lon="1.95115">
        <ele>1814</ele>
        <time>2017-09-16T08:31:46.571Z</time>
      </trkpt>
      <trkpt lat="42.63322" lon="1.95122">
        <ele>1815</ele>
        <time>2017-09-16T08:31:59.565Z</time>
      </trkpt>
      <trkpt lat="42.63329" lon="1.95126">
        <ele>1816</ele>
        <time>2017-09-16T08:32:09.571Z</time>
      </trkpt>
      <trkpt lat="42.63337" lon="1.95134">
        <ele>1802</ele>
        <time>2017-09-16T08:32:15.562Z</time>
      </trkpt>
      <trkpt lat="42.63346" lon="1.95139">
        <ele>1802</ele>
        <time>2017-09-16T08:32:20.572Z</time>
      </trkpt>
      <trkpt lat="42.63335" lon="1.95141">
        <ele>1804</ele>
        <time>2017-09-16T08:32:28.571Z</time>
      </trkpt>
      <trkpt lat="42.63327" lon="1.95138">
        <ele>1818</ele>
        <time>2017-09-16T08:32:40.571Z</time>
      </trkpt>
      <trkpt lat="42.6332" lon="1.95142">
        <ele>1818</ele>
        <time>2017-09-16T08:33:02.569Z</time>
      </trkpt>
      <trkpt lat="42.63317" lon="1.95156">
        <ele>1819</ele>
        <time>2017-09-16T08:33:20.572Z</time>
      </trkpt>
      <trkpt lat="42.63322" lon="1.95166">
        <ele>1820</ele>
        <time>2017-09-16T08:33:28.570Z</time>
      </trkpt>
      <trkpt lat="42.63333" lon="1.95176">
        <ele>1834</ele>
        <time>2017-09-16T08:33:44.571Z</time>
      </trkpt>
      <trkpt lat="42.63342" lon="1.95188">
        <ele>1834</ele>
        <time>2017-09-16T08:33:55.571Z</time>
      </trkpt>
      <trkpt lat="42.63333" lon="1.95195">
        <ele>1851</ele>
        <time>2017-09-16T08:34:06.571Z</time>
      </trkpt>
      <trkpt lat="42.63322" lon="1.95196">
        <ele>1853</ele>
        <time>2017-09-16T08:34:22.571Z</time>
      </trkpt>
      <trkpt lat="42.63313" lon="1.95196">
        <ele>1854</ele>
        <time>2017-09-16T08:34:33.572Z</time>
      </trkpt>
      <trkpt lat="42.63304" lon="1.95186">
        <ele>1852</ele>
        <time>2017-09-16T08:34:44.571Z</time>
      </trkpt>
      <trkpt lat="42.63294" lon="1.95189">
        <ele>1855</ele>
        <time>2017-09-16T08:34:57.571Z</time>
      </trkpt>
      <trkpt lat="42.63285" lon="1.95188">
        <ele>1855</ele>
        <time>2017-09-16T08:35:07.571Z</time>
      </trkpt>
      <trkpt lat="42.63271" lon="1.95189">
        <ele>1855</ele>
        <time>2017-09-16T08:35:21.571Z</time>
      </trkpt>
      <trkpt lat="42.6326" lon="1.95188">
        <ele>1853</ele>
        <time>2017-09-16T08:35:37.571Z</time>
      </trkpt>
      <trkpt lat="42.6325" lon="1.9519">
        <ele>1854</ele>
        <time>2017-09-16T08:35:49.569Z</time>
      </trkpt>
      <trkpt lat="42.6324" lon="1.95192">
        <ele>1874</ele>
        <time>2017-09-16T08:36:07.571Z</time>
      </trkpt>
      <trkpt lat="42.6323" lon="1.95186">
        <ele>1874</ele>
        <time>2017-09-16T08:36:17.571Z</time>
      </trkpt>
      <trkpt lat="42.63218" lon="1.95185">
        <ele>1881</ele>
        <time>2017-09-16T08:36:34.571Z</time>
      </trkpt>
      <trkpt lat="42.63205" lon="1.95183">
        <ele>1886</ele>
        <time>2017-09-16T08:36:50.571Z</time>
      </trkpt>
      <trkpt lat="42.63195" lon="1.95184">
        <ele>1890</ele>
        <time>2017-09-16T08:37:10.570Z</time>
      </trkpt>
      <trkpt lat="42.63186" lon="1.95165">
        <ele>1870</ele>
        <time>2017-09-16T08:37:23.571Z</time>
      </trkpt>
      <trkpt lat="42.6317" lon="1.95173">
        <ele>1892</ele>
        <time>2017-09-16T08:37:43.571Z</time>
      </trkpt>
      <trkpt lat="42.63161" lon="1.95167">
        <ele>1892</ele>
        <time>2017-09-16T08:37:58.575Z</time>
      </trkpt>
      <trkpt lat="42.63146" lon="1.95172">
        <ele>1909</ele>
        <time>2017-09-16T08:38:18.571Z</time>
      </trkpt>
      <trkpt lat="42.63134" lon="1.95162">
        <ele>1894</ele>
        <time>2017-09-16T08:38:39.571Z</time>
      </trkpt>
      <trkpt lat="42.63124" lon="1.95159">
        <ele>1896</ele>
        <time>2017-09-16T08:39:00.571Z</time>
      </trkpt>
      <trkpt lat="42.63114" lon="1.95157">
        <ele>1898</ele>
        <time>2017-09-16T08:39:12.569Z</time>
      </trkpt>
      <trkpt lat="42.63104" lon="1.95155">
        <ele>1901</ele>
        <time>2017-09-16T08:39:20.572Z</time>
      </trkpt>
      <trkpt lat="42.63094" lon="1.95145">
        <ele>1901</ele>
        <time>2017-09-16T08:39:32.571Z</time>
      </trkpt>
      <trkpt lat="42.63084" lon="1.95142">
        <ele>1902</ele>
        <time>2017-09-16T08:39:54.571Z</time>
      </trkpt>
      <trkpt lat="42.63075" lon="1.9513">
        <ele>1920</ele>
        <time>2017-09-16T08:40:03.571Z</time>
      </trkpt>
      <trkpt lat="42.63065" lon="1.9513">
        <ele>1922</ele>
        <time>2017-09-16T08:40:15.571Z</time>
      </trkpt>
      <trkpt lat="42.63053" lon="1.95127">
        <ele>1924</ele>
        <time>2017-09-16T08:40:29.571Z</time>
      </trkpt>
      <trkpt lat="42.63045" lon="1.95118">
        <ele>1924</ele>
        <time>2017-09-16T08:40:36.571Z</time>
      </trkpt>
      <trkpt lat="42.63034" lon="1.95112">
        <ele>1926</ele>
        <time>2017-09-16T08:40:47.571Z</time>
      </trkpt>
      <trkpt lat="42.63024" lon="1.95104">
        <ele>1927</ele>
        <time>2017-09-16T08:40:57.571Z</time>
      </trkpt>
      <trkpt lat="42.63017" lon="1.95095">
        <ele>1928</ele>
        <time>2017-09-16T08:41:05.572Z</time>
      </trkpt>
      <trkpt lat="42.63008" lon="1.95087">
        <ele>1930</ele>
        <time>2017-09-16T08:41:17.573Z</time>
      </trkpt>
      <trkpt lat="42.63001" lon="1.95079">
        <ele>1928</ele>
        <time>2017-09-16T08:41:27.571Z</time>
      </trkpt>
      <trkpt lat="42.62991" lon="1.95074">
        <ele>1932</ele>
        <time>2017-09-16T08:41:44.571Z</time>
      </trkpt>
      <trkpt lat="42.62985" lon="1.9507">
        <ele>1932</ele>
        <time>2017-09-16T08:41:54.570Z</time>
      </trkpt>
      <trkpt lat="42.62977" lon="1.95077">
        <ele>1933</ele>
        <time>2017-09-16T08:42:36.567Z</time>
      </trkpt>
      <trkpt lat="42.62968" lon="1.95079">
        <ele>1934</ele>
        <time>2017-09-16T08:42:44.574Z</time>
      </trkpt>
      <trkpt lat="42.62957" lon="1.95077">
        <ele>1936</ele>
        <time>2017-09-16T08:43:08.573Z</time>
      </trkpt>
      <trkpt lat="42.62952" lon="1.95065">
        <ele>1936</ele>
        <time>2017-09-16T08:43:29.574Z</time>
      </trkpt>
      <trkpt lat="42.62959" lon="1.95069">
        <ele>1935</ele>
        <time>2017-09-16T08:43:57.562Z</time>
      </trkpt>
      <trkpt lat="42.62955" lon="1.95078">
        <ele>1937</ele>
        <time>2017-09-16T08:44:34.568Z</time>
      </trkpt>
      <trkpt lat="42.62949" lon="1.95068">
        <ele>1937</ele>
        <time>2017-09-16T08:44:56.571Z</time>
      </trkpt>
      <trkpt lat="42.62958" lon="1.95069">
        <ele>1935</ele>
        <time>2017-09-16T08:46:11.579Z</time>
      </trkpt>
      <trkpt lat="42.62953" lon="1.95078">
        <ele>1937</ele>
        <time>2017-09-16T08:46:50.572Z</time>
      </trkpt>
      <trkpt lat="42.62949" lon="1.95065">
        <ele>1937</ele>
        <time>2017-09-16T08:47:59.575Z</time>
      </trkpt>
      <trkpt lat="42.62954" lon="1.95069">
        <ele>1936</ele>
        <time>2017-09-16T08:48:56.571Z</time>
      </trkpt>
      <trkpt lat="42.62944" lon="1.95062">
        <ele>1937</ele>
        <time>2017-09-16T08:49:44.571Z</time>
      </trkpt>
      <trkpt lat="42.62953" lon="1.95068">
        <ele>1936</ele>
        <time>2017-09-16T08:49:50.571Z</time>
      </trkpt>
      <trkpt lat="42.62941" lon="1.95066">
        <ele>1939</ele>
        <time>2017-09-16T08:50:06.571Z</time>
      </trkpt>
      <trkpt lat="42.62926" lon="1.9506">
        <ele>1940</ele>
        <time>2017-09-16T08:50:21.571Z</time>
      </trkpt>
      <trkpt lat="42.62914" lon="1.95056">
        <ele>1959</ele>
        <time>2017-09-16T08:50:31.571Z</time>
      </trkpt>
      <trkpt lat="42.62904" lon="1.9506">
        <ele>1960</ele>
        <time>2017-09-16T08:50:43.370Z</time>
      </trkpt>
      <trkpt lat="42.62893" lon="1.95061">
        <ele>1962</ele>
        <time>2017-09-16T08:50:48.571Z</time>
      </trkpt>
      <trkpt lat="42.62881" lon="1.95056">
        <ele>1965</ele>
        <time>2017-09-16T08:51:00.571Z</time>
      </trkpt>
      <trkpt lat="42.62871" lon="1.95056">
        <ele>1968</ele>
        <time>2017-09-16T08:51:10.570Z</time>
      </trkpt>
      <trkpt lat="42.62861" lon="1.95062">
        <ele>1971</ele>
        <time>2017-09-16T08:51:18.566Z</time>
      </trkpt>
      <trkpt lat="42.62853" lon="1.9505">
        <ele>1972</ele>
        <time>2017-09-16T08:51:30.563Z</time>
      </trkpt>
      <trkpt lat="42.62849" lon="1.95039">
        <ele>1972</ele>
        <time>2017-09-16T08:51:36.573Z</time>
      </trkpt>
      <trkpt lat="42.62839" lon="1.95031">
        <ele>1974</ele>
        <time>2017-09-16T08:51:47.565Z</time>
      </trkpt>
      <trkpt lat="42.62833" lon="1.95019">
        <ele>1999</ele>
        <time>2017-09-16T08:51:59.573Z</time>
      </trkpt>
      <trkpt lat="42.62824" lon="1.95012">
        <ele>1998</ele>
        <time>2017-09-16T08:52:17.571Z</time>
      </trkpt>
      <trkpt lat="42.62819" lon="1.95025">
        <ele>2003</ele>
        <time>2017-09-16T08:52:34.567Z</time>
      </trkpt>
      <trkpt lat="42.62815" lon="1.95039">
        <ele>2006</ele>
        <time>2017-09-16T08:52:45.568Z</time>
      </trkpt>
      <trkpt lat="42.62804" lon="1.95011">
        <ele>2006</ele>
        <time>2017-09-16T08:53:03.873Z</time>
      </trkpt>
      <trkpt lat="42.62801" lon="1.94998">
        <ele>1993</ele>
        <time>2017-09-16T08:53:13.570Z</time>
      </trkpt>
      <trkpt lat="42.62798" lon="1.94985">
        <ele>1993</ele>
        <time>2017-09-16T08:53:21.874Z</time>
      </trkpt>
      <trkpt lat="42.62795" lon="1.94971">
        <ele>1992</ele>
        <time>2017-09-16T08:53:27.570Z</time>
      </trkpt>
      <trkpt lat="42.62792" lon="1.94958">
        <ele>1990</ele>
        <time>2017-09-16T08:53:35.567Z</time>
      </trkpt>
      <trkpt lat="42.6279" lon="1.94942">
        <ele>1988</ele>
        <time>2017-09-16T08:54:03.571Z</time>
      </trkpt>
      <trkpt lat="42.6279" lon="1.94928">
        <ele>1986</ele>
        <time>2017-09-16T08:54:18.568Z</time>
      </trkpt>
      <trkpt lat="42.62786" lon="1.94915">
        <ele>1976</ele>
        <time>2017-09-16T08:54:24.563Z</time>
      </trkpt>
      <trkpt lat="42.62786" lon="1.949">
        <ele>1975</ele>
        <time>2017-09-16T08:54:38.574Z</time>
      </trkpt>
      <trkpt lat="42.62783" lon="1.94891">
        <ele>1975</ele>
        <time>2017-09-16T08:54:45.570Z</time>
      </trkpt>
      <trkpt lat="42.62779" lon="1.94881">
        <ele>1975</ele>
        <time>2017-09-16T08:54:50.573Z</time>
      </trkpt>
      <trkpt lat="42.62775" lon="1.94873">
        <ele>1975</ele>
        <time>2017-09-16T08:54:55.567Z</time>
      </trkpt>
      <trkpt lat="42.62772" lon="1.94863">
        <ele>1975</ele>
        <time>2017-09-16T08:55:02.565Z</time>
      </trkpt>
      <trkpt lat="42.62769" lon="1.94851">
        <ele>1975</ele>
        <time>2017-09-16T08:55:09.569Z</time>
      </trkpt>
      <trkpt lat="42.62765" lon="1.94842">
        <ele>1976</ele>
        <time>2017-09-16T08:55:15.566Z</time>
      </trkpt>
      <trkpt lat="42.62767" lon="1.9483">
        <ele>1975</ele>
        <time>2017-09-16T08:55:21.571Z</time>
      </trkpt>
      <trkpt lat="42.62765" lon="1.94819">
        <ele>1975</ele>
        <time>2017-09-16T08:55:26.564Z</time>
      </trkpt>
      <trkpt lat="42.62767" lon="1.94808">
        <ele>1974</ele>
        <time>2017-09-16T08:55:31.565Z</time>
      </trkpt>
      <trkpt lat="42.62766" lon="1.94798">
        <ele>1974</ele>
        <time>2017-09-16T08:55:40.566Z</time>
      </trkpt>
      <trkpt lat="42.62767" lon="1.94784">
        <ele>1974</ele>
        <time>2017-09-16T08:55:47.568Z</time>
      </trkpt>
      <trkpt lat="42.62763" lon="1.94775">
        <ele>1974</ele>
        <time>2017-09-16T08:55:54.570Z</time>
      </trkpt>
      <trkpt lat="42.62753" lon="1.94779">
        <ele>1974</ele>
        <time>2017-09-16T08:56:09.564Z</time>
      </trkpt>
      <trkpt lat="42.62741" lon="1.94793">
        <ele>1976</ele>
        <time>2017-09-16T08:56:23.579Z</time>
      </trkpt>
      <trkpt lat="42.62741" lon="1.94793">
        <ele>1976</ele>
        <time>2017-09-16T08:56:37.571Z</time>
      </trkpt>
      <trkpt lat="42.6274" lon="1.94784">
        <ele>1975</ele>
        <time>2017-09-16T08:57:20.571Z</time>
      </trkpt>
      <trkpt lat="42.62743" lon="1.94778">
        <ele>1975</ele>
        <time>2017-09-16T08:58:12.571Z</time>
      </trkpt>
      <trkpt lat="42.62745" lon="1.94774">
        <ele>1974</ele>
        <time>2017-09-16T08:58:33.571Z</time>
      </trkpt>
      <trkpt lat="42.62739" lon="1.94771">
        <ele>1974</ele>
        <time>2017-09-16T08:59:02.571Z</time>
      </trkpt>
      <trkpt lat="42.62736" lon="1.94766">
        <ele>1974</ele>
        <time>2017-09-16T08:59:20.571Z</time>
      </trkpt>
      <trkpt lat="42.6273" lon="1.94762">
        <ele>1973</ele>
        <time>2017-09-16T08:59:31.571Z</time>
      </trkpt>
      <trkpt lat="42.62732" lon="1.94755">
        <ele>1973</ele>
        <time>2017-09-16T08:59:37.571Z</time>
      </trkpt>
      <trkpt lat="42.62725" lon="1.94747">
        <ele>1970</ele>
        <time>2017-09-16T08:59:55.571Z</time>
      </trkpt>
      <trkpt lat="42.62719" lon="1.94737">
        <ele>1970</ele>
        <time>2017-09-16T09:00:03.571Z</time>
      </trkpt>
      <trkpt lat="42.62713" lon="1.94725">
        <ele>1970</ele>
        <time>2017-09-16T09:00:11.571Z</time>
      </trkpt>
      <trkpt lat="42.62708" lon="1.94713">
        <ele>1970</ele>
        <time>2017-09-16T09:00:18.571Z</time>
      </trkpt>
      <trkpt lat="42.62708" lon="1.94699">
        <ele>1971</ele>
        <time>2017-09-16T09:00:28.571Z</time>
      </trkpt>
      <trkpt lat="42.62704" lon="1.94685">
        <ele>1971</ele>
        <time>2017-09-16T09:01:14.571Z</time>
      </trkpt>
      <trkpt lat="42.62698" lon="1.94669">
        <ele>1970</ele>
        <time>2017-09-16T09:01:26.571Z</time>
      </trkpt>
      <trkpt lat="42.62694" lon="1.94653">
        <ele>1974</ele>
        <time>2017-09-16T09:01:38.571Z</time>
      </trkpt>
      <trkpt lat="42.62682" lon="1.94645">
        <ele>1972</ele>
        <time>2017-09-16T09:01:54.571Z</time>
      </trkpt>
      <trkpt lat="42.6268" lon="1.94631">
        <ele>1973</ele>
        <time>2017-09-16T09:02:02.571Z</time>
      </trkpt>
      <trkpt lat="42.62679" lon="1.94614">
        <ele>1974</ele>
        <time>2017-09-16T09:02:14.571Z</time>
      </trkpt>
      <trkpt lat="42.6268" lon="1.94598">
        <ele>1973</ele>
        <time>2017-09-16T09:02:40.571Z</time>
      </trkpt>
      <trkpt lat="42.62681" lon="1.94585">
        <ele>1973</ele>
        <time>2017-09-16T09:02:48.571Z</time>
      </trkpt>
      <trkpt lat="42.62678" lon="1.94571">
        <ele>1970</ele>
        <time>2017-09-16T09:02:59.571Z</time>
      </trkpt>
      <trkpt lat="42.62679" lon="1.94558">
        <ele>1971</ele>
        <time>2017-09-16T09:03:08.571Z</time>
      </trkpt>
      <trkpt lat="42.62689" lon="1.94551">
        <ele>1971</ele>
        <time>2017-09-16T09:03:19.571Z</time>
      </trkpt>
      <trkpt lat="42.6269" lon="1.94538">
        <ele>1970</ele>
        <time>2017-09-16T09:03:27.570Z</time>
      </trkpt>
      <trkpt lat="42.62681" lon="1.94532">
        <ele>1969</ele>
        <time>2017-09-16T09:03:41.571Z</time>
      </trkpt>
      <trkpt lat="42.6267" lon="1.9453">
        <ele>1968</ele>
        <time>2017-09-16T09:03:48.571Z</time>
      </trkpt>
      <trkpt lat="42.62664" lon="1.94519">
        <ele>1962</ele>
        <time>2017-09-16T09:03:57.571Z</time>
      </trkpt>
      <trkpt lat="42.62657" lon="1.94507">
        <ele>1962</ele>
        <time>2017-09-16T09:04:05.571Z</time>
      </trkpt>
      <trkpt lat="42.62659" lon="1.94492">
        <ele>1961</ele>
        <time>2017-09-16T09:04:13.571Z</time>
      </trkpt>
      <trkpt lat="42.62658" lon="1.94479">
        <ele>1961</ele>
        <time>2017-09-16T09:04:26.572Z</time>
      </trkpt>
      <trkpt lat="42.62666" lon="1.94468">
        <ele>1961</ele>
        <time>2017-09-16T09:04:33.571Z</time>
      </trkpt>
      <trkpt lat="42.62668" lon="1.94452">
        <ele>1968</ele>
        <time>2017-09-16T09:04:41.571Z</time>
      </trkpt>
      <trkpt lat="42.62667" lon="1.94438">
        <ele>1968</ele>
        <time>2017-09-16T09:04:48.571Z</time>
      </trkpt>
      <trkpt lat="42.62663" lon="1.94424">
        <ele>1966</ele>
        <time>2017-09-16T09:04:57.571Z</time>
      </trkpt>
      <trkpt lat="42.62655" lon="1.94418">
        <ele>1965</ele>
        <time>2017-09-16T09:05:06.571Z</time>
      </trkpt>
      <trkpt lat="42.62659" lon="1.94405">
        <ele>1968</ele>
        <time>2017-09-16T09:05:40.571Z</time>
      </trkpt>
      <trkpt lat="42.62649" lon="1.94413">
        <ele>1968</ele>
        <time>2017-09-16T09:10:15.571Z</time>
      </trkpt>
      <trkpt lat="42.62657" lon="1.94423">
        <ele>1965</ele>
        <time>2017-09-16T09:12:22.571Z</time>
      </trkpt>
      <trkpt lat="42.62662" lon="1.94412">
        <ele>1969</ele>
        <time>2017-09-16T09:16:19.571Z</time>
      </trkpt>
      <trkpt lat="42.62655" lon="1.94387">
        <ele>1969</ele>
        <time>2017-09-16T09:19:56.571Z</time>
      </trkpt>
      <trkpt lat="42.62661" lon="1.944">
        <ele>1969</ele>
        <time>2017-09-16T09:20:23.571Z</time>
      </trkpt>
      <trkpt lat="42.62666" lon="1.94412">
        <ele>1969</ele>
        <time>2017-09-16T09:23:47.569Z</time>
      </trkpt>
      <trkpt lat="42.62656" lon="1.94406">
        <ele>1968</ele>
        <time>2017-09-16T09:24:42.572Z</time>
      </trkpt>
      <trkpt lat="42.62638" lon="1.94395">
        <ele>1967</ele>
        <time>2017-09-16T09:25:11.571Z</time>
      </trkpt>
      <trkpt lat="42.6263" lon="1.94386">
        <ele>1967</ele>
        <time>2017-09-16T09:25:20.571Z</time>
      </trkpt>
      <trkpt lat="42.62623" lon="1.94374">
        <ele>1967</ele>
        <time>2017-09-16T09:25:30.577Z</time>
      </trkpt>
      <trkpt lat="42.62616" lon="1.94364">
        <ele>1967</ele>
        <time>2017-09-16T09:25:39.563Z</time>
      </trkpt>
      <trkpt lat="42.6261" lon="1.94353">
        <ele>1967</ele>
        <time>2017-09-16T09:25:50.579Z</time>
      </trkpt>
      <trkpt lat="42.62605" lon="1.94339">
        <ele>1966</ele>
        <time>2017-09-16T09:25:57.678Z</time>
      </trkpt>
      <trkpt lat="42.62595" lon="1.94314">
        <ele>1975</ele>
        <time>2017-09-16T09:26:09.571Z</time>
      </trkpt>
      <trkpt lat="42.62588" lon="1.943">
        <ele>1978</ele>
        <time>2017-09-16T09:26:15.576Z</time>
      </trkpt>
      <trkpt lat="42.62584" lon="1.94287">
        <ele>1980</ele>
        <time>2017-09-16T09:26:21.570Z</time>
      </trkpt>
      <trkpt lat="42.62583" lon="1.94271">
        <ele>1969</ele>
        <time>2017-09-16T09:26:26.571Z</time>
      </trkpt>
      <trkpt lat="42.62576" lon="1.94257">
        <ele>1973</ele>
        <time>2017-09-16T09:26:32.567Z</time>
      </trkpt>
      <trkpt lat="42.62558" lon="1.94244">
        <ele>1970</ele>
        <time>2017-09-16T09:26:41.569Z</time>
      </trkpt>
      <trkpt lat="42.6256" lon="1.94214">
        <ele>1969</ele>
        <time>2017-09-16T09:26:49.568Z</time>
      </trkpt>
      <trkpt lat="42.62556" lon="1.942">
        <ele>1969</ele>
        <time>2017-09-16T09:26:54.565Z</time>
      </trkpt>
      <trkpt lat="42.62558" lon="1.94186">
        <ele>1971</ele>
        <time>2017-09-16T09:26:59.571Z</time>
      </trkpt>
      <trkpt lat="42.62563" lon="1.94172">
        <ele>1974</ele>
        <time>2017-09-16T09:27:05.576Z</time>
      </trkpt>
      <trkpt lat="42.62558" lon="1.94143">
        <ele>1975</ele>
        <time>2017-09-16T09:27:13.575Z</time>
      </trkpt>
      <trkpt lat="42.62558" lon="1.94117">
        <ele>1977</ele>
        <time>2017-09-16T09:27:21.568Z</time>
      </trkpt>
      <trkpt lat="42.6256" lon="1.94102">
        <ele>1980</ele>
        <time>2017-09-16T09:27:26.573Z</time>
      </trkpt>
      <trkpt lat="42.62558" lon="1.94086">
        <ele>1981</ele>
        <time>2017-09-16T09:27:35.572Z</time>
      </trkpt>
      <trkpt lat="42.6256" lon="1.94071">
        <ele>1985</ele>
        <time>2017-09-16T09:27:41.572Z</time>
      </trkpt>
      <trkpt lat="42.62561" lon="1.94058">
        <ele>1985</ele>
        <time>2017-09-16T09:27:47.572Z</time>
      </trkpt>
      <trkpt lat="42.62555" lon="1.9405">
        <ele>1983</ele>
        <time>2017-09-16T09:28:00.564Z</time>
      </trkpt>
      <trkpt lat="42.62548" lon="1.94041">
        <ele>1981</ele>
        <time>2017-09-16T09:28:08.577Z</time>
      </trkpt>
      <trkpt lat="42.62549" lon="1.94026">
        <ele>1982</ele>
        <time>2017-09-16T09:28:17.567Z</time>
      </trkpt>
      <trkpt lat="42.62548" lon="1.94014">
        <ele>1983</ele>
        <time>2017-09-16T09:28:22.579Z</time>
      </trkpt>
      <trkpt lat="42.62542" lon="1.94006">
        <ele>1980</ele>
        <time>2017-09-16T09:28:28.564Z</time>
      </trkpt>
      <trkpt lat="42.62541" lon="1.93993">
        <ele>1986</ele>
        <time>2017-09-16T09:28:33.575Z</time>
      </trkpt>
      <trkpt lat="42.6254" lon="1.93978">
        <ele>1986</ele>
        <time>2017-09-16T09:28:38.572Z</time>
      </trkpt>
      <trkpt lat="42.62534" lon="1.93957">
        <ele>1986</ele>
        <time>2017-09-16T09:28:48.566Z</time>
      </trkpt>
      <trkpt lat="42.62532" lon="1.93946">
        <ele>1987</ele>
        <time>2017-09-16T09:28:55.568Z</time>
      </trkpt>
      <trkpt lat="42.62529" lon="1.93935">
        <ele>1986</ele>
        <time>2017-09-16T09:29:00.567Z</time>
      </trkpt>
      <trkpt lat="42.62524" lon="1.93924">
        <ele>1983</ele>
        <time>2017-09-16T09:29:06.573Z</time>
      </trkpt>
      <trkpt lat="42.62518" lon="1.93914">
        <ele>1987</ele>
        <time>2017-09-16T09:29:13.567Z</time>
      </trkpt>
      <trkpt lat="42.62508" lon="1.93907">
        <ele>1983</ele>
        <time>2017-09-16T09:29:31.568Z</time>
      </trkpt>
      <trkpt lat="42.62501" lon="1.939">
        <ele>1985</ele>
        <time>2017-09-16T09:29:38.568Z</time>
      </trkpt>
      <trkpt lat="42.62494" lon="1.93888">
        <ele>1968</ele>
        <time>2017-09-16T09:29:45.571Z</time>
      </trkpt>
      <trkpt lat="42.62486" lon="1.93876">
        <ele>1969</ele>
        <time>2017-09-16T09:29:53.565Z</time>
      </trkpt>
      <trkpt lat="42.62471" lon="1.93853">
        <ele>1971</ele>
        <time>2017-09-16T09:30:01.565Z</time>
      </trkpt>
      <trkpt lat="42.62464" lon="1.93843">
        <ele>1970</ele>
        <time>2017-09-16T09:30:09.566Z</time>
      </trkpt>
      <trkpt lat="42.62449" lon="1.93821">
        <ele>1973</ele>
        <time>2017-09-16T09:30:17.566Z</time>
      </trkpt>
      <trkpt lat="42.62442" lon="1.93811">
        <ele>1972</ele>
        <time>2017-09-16T09:30:22.573Z</time>
      </trkpt>
      <trkpt lat="42.62436" lon="1.93798">
        <ele>1972</ele>
        <time>2017-09-16T09:30:29.571Z</time>
      </trkpt>
      <trkpt lat="42.62429" lon="1.93773">
        <ele>1972</ele>
        <time>2017-09-16T09:30:38.569Z</time>
      </trkpt>
      <trkpt lat="42.62414" lon="1.93749">
        <ele>1967</ele>
        <time>2017-09-16T09:30:47.566Z</time>
      </trkpt>
      <trkpt lat="42.62398" lon="1.9373">
        <ele>1969</ele>
        <time>2017-09-16T09:30:53.580Z</time>
      </trkpt>
      <trkpt lat="42.62388" lon="1.93702">
        <ele>1971</ele>
        <time>2017-09-16T09:31:01.571Z</time>
      </trkpt>
      <trkpt lat="42.62385" lon="1.93688">
        <ele>1971</ele>
        <time>2017-09-16T09:31:07.571Z</time>
      </trkpt>
      <trkpt lat="42.6237" lon="1.93671">
        <ele>1971</ele>
        <time>2017-09-16T09:31:15.565Z</time>
      </trkpt>
      <trkpt lat="42.62359" lon="1.9366">
        <ele>1974</ele>
        <time>2017-09-16T09:31:23.574Z</time>
      </trkpt>
      <trkpt lat="42.62353" lon="1.93641">
        <ele>1974</ele>
        <time>2017-09-16T09:31:31.570Z</time>
      </trkpt>
      <trkpt lat="42.62346" lon="1.9362">
        <ele>1975</ele>
        <time>2017-09-16T09:31:39.573Z</time>
      </trkpt>
      <trkpt lat="42.62346" lon="1.93601">
        <ele>1974</ele>
        <time>2017-09-16T09:31:47.576Z</time>
      </trkpt>
      <trkpt lat="42.6234" lon="1.93586">
        <ele>1973</ele>
        <time>2017-09-16T09:31:59.572Z</time>
      </trkpt>
      <trkpt lat="42.62335" lon="1.93575">
        <ele>1974</ele>
        <time>2017-09-16T09:32:07.568Z</time>
      </trkpt>
      <trkpt lat="42.62328" lon="1.93561">
        <ele>1971</ele>
        <time>2017-09-16T09:32:19.574Z</time>
      </trkpt>
      <trkpt lat="42.62316" lon="1.93552">
        <ele>1971</ele>
        <time>2017-09-16T09:32:27.567Z</time>
      </trkpt>
      <trkpt lat="42.62302" lon="1.93531">
        <ele>1971</ele>
        <time>2017-09-16T09:32:39.570Z</time>
      </trkpt>
      <trkpt lat="42.62295" lon="1.93511">
        <ele>1971</ele>
        <time>2017-09-16T09:32:51.563Z</time>
      </trkpt>
      <trkpt lat="42.62292" lon="1.93497">
        <ele>1975</ele>
        <time>2017-09-16T09:33:03.573Z</time>
      </trkpt>
      <trkpt lat="42.62295" lon="1.93482">
        <ele>1975</ele>
        <time>2017-09-16T09:33:11.569Z</time>
      </trkpt>
      <trkpt lat="42.6229" lon="1.93466">
        <ele>1975</ele>
        <time>2017-09-16T09:33:19.567Z</time>
      </trkpt>
      <trkpt lat="42.62275" lon="1.93449">
        <ele>1975</ele>
        <time>2017-09-16T09:33:27.571Z</time>
      </trkpt>
      <trkpt lat="42.62266" lon="1.93443">
        <ele>1975</ele>
        <time>2017-09-16T09:33:33.571Z</time>
      </trkpt>
      <trkpt lat="42.62255" lon="1.93441">
        <ele>1975</ele>
        <time>2017-09-16T09:33:39.571Z</time>
      </trkpt>
      <trkpt lat="42.62245" lon="1.93434">
        <ele>1979</ele>
        <time>2017-09-16T09:33:45.571Z</time>
      </trkpt>
      <trkpt lat="42.62234" lon="1.93426">
        <ele>1979</ele>
        <time>2017-09-16T09:33:51.571Z</time>
      </trkpt>
      <trkpt lat="42.62228" lon="1.93398">
        <ele>1983</ele>
        <time>2017-09-16T09:34:00.571Z</time>
      </trkpt>
      <trkpt lat="42.62227" lon="1.93385">
        <ele>1984</ele>
        <time>2017-09-16T09:34:07.571Z</time>
      </trkpt>
      <trkpt lat="42.62226" lon="1.9337">
        <ele>1984</ele>
        <time>2017-09-16T09:34:15.571Z</time>
      </trkpt>
      <trkpt lat="42.62228" lon="1.93357">
        <ele>1984</ele>
        <time>2017-09-16T09:34:23.571Z</time>
      </trkpt>
      <trkpt lat="42.62224" lon="1.93342">
        <ele>1984</ele>
        <time>2017-09-16T09:34:56.571Z</time>
      </trkpt>
      <trkpt lat="42.62219" lon="1.93329">
        <ele>1995</ele>
        <time>2017-09-16T09:35:04.571Z</time>
      </trkpt>
      <trkpt lat="42.6222" lon="1.93315">
        <ele>1997</ele>
        <time>2017-09-16T09:35:16.571Z</time>
      </trkpt>
      <trkpt lat="42.62225" lon="1.93303">
        <ele>1998</ele>
        <time>2017-09-16T09:35:35.571Z</time>
      </trkpt>
      <trkpt lat="42.62227" lon="1.93289">
        <ele>2000</ele>
        <time>2017-09-16T09:35:44.571Z</time>
      </trkpt>
      <trkpt lat="42.62231" lon="1.93277">
        <ele>2002</ele>
        <time>2017-09-16T09:35:53.571Z</time>
      </trkpt>
      <trkpt lat="42.62235" lon="1.93264">
        <ele>2003</ele>
        <time>2017-09-16T09:36:00.571Z</time>
      </trkpt>
      <trkpt lat="42.62234" lon="1.9325">
        <ele>2017</ele>
        <time>2017-09-16T09:36:15.571Z</time>
      </trkpt>
      <trkpt lat="42.62239" lon="1.93238">
        <ele>2018</ele>
        <time>2017-09-16T09:36:34.571Z</time>
      </trkpt>
      <trkpt lat="42.62239" lon="1.9323">
        <ele>2022</ele>
        <time>2017-09-16T09:36:44.571Z</time>
      </trkpt>
      <trkpt lat="42.62243" lon="1.9322">
        <ele>2025</ele>
        <time>2017-09-16T09:36:54.571Z</time>
      </trkpt>
      <trkpt lat="42.62242" lon="1.93212">
        <ele>2029</ele>
        <time>2017-09-16T09:37:01.571Z</time>
      </trkpt>
      <trkpt lat="42.62243" lon="1.93205">
        <ele>2031</ele>
        <time>2017-09-16T09:37:07.571Z</time>
      </trkpt>
      <trkpt lat="42.62246" lon="1.93197">
        <ele>2034</ele>
        <time>2017-09-16T09:37:15.571Z</time>
      </trkpt>
      <trkpt lat="42.62246" lon="1.93188">
        <ele>2037</ele>
        <time>2017-09-16T09:37:28.571Z</time>
      </trkpt>
      <trkpt lat="42.62247" lon="1.93181">
        <ele>2039</ele>
        <time>2017-09-16T09:37:36.571Z</time>
      </trkpt>
      <trkpt lat="42.62249" lon="1.93174">
        <ele>2042</ele>
        <time>2017-09-16T09:37:44.571Z</time>
      </trkpt>
      <trkpt lat="42.6225" lon="1.93167">
        <ele>2046</ele>
        <time>2017-09-16T09:37:56.571Z</time>
      </trkpt>
      <trkpt lat="42.62251" lon="1.93161">
        <ele>2052</ele>
        <time>2017-09-16T09:38:04.571Z</time>
      </trkpt>
      <trkpt lat="42.62255" lon="1.93148">
        <ele>2063</ele>
        <time>2017-09-16T09:38:28.571Z</time>
      </trkpt>
      <trkpt lat="42.62253" lon="1.93138">
        <ele>2067</ele>
        <time>2017-09-16T09:38:44.571Z</time>
      </trkpt>
      <trkpt lat="42.62252" lon="1.93132">
        <ele>2070</ele>
        <time>2017-09-16T09:38:52.571Z</time>
      </trkpt>
      <trkpt lat="42.62251" lon="1.93124">
        <ele>2073</ele>
        <time>2017-09-16T09:39:00.571Z</time>
      </trkpt>
      <trkpt lat="42.62247" lon="1.9311">
        <ele>2072</ele>
        <time>2017-09-16T09:39:32.571Z</time>
      </trkpt>
      <trkpt lat="42.62246" lon="1.93095">
        <ele>2076</ele>
        <time>2017-09-16T09:39:48.571Z</time>
      </trkpt>
      <trkpt lat="42.62247" lon="1.93081">
        <ele>2083</ele>
        <time>2017-09-16T09:40:00.571Z</time>
      </trkpt>
      <trkpt lat="42.62246" lon="1.93064">
        <ele>2092</ele>
        <time>2017-09-16T09:40:12.571Z</time>
      </trkpt>
      <trkpt lat="42.62245" lon="1.93052">
        <ele>2095</ele>
        <time>2017-09-16T09:40:20.571Z</time>
      </trkpt>
      <trkpt lat="42.62244" lon="1.93042">
        <ele>2097</ele>
        <time>2017-09-16T09:40:28.571Z</time>
      </trkpt>
      <trkpt lat="42.62243" lon="1.93028">
        <ele>2098</ele>
        <time>2017-09-16T09:40:40.571Z</time>
      </trkpt>
      <trkpt lat="42.62246" lon="1.93016">
        <ele>2098</ele>
        <time>2017-09-16T09:40:52.571Z</time>
      </trkpt>
      <trkpt lat="42.62238" lon="1.9301">
        <ele>2099</ele>
        <time>2017-09-16T09:41:16.571Z</time>
      </trkpt>
      <trkpt lat="42.6224" lon="1.92988">
        <ele>2105</ele>
        <time>2017-09-16T09:41:40.571Z</time>
      </trkpt>
      <trkpt lat="42.62243" lon="1.92979">
        <ele>2107</ele>
        <time>2017-09-16T09:41:48.571Z</time>
      </trkpt>
      <trkpt lat="42.62247" lon="1.92969">
        <ele>2109</ele>
        <time>2017-09-16T09:41:56.571Z</time>
      </trkpt>
      <trkpt lat="42.62246" lon="1.92957">
        <ele>2111</ele>
        <time>2017-09-16T09:42:04.571Z</time>
      </trkpt>
      <trkpt lat="42.62245" lon="1.92948">
        <ele>2111</ele>
        <time>2017-09-16T09:42:12.571Z</time>
      </trkpt>
      <trkpt lat="42.62247" lon="1.92933">
        <ele>2110</ele>
        <time>2017-09-16T09:42:24.571Z</time>
      </trkpt>
      <trkpt lat="42.62254" lon="1.92931">
        <ele>2112</ele>
        <time>2017-09-16T09:42:36.571Z</time>
      </trkpt>
      <trkpt lat="42.62259" lon="1.92921">
        <ele>2110</ele>
        <time>2017-09-16T09:42:48.571Z</time>
      </trkpt>
      <trkpt lat="42.62261" lon="1.92911">
        <ele>2114</ele>
        <time>2017-09-16T09:42:56.571Z</time>
      </trkpt>
      <trkpt lat="42.62263" lon="1.92903">
        <ele>2118</ele>
        <time>2017-09-16T09:43:08.571Z</time>
      </trkpt>
      <trkpt lat="42.62268" lon="1.9289">
        <ele>2122</ele>
        <time>2017-09-16T09:43:24.571Z</time>
      </trkpt>
      <trkpt lat="42.62281" lon="1.92894">
        <ele>2124</ele>
        <time>2017-09-16T09:43:37.497Z</time>
      </trkpt>
      <trkpt lat="42.62291" lon="1.92889">
        <ele>2127</ele>
        <time>2017-09-16T09:43:43.566Z</time>
      </trkpt>
      <trkpt lat="42.62295" lon="1.92876">
        <ele>2128</ele>
        <time>2017-09-16T09:44:04.572Z</time>
      </trkpt>
      <trkpt lat="42.62305" lon="1.92873">
        <ele>2130</ele>
        <time>2017-09-16T09:44:22.579Z</time>
      </trkpt>
      <trkpt lat="42.62315" lon="1.92873">
        <ele>2132</ele>
        <time>2017-09-16T09:44:43.573Z</time>
      </trkpt>
      <trkpt lat="42.62325" lon="1.92866">
        <ele>2133</ele>
        <time>2017-09-16T09:45:08.571Z</time>
      </trkpt>
      <trkpt lat="42.62335" lon="1.92866">
        <ele>2155</ele>
        <time>2017-09-16T09:45:18.571Z</time>
      </trkpt>
      <trkpt lat="42.62344" lon="1.92857">
        <ele>2154</ele>
        <time>2017-09-16T09:45:25.575Z</time>
      </trkpt>
      <trkpt lat="42.62348" lon="1.92844">
        <ele>2152</ele>
        <time>2017-09-16T09:45:33.579Z</time>
      </trkpt>
      <trkpt lat="42.62358" lon="1.9284">
        <ele>2156</ele>
        <time>2017-09-16T09:45:43.569Z</time>
      </trkpt>
      <trkpt lat="42.62365" lon="1.92836">
        <ele>2158</ele>
        <time>2017-09-16T09:45:59.571Z</time>
      </trkpt>
      <trkpt lat="42.62373" lon="1.92844">
        <ele>2161</ele>
        <time>2017-09-16T09:46:06.565Z</time>
      </trkpt>
      <trkpt lat="42.62383" lon="1.92847">
        <ele>2164</ele>
        <time>2017-09-16T09:46:15.571Z</time>
      </trkpt>
      <trkpt lat="42.62396" lon="1.92852">
        <ele>2167</ele>
        <time>2017-09-16T09:46:24.573Z</time>
      </trkpt>
      <trkpt lat="42.62406" lon="1.92856">
        <ele>2169</ele>
        <time>2017-09-16T09:46:30.567Z</time>
      </trkpt>
      <trkpt lat="42.62416" lon="1.92878">
        <ele>2171</ele>
        <time>2017-09-16T09:47:22.570Z</time>
      </trkpt>
      <trkpt lat="42.62427" lon="1.92878">
        <ele>2196</ele>
        <time>2017-09-16T09:47:58.577Z</time>
      </trkpt>
      <trkpt lat="42.62437" lon="1.92878">
        <ele>2197</ele>
        <time>2017-09-16T09:48:21.571Z</time>
      </trkpt>
      <trkpt lat="42.62448" lon="1.92886">
        <ele>2200</ele>
        <time>2017-09-16T09:48:35.567Z</time>
      </trkpt>
      <trkpt lat="42.62451" lon="1.92873">
        <ele>2200</ele>
        <time>2017-09-16T09:48:44.571Z</time>
      </trkpt>
      <trkpt lat="42.62455" lon="1.9286">
        <ele>2200</ele>
        <time>2017-09-16T09:48:55.564Z</time>
      </trkpt>
      <trkpt lat="42.62466" lon="1.92859">
        <ele>2203</ele>
        <time>2017-09-16T09:49:06.571Z</time>
      </trkpt>
      <trkpt lat="42.62476" lon="1.92855">
        <ele>2206</ele>
        <time>2017-09-16T09:49:21.574Z</time>
      </trkpt>
      <trkpt lat="42.62479" lon="1.92841">
        <ele>2208</ele>
        <time>2017-09-16T09:49:39.671Z</time>
      </trkpt>
      <trkpt lat="42.62486" lon="1.92851">
        <ele>2209</ele>
        <time>2017-09-16T09:49:56.573Z</time>
      </trkpt>
      <trkpt lat="42.62496" lon="1.92852">
        <ele>2211</ele>
        <time>2017-09-16T09:50:08.572Z</time>
      </trkpt>
      <trkpt lat="42.62505" lon="1.92858">
        <ele>2231</ele>
        <time>2017-09-16T09:50:24.576Z</time>
      </trkpt>
      <trkpt lat="42.62515" lon="1.92862">
        <ele>2233</ele>
        <time>2017-09-16T09:50:37.567Z</time>
      </trkpt>
      <trkpt lat="42.62525" lon="1.92855">
        <ele>2235</ele>
        <time>2017-09-16T09:50:46.569Z</time>
      </trkpt>
      <trkpt lat="42.62545" lon="1.92862">
        <ele>2240</ele>
        <time>2017-09-16T09:51:33.572Z</time>
      </trkpt>
      <trkpt lat="42.62556" lon="1.92868">
        <ele>2242</ele>
        <time>2017-09-16T09:52:13.571Z</time>
      </trkpt>
      <trkpt lat="42.62565" lon="1.92862">
        <ele>2245</ele>
        <time>2017-09-16T09:52:38.574Z</time>
      </trkpt>
      <trkpt lat="42.62574" lon="1.92855">
        <ele>2248</ele>
        <time>2017-09-16T09:52:50.570Z</time>
      </trkpt>
      <trkpt lat="42.62584" lon="1.92853">
        <ele>2267</ele>
        <time>2017-09-16T09:52:57.566Z</time>
      </trkpt>
      <trkpt lat="42.62594" lon="1.92851">
        <ele>2268</ele>
        <time>2017-09-16T09:53:10.570Z</time>
      </trkpt>
      <trkpt lat="42.62605" lon="1.92853">
        <ele>2270</ele>
        <time>2017-09-16T09:53:30.571Z</time>
      </trkpt>
      <trkpt lat="42.62615" lon="1.92858">
        <ele>2272</ele>
        <time>2017-09-16T09:53:36.571Z</time>
      </trkpt>
      <trkpt lat="42.62624" lon="1.92852">
        <ele>2275</ele>
        <time>2017-09-16T09:53:42.572Z</time>
      </trkpt>
      <trkpt lat="42.62636" lon="1.92849">
        <ele>2280</ele>
        <time>2017-09-16T09:54:03.571Z</time>
      </trkpt>
      <trkpt lat="42.62646" lon="1.92854">
        <ele>2282</ele>
        <time>2017-09-16T09:54:26.570Z</time>
      </trkpt>
      <trkpt lat="42.62655" lon="1.9286">
        <ele>2283</ele>
        <time>2017-09-16T09:54:37.567Z</time>
      </trkpt>
      <trkpt lat="42.62664" lon="1.92857">
        <ele>2286</ele>
        <time>2017-09-16T09:54:56.565Z</time>
      </trkpt>
      <trkpt lat="42.62668" lon="1.92844">
        <ele>2307</ele>
        <time>2017-09-16T09:55:12.574Z</time>
      </trkpt>
      <trkpt lat="42.62673" lon="1.92831">
        <ele>2315</ele>
        <time>2017-09-16T09:55:25.565Z</time>
      </trkpt>
      <trkpt lat="42.62681" lon="1.92822">
        <ele>2327</ele>
        <time>2017-09-16T09:55:40.569Z</time>
      </trkpt>
      <trkpt lat="42.62692" lon="1.92822">
        <ele>2333</ele>
        <time>2017-09-16T09:56:01.571Z</time>
      </trkpt>
      <trkpt lat="42.62699" lon="1.92831">
        <ele>2336</ele>
        <time>2017-09-16T09:56:12.569Z</time>
      </trkpt>
      <trkpt lat="42.62692" lon="1.92821">
        <ele>2334</ele>
        <time>2017-09-16T09:56:18.572Z</time>
      </trkpt>
      <trkpt lat="42.6269" lon="1.92807">
        <ele>2338</ele>
        <time>2017-09-16T09:56:40.568Z</time>
      </trkpt>
      <trkpt lat="42.62688" lon="1.92792">
        <ele>2342</ele>
        <time>2017-09-16T09:57:01.570Z</time>
      </trkpt>
      <trkpt lat="42.62678" lon="1.92786">
        <ele>2341</ele>
        <time>2017-09-16T09:57:37.575Z</time>
      </trkpt>
      <trkpt lat="42.62672" lon="1.92775">
        <ele>2342</ele>
        <time>2017-09-16T09:57:49.575Z</time>
      </trkpt>
      <trkpt lat="42.62672" lon="1.9276">
        <ele>2341</ele>
        <time>2017-09-16T09:58:05.574Z</time>
      </trkpt>
      <trkpt lat="42.62668" lon="1.92747">
        <ele>2342</ele>
        <time>2017-09-16T09:58:16.574Z</time>
      </trkpt>
      <trkpt lat="42.62675" lon="1.92738">
        <ele>2354</ele>
        <time>2017-09-16T09:58:41.567Z</time>
      </trkpt>
      <trkpt lat="42.62679" lon="1.92725">
        <ele>2363</ele>
        <time>2017-09-16T09:59:05.568Z</time>
      </trkpt>
      <trkpt lat="42.62676" lon="1.92711">
        <ele>2366</ele>
        <time>2017-09-16T09:59:33.568Z</time>
      </trkpt>
      <trkpt lat="42.62676" lon="1.92697">
        <ele>2368</ele>
        <time>2017-09-16T10:00:11.571Z</time>
      </trkpt>
      <trkpt lat="42.62681" lon="1.92685">
        <ele>2368</ele>
        <time>2017-09-16T10:00:42.567Z</time>
      </trkpt>
      <trkpt lat="42.6268" lon="1.92671">
        <ele>2367</ele>
        <time>2017-09-16T10:00:58.571Z</time>
      </trkpt>
      <trkpt lat="42.62676" lon="1.92668">
        <ele>2365</ele>
        <time>2017-09-16T10:01:09.571Z</time>
      </trkpt>
      <trkpt lat="42.62673" lon="1.92663">
        <ele>2364</ele>
        <time>2017-09-16T10:01:16.571Z</time>
      </trkpt>
      <trkpt lat="42.62672" lon="1.92659">
        <ele>2365</ele>
        <time>2017-09-16T10:01:23.571Z</time>
      </trkpt>
      <trkpt lat="42.62671" lon="1.92655">
        <ele>2365</ele>
        <time>2017-09-16T10:01:28.571Z</time>
      </trkpt>
      <trkpt lat="42.62674" lon="1.92651">
        <ele>2366</ele>
        <time>2017-09-16T10:02:03.571Z</time>
      </trkpt>
      <trkpt lat="42.6268" lon="1.92648">
        <ele>2368</ele>
        <time>2017-09-16T10:02:20.571Z</time>
      </trkpt>
      <trkpt lat="42.62681" lon="1.92641">
        <ele>2368</ele>
        <time>2017-09-16T10:02:35.571Z</time>
      </trkpt>
      <trkpt lat="42.6268" lon="1.92637">
        <ele>2368</ele>
        <time>2017-09-16T10:02:42.571Z</time>
      </trkpt>
      <trkpt lat="42.62682" lon="1.92629">
        <ele>2368</ele>
        <time>2017-09-16T10:02:54.571Z</time>
      </trkpt>
      <trkpt lat="42.62682" lon="1.92625">
        <ele>2368</ele>
        <time>2017-09-16T10:03:00.571Z</time>
      </trkpt>
      <trkpt lat="42.62684" lon="1.92621">
        <ele>2368</ele>
        <time>2017-09-16T10:03:10.571Z</time>
      </trkpt>
      <trkpt lat="42.62686" lon="1.92617">
        <ele>2368</ele>
        <time>2017-09-16T10:03:23.571Z</time>
      </trkpt>
      <trkpt lat="42.62687" lon="1.92613">
        <ele>2368</ele>
        <time>2017-09-16T10:03:34.571Z</time>
      </trkpt>
      <trkpt lat="42.62689" lon="1.9261">
        <ele>2368</ele>
        <time>2017-09-16T10:03:39.571Z</time>
      </trkpt>
      <trkpt lat="42.62693" lon="1.92607">
        <ele>2368</ele>
        <time>2017-09-16T10:03:49.571Z</time>
      </trkpt>
      <trkpt lat="42.62694" lon="1.92601">
        <ele>2368</ele>
        <time>2017-09-16T10:03:57.571Z</time>
      </trkpt>
      <trkpt lat="42.62693" lon="1.92596">
        <ele>2367</ele>
        <time>2017-09-16T10:04:05.571Z</time>
      </trkpt>
      <trkpt lat="42.62696" lon="1.9261">
        <ele>2369</ele>
        <time>2017-09-16T10:07:08.571Z</time>
      </trkpt>
      <trkpt lat="42.627" lon="1.92618">
        <ele>2369</ele>
        <time>2017-09-16T10:07:20.571Z</time>
      </trkpt>
      <trkpt lat="42.627" lon="1.92624">
        <ele>2370</ele>
        <time>2017-09-16T10:07:28.571Z</time>
      </trkpt>
      <trkpt lat="42.62699" lon="1.9263">
        <ele>2370</ele>
        <time>2017-09-16T10:07:48.571Z</time>
      </trkpt>
      <trkpt lat="42.62695" lon="1.92634">
        <ele>2370</ele>
        <time>2017-09-16T10:08:12.571Z</time>
      </trkpt>
      <trkpt lat="42.62686" lon="1.92632">
        <ele>2369</ele>
        <time>2017-09-16T10:08:56.571Z</time>
      </trkpt>
      <trkpt lat="42.62677" lon="1.92633">
        <ele>2368</ele>
        <time>2017-09-16T10:09:16.571Z</time>
      </trkpt>
      <trkpt lat="42.62673" lon="1.92628">
        <ele>2368</ele>
        <time>2017-09-16T10:09:28.571Z</time>
      </trkpt>
      <trkpt lat="42.62669" lon="1.92632">
        <ele>2368</ele>
        <time>2017-09-16T10:09:36.571Z</time>
      </trkpt>
      <trkpt lat="42.62664" lon="1.9264">
        <ele>2354</ele>
        <time>2017-09-16T10:09:48.571Z</time>
      </trkpt>
      <trkpt lat="42.62661" lon="1.92647">
        <ele>2355</ele>
        <time>2017-09-16T10:09:56.571Z</time>
      </trkpt>
      <trkpt lat="42.62655" lon="1.92657">
        <ele>2355</ele>
        <time>2017-09-16T10:10:04.571Z</time>
      </trkpt>
      <trkpt lat="42.62652" lon="1.92666">
        <ele>2355</ele>
        <time>2017-09-16T10:10:12.571Z</time>
      </trkpt>
      <trkpt lat="42.62646" lon="1.92672">
        <ele>2343</ele>
        <time>2017-09-16T10:10:20.571Z</time>
      </trkpt>
      <trkpt lat="42.62637" lon="1.92678">
        <ele>2338</ele>
        <time>2017-09-16T10:10:28.571Z</time>
      </trkpt>
      <trkpt lat="42.6262" lon="1.92679">
        <ele>2332</ele>
        <time>2017-09-16T10:10:40.571Z</time>
      </trkpt>
      <trkpt lat="42.6261" lon="1.92674">
        <ele>2330</ele>
        <time>2017-09-16T10:11:04.571Z</time>
      </trkpt>
      <trkpt lat="42.62596" lon="1.92676">
        <ele>2328</ele>
        <time>2017-09-16T10:11:28.571Z</time>
      </trkpt>
      <trkpt lat="42.62587" lon="1.92681">
        <ele>2326</ele>
        <time>2017-09-16T10:11:48.571Z</time>
      </trkpt>
      <trkpt lat="42.62579" lon="1.92685">
        <ele>2303</ele>
        <time>2017-09-16T10:12:04.571Z</time>
      </trkpt>
      <trkpt lat="42.62574" lon="1.92685">
        <ele>2302</ele>
        <time>2017-09-16T10:12:24.571Z</time>
      </trkpt>
      <trkpt lat="42.62567" lon="1.92684">
        <ele>2299</ele>
        <time>2017-09-16T10:13:20.571Z</time>
      </trkpt>
      <trkpt lat="42.62569" lon="1.927">
        <ele>2294</ele>
        <time>2017-09-16T10:14:16.571Z</time>
      </trkpt>
      <trkpt lat="42.62573" lon="1.92717">
        <ele>2291</ele>
        <time>2017-09-16T10:14:32.571Z</time>
      </trkpt>
      <trkpt lat="42.62577" lon="1.92728">
        <ele>2291</ele>
        <time>2017-09-16T10:14:48.571Z</time>
      </trkpt>
      <trkpt lat="42.62567" lon="1.92725">
        <ele>2289</ele>
        <time>2017-09-16T10:15:19.580Z</time>
      </trkpt>
      <trkpt lat="42.62573" lon="1.92736">
        <ele>2290</ele>
        <time>2017-09-16T10:15:29.570Z</time>
      </trkpt>
      <trkpt lat="42.62579" lon="1.92749">
        <ele>2294</ele>
        <time>2017-09-16T10:15:41.572Z</time>
      </trkpt>
      <trkpt lat="42.62586" lon="1.9276">
        <ele>2298</ele>
        <time>2017-09-16T10:15:49.566Z</time>
      </trkpt>
      <trkpt lat="42.62591" lon="1.92772">
        <ele>2297</ele>
        <time>2017-09-16T10:16:16.571Z</time>
      </trkpt>
      <trkpt lat="42.62588" lon="1.92785">
        <ele>2295</ele>
        <time>2017-09-16T10:16:30.571Z</time>
      </trkpt>
      <trkpt lat="42.62598" lon="1.92786">
        <ele>2296</ele>
        <time>2017-09-16T10:16:52.570Z</time>
      </trkpt>
      <trkpt lat="42.62589" lon="1.92792">
        <ele>2293</ele>
        <time>2017-09-16T10:17:42.572Z</time>
      </trkpt>
      <trkpt lat="42.62584" lon="1.92804">
        <ele>2288</ele>
        <time>2017-09-16T10:17:49.567Z</time>
      </trkpt>
      <trkpt lat="42.62575" lon="1.92812">
        <ele>2260</ele>
        <time>2017-09-16T10:18:06.568Z</time>
      </trkpt>
      <trkpt lat="42.62569" lon="1.92823">
        <ele>2259</ele>
        <time>2017-09-16T10:18:28.562Z</time>
      </trkpt>
      <trkpt lat="42.6257" lon="1.92836">
        <ele>2252</ele>
        <time>2017-09-16T10:18:39.565Z</time>
      </trkpt>
      <trkpt lat="42.62567" lon="1.92849">
        <ele>2248</ele>
        <time>2017-09-16T10:18:54.577Z</time>
      </trkpt>
      <trkpt lat="42.62569" lon="1.92864">
        <ele>2245</ele>
        <time>2017-09-16T10:19:02.571Z</time>
      </trkpt>
      <trkpt lat="42.6256" lon="1.9287">
        <ele>2243</ele>
        <time>2017-09-16T10:19:12.580Z</time>
      </trkpt>
      <trkpt lat="42.6255" lon="1.92873">
        <ele>2241</ele>
        <time>2017-09-16T10:19:24.574Z</time>
      </trkpt>
      <trkpt lat="42.6254" lon="1.92866">
        <ele>2239</ele>
        <time>2017-09-16T10:19:44.567Z</time>
      </trkpt>
      <trkpt lat="42.62529" lon="1.92861">
        <ele>2236</ele>
        <time>2017-09-16T10:19:56.569Z</time>
      </trkpt>
      <trkpt lat="42.62519" lon="1.92852">
        <ele>2233</ele>
        <time>2017-09-16T10:20:12.576Z</time>
      </trkpt>
      <trkpt lat="42.62505" lon="1.92859">
        <ele>2231</ele>
        <time>2017-09-16T10:20:48.570Z</time>
      </trkpt>
      <trkpt lat="42.62494" lon="1.92866">
        <ele>2209</ele>
        <time>2017-09-16T10:21:00.571Z</time>
      </trkpt>
      <trkpt lat="42.6248" lon="1.92865">
        <ele>2207</ele>
        <time>2017-09-16T10:21:20.578Z</time>
      </trkpt>
      <trkpt lat="42.62471" lon="1.92872">
        <ele>2205</ele>
        <time>2017-09-16T10:21:32.571Z</time>
      </trkpt>
      <trkpt lat="42.62456" lon="1.92877">
        <ele>2201</ele>
        <time>2017-09-16T10:21:48.579Z</time>
      </trkpt>
      <trkpt lat="42.62448" lon="1.9289">
        <ele>2200</ele>
        <time>2017-09-16T10:21:56.571Z</time>
      </trkpt>
      <trkpt lat="42.62438" lon="1.92892">
        <ele>2198</ele>
        <time>2017-09-16T10:22:24.571Z</time>
      </trkpt>
      <trkpt lat="42.62427" lon="1.92885">
        <ele>2196</ele>
        <time>2017-09-16T10:22:40.571Z</time>
      </trkpt>
      <trkpt lat="42.62415" lon="1.92892">
        <ele>2173</ele>
        <time>2017-09-16T10:22:52.570Z</time>
      </trkpt>
      <trkpt lat="42.62405" lon="1.92878">
        <ele>2169</ele>
        <time>2017-09-16T10:23:16.570Z</time>
      </trkpt>
      <trkpt lat="42.62395" lon="1.92869">
        <ele>2167</ele>
        <time>2017-09-16T10:23:24.567Z</time>
      </trkpt>
      <trkpt lat="42.62381" lon="1.92861">
        <ele>2164</ele>
        <time>2017-09-16T10:23:44.565Z</time>
      </trkpt>
      <trkpt lat="42.6237" lon="1.92854">
        <ele>2161</ele>
        <time>2017-09-16T10:24:08.571Z</time>
      </trkpt>
      <trkpt lat="42.62359" lon="1.92849">
        <ele>2157</ele>
        <time>2017-09-16T10:24:16.566Z</time>
      </trkpt>
      <trkpt lat="42.62345" lon="1.92848">
        <ele>2152</ele>
        <time>2017-09-16T10:24:24.575Z</time>
      </trkpt>
      <trkpt lat="42.62332" lon="1.92849">
        <ele>2136</ele>
        <time>2017-09-16T10:24:32.572Z</time>
      </trkpt>
      <trkpt lat="42.62324" lon="1.92859">
        <ele>2134</ele>
        <time>2017-09-16T10:24:44.572Z</time>
      </trkpt>
      <trkpt lat="42.6233" lon="1.92873">
        <ele>2134</ele>
        <time>2017-09-16T10:24:56.563Z</time>
      </trkpt>
      <trkpt lat="42.62323" lon="1.92888">
        <ele>2134</ele>
        <time>2017-09-16T10:25:04.565Z</time>
      </trkpt>
      <trkpt lat="42.62313" lon="1.92893">
        <ele>2133</ele>
        <time>2017-09-16T10:25:24.568Z</time>
      </trkpt>
      <trkpt lat="42.62303" lon="1.92884">
        <ele>2130</ele>
        <time>2017-09-16T10:25:36.567Z</time>
      </trkpt>
      <trkpt lat="42.62293" lon="1.9289">
        <ele>2128</ele>
        <time>2017-09-16T10:26:00.575Z</time>
      </trkpt>
      <trkpt lat="42.62279" lon="1.92895">
        <ele>2124</ele>
        <time>2017-09-16T10:26:16.568Z</time>
      </trkpt>
      <trkpt lat="42.62281" lon="1.9291">
        <ele>2123</ele>
        <time>2017-09-16T10:26:24.567Z</time>
      </trkpt>
      <trkpt lat="42.62282" lon="1.92929">
        <ele>2120</ele>
        <time>2017-09-16T10:26:32.573Z</time>
      </trkpt>
      <trkpt lat="42.62271" lon="1.92931">
        <ele>2116</ele>
        <time>2017-09-16T10:26:40.571Z</time>
      </trkpt>
      <trkpt lat="42.62271" lon="1.92945">
        <ele>2117</ele>
        <time>2017-09-16T10:26:48.570Z</time>
      </trkpt>
      <trkpt lat="42.6226" lon="1.9295">
        <ele>2115</ele>
        <time>2017-09-16T10:26:56.575Z</time>
      </trkpt>
      <trkpt lat="42.62253" lon="1.92963">
        <ele>2113</ele>
        <time>2017-09-16T10:27:15.571Z</time>
      </trkpt>
      <trkpt lat="42.62253" lon="1.92981">
        <ele>2109</ele>
        <time>2017-09-16T10:27:26.571Z</time>
      </trkpt>
      <trkpt lat="42.62248" lon="1.92992">
        <ele>2101</ele>
        <time>2017-09-16T10:27:36.577Z</time>
      </trkpt>
      <trkpt lat="42.62256" lon="1.93001">
        <ele>2098</ele>
        <time>2017-09-16T10:27:49.571Z</time>
      </trkpt>
      <trkpt lat="42.62253" lon="1.93014">
        <ele>2100</ele>
        <time>2017-09-16T10:28:09.571Z</time>
      </trkpt>
      <trkpt lat="42.62251" lon="1.93028">
        <ele>2101</ele>
        <time>2017-09-16T10:28:24.566Z</time>
      </trkpt>
      <trkpt lat="42.62247" lon="1.9304">
        <ele>2097</ele>
        <time>2017-09-16T10:28:36.563Z</time>
      </trkpt>
      <trkpt lat="42.62252" lon="1.93052">
        <ele>2098</ele>
        <time>2017-09-16T10:28:41.569Z</time>
      </trkpt>
      <trkpt lat="42.62251" lon="1.93066">
        <ele>2093</ele>
        <time>2017-09-16T10:28:49.573Z</time>
      </trkpt>
      <trkpt lat="42.6225" lon="1.9308">
        <ele>2084</ele>
        <time>2017-09-16T10:28:57.578Z</time>
      </trkpt>
      <trkpt lat="42.62252" lon="1.93094">
        <ele>2079</ele>
        <time>2017-09-16T10:29:05.574Z</time>
      </trkpt>
      <trkpt lat="42.62252" lon="1.93108">
        <ele>2077</ele>
        <time>2017-09-16T10:29:18.567Z</time>
      </trkpt>
      <trkpt lat="42.6226" lon="1.93117">
        <ele>2075</ele>
        <time>2017-09-16T10:29:32.564Z</time>
      </trkpt>
      <trkpt lat="42.6226" lon="1.93132">
        <ele>2071</ele>
        <time>2017-09-16T10:29:45.571Z</time>
      </trkpt>
      <trkpt lat="42.62266" lon="1.93142">
        <ele>2068</ele>
        <time>2017-09-16T10:29:58.571Z</time>
      </trkpt>
      <trkpt lat="42.62263" lon="1.93156">
        <ele>2062</ele>
        <time>2017-09-16T10:30:10.571Z</time>
      </trkpt>
      <trkpt lat="42.62263" lon="1.93171">
        <ele>2042</ele>
        <time>2017-09-16T10:30:26.575Z</time>
      </trkpt>
      <trkpt lat="42.62261" lon="1.93185">
        <ele>2039</ele>
        <time>2017-09-16T10:30:38.571Z</time>
      </trkpt>
      <trkpt lat="42.62257" lon="1.93197">
        <ele>2036</ele>
        <time>2017-09-16T10:31:00.563Z</time>
      </trkpt>
      <trkpt lat="42.62255" lon="1.93212">
        <ele>2030</ele>
        <time>2017-09-16T10:31:23.574Z</time>
      </trkpt>
      <trkpt lat="42.62247" lon="1.93237">
        <ele>2016</ele>
        <time>2017-09-16T10:31:35.567Z</time>
      </trkpt>
      <trkpt lat="42.62239" lon="1.93247">
        <ele>2014</ele>
        <time>2017-09-16T10:31:55.579Z</time>
      </trkpt>
      <trkpt lat="42.62232" lon="1.93262">
        <ele>2004</ele>
        <time>2017-09-16T10:32:15.565Z</time>
      </trkpt>
      <trkpt lat="42.62234" lon="1.93277">
        <ele>2002</ele>
        <time>2017-09-16T10:32:27.566Z</time>
      </trkpt>
      <trkpt lat="42.62228" lon="1.9329">
        <ele>2000</ele>
        <time>2017-09-16T10:32:35.566Z</time>
      </trkpt>
      <trkpt lat="42.62226" lon="1.93309">
        <ele>1997</ele>
        <time>2017-09-16T10:32:43.766Z</time>
      </trkpt>
      <trkpt lat="42.62228" lon="1.93327">
        <ele>1993</ele>
        <time>2017-09-16T10:32:52.571Z</time>
      </trkpt>
      <trkpt lat="42.62217" lon="1.93352">
        <ele>1985</ele>
        <time>2017-09-16T10:33:15.564Z</time>
      </trkpt>
      <trkpt lat="42.62223" lon="1.93363">
        <ele>1985</ele>
        <time>2017-09-16T10:33:22.566Z</time>
      </trkpt>
      <trkpt lat="42.62233" lon="1.93391">
        <ele>1983</ele>
        <time>2017-09-16T10:33:33.571Z</time>
      </trkpt>
      <trkpt lat="42.62234" lon="1.93405">
        <ele>1981</ele>
        <time>2017-09-16T10:33:45.570Z</time>
      </trkpt>
      <trkpt lat="42.62236" lon="1.93418">
        <ele>1979</ele>
        <time>2017-09-16T10:33:54.569Z</time>
      </trkpt>
      <trkpt lat="42.62245" lon="1.93426">
        <ele>1978</ele>
        <time>2017-09-16T10:34:09.571Z</time>
      </trkpt>
      <trkpt lat="42.62251" lon="1.93439">
        <ele>1975</ele>
        <time>2017-09-16T10:34:44.572Z</time>
      </trkpt>
      <trkpt lat="42.6226" lon="1.93444">
        <ele>1975</ele>
        <time>2017-09-16T10:34:51.766Z</time>
      </trkpt>
      <trkpt lat="42.62272" lon="1.93445">
        <ele>1975</ele>
        <time>2017-09-16T10:34:58.569Z</time>
      </trkpt>
      <trkpt lat="42.62288" lon="1.93466">
        <ele>1975</ele>
        <time>2017-09-16T10:35:05.571Z</time>
      </trkpt>
      <trkpt lat="42.62295" lon="1.93477">
        <ele>1975</ele>
        <time>2017-09-16T10:35:10.769Z</time>
      </trkpt>
      <trkpt lat="42.62297" lon="1.93495">
        <ele>1975</ele>
        <time>2017-09-16T10:35:19.571Z</time>
      </trkpt>
      <trkpt lat="42.62299" lon="1.93511">
        <ele>1972</ele>
        <time>2017-09-16T10:35:27.567Z</time>
      </trkpt>
      <trkpt lat="42.62306" lon="1.93525">
        <ele>1972</ele>
        <time>2017-09-16T10:35:32.571Z</time>
      </trkpt>
      <trkpt lat="42.62309" lon="1.93541">
        <ele>1971</ele>
        <time>2017-09-16T10:35:37.760Z</time>
      </trkpt>
      <trkpt lat="42.62324" lon="1.9356">
        <ele>1971</ele>
        <time>2017-09-16T10:35:47.565Z</time>
      </trkpt>
      <trkpt lat="42.62331" lon="1.93571">
        <ele>1971</ele>
        <time>2017-09-16T10:35:54.568Z</time>
      </trkpt>
      <trkpt lat="42.62332" lon="1.93584">
        <ele>1972</ele>
        <time>2017-09-16T10:36:00.570Z</time>
      </trkpt>
      <trkpt lat="42.6234" lon="1.93612">
        <ele>1974</ele>
        <time>2017-09-16T10:36:09.570Z</time>
      </trkpt>
      <trkpt lat="42.62356" lon="1.93637">
        <ele>1975</ele>
        <time>2017-09-16T10:36:17.571Z</time>
      </trkpt>
      <trkpt lat="42.62368" lon="1.9366">
        <ele>1975</ele>
        <time>2017-09-16T10:36:27.571Z</time>
      </trkpt>
      <trkpt lat="42.62373" lon="1.93674">
        <ele>1971</ele>
        <time>2017-09-16T10:36:37.574Z</time>
      </trkpt>
      <trkpt lat="42.62395" lon="1.93691">
        <ele>1972</ele>
        <time>2017-09-16T10:36:45.574Z</time>
      </trkpt>
      <trkpt lat="42.62406" lon="1.93717">
        <ele>1970</ele>
        <time>2017-09-16T10:36:52.575Z</time>
      </trkpt>
      <trkpt lat="42.62429" lon="1.93747">
        <ele>1974</ele>
        <time>2017-09-16T10:37:02.571Z</time>
      </trkpt>
      <trkpt lat="42.62433" lon="1.93761">
        <ele>1972</ele>
        <time>2017-09-16T10:37:08.577Z</time>
      </trkpt>
      <trkpt lat="42.62447" lon="1.9378">
        <ele>1975</ele>
        <time>2017-09-16T10:37:17.567Z</time>
      </trkpt>
      <trkpt lat="42.62448" lon="1.93794">
        <ele>1974</ele>
        <time>2017-09-16T10:37:22.567Z</time>
      </trkpt>
      <trkpt lat="42.62458" lon="1.93821">
        <ele>1975</ele>
        <time>2017-09-16T10:37:31.766Z</time>
      </trkpt>
      <trkpt lat="42.62477" lon="1.9384">
        <ele>1974</ele>
        <time>2017-09-16T10:37:43.571Z</time>
      </trkpt>
      <trkpt lat="42.62484" lon="1.93853">
        <ele>1974</ele>
        <time>2017-09-16T10:37:50.569Z</time>
      </trkpt>
      <trkpt lat="42.62489" lon="1.93866">
        <ele>1971</ele>
        <time>2017-09-16T10:37:55.571Z</time>
      </trkpt>
      <trkpt lat="42.62491" lon="1.9388">
        <ele>1969</ele>
        <time>2017-09-16T10:38:03.569Z</time>
      </trkpt>
      <trkpt lat="42.62498" lon="1.93895">
        <ele>1968</ele>
        <time>2017-09-16T10:38:09.564Z</time>
      </trkpt>
      <trkpt lat="42.6251" lon="1.93918">
        <ele>1975</ele>
        <time>2017-09-16T10:38:25.571Z</time>
      </trkpt>
      <trkpt lat="42.62514" lon="1.93933">
        <ele>1980</ele>
        <time>2017-09-16T10:38:33.571Z</time>
      </trkpt>
      <trkpt lat="42.6252" lon="1.93945">
        <ele>1983</ele>
        <time>2017-09-16T10:38:45.567Z</time>
      </trkpt>
      <trkpt lat="42.62525" lon="1.93957">
        <ele>1983</ele>
        <time>2017-09-16T10:38:51.572Z</time>
      </trkpt>
      <trkpt lat="42.62531" lon="1.9397">
        <ele>1984</ele>
        <time>2017-09-16T10:38:59.571Z</time>
      </trkpt>
      <trkpt lat="42.62536" lon="1.93983">
        <ele>1984</ele>
        <time>2017-09-16T10:39:06.571Z</time>
      </trkpt>
      <trkpt lat="42.62548" lon="1.94007">
        <ele>1983</ele>
        <time>2017-09-16T10:39:16.575Z</time>
      </trkpt>
      <trkpt lat="42.62551" lon="1.94022">
        <ele>1983</ele>
        <time>2017-09-16T10:39:21.575Z</time>
      </trkpt>
      <trkpt lat="42.62557" lon="1.94038">
        <ele>1984</ele>
        <time>2017-09-16T10:39:26.566Z</time>
      </trkpt>
      <trkpt lat="42.62562" lon="1.9405">
        <ele>1985</ele>
        <time>2017-09-16T10:39:33.571Z</time>
      </trkpt>
      <trkpt lat="42.62564" lon="1.94064">
        <ele>1986</ele>
        <time>2017-09-16T10:39:40.571Z</time>
      </trkpt>
      <trkpt lat="42.62565" lon="1.94079">
        <ele>1988</ele>
        <time>2017-09-16T10:39:46.568Z</time>
      </trkpt>
      <trkpt lat="42.62563" lon="1.94093">
        <ele>1983</ele>
        <time>2017-09-16T10:39:51.564Z</time>
      </trkpt>
      <trkpt lat="42.62566" lon="1.94109">
        <ele>1980</ele>
        <time>2017-09-16T10:39:58.568Z</time>
      </trkpt>
      <trkpt lat="42.62566" lon="1.94123">
        <ele>1978</ele>
        <time>2017-09-16T10:40:04.571Z</time>
      </trkpt>
      <trkpt lat="42.62566" lon="1.94137">
        <ele>1977</ele>
        <time>2017-09-16T10:40:11.569Z</time>
      </trkpt>
      <trkpt lat="42.62559" lon="1.94149">
        <ele>1976</ele>
        <time>2017-09-16T10:40:16.570Z</time>
      </trkpt>
      <trkpt lat="42.62555" lon="1.94164">
        <ele>1975</ele>
        <time>2017-09-16T10:40:21.568Z</time>
      </trkpt>
      <trkpt lat="42.62556" lon="1.94179">
        <ele>1971</ele>
        <time>2017-09-16T10:40:26.571Z</time>
      </trkpt>
      <trkpt lat="42.62554" lon="1.94192">
        <ele>1970</ele>
        <time>2017-09-16T10:40:32.570Z</time>
      </trkpt>
      <trkpt lat="42.62552" lon="1.94207">
        <ele>1968</ele>
        <time>2017-09-16T10:40:40.570Z</time>
      </trkpt>
      <trkpt lat="42.62561" lon="1.94221">
        <ele>1970</ele>
        <time>2017-09-16T10:40:48.569Z</time>
      </trkpt>
      <trkpt lat="42.62559" lon="1.94235">
        <ele>1970</ele>
        <time>2017-09-16T10:40:55.574Z</time>
      </trkpt>
      <trkpt lat="42.62565" lon="1.94248">
        <ele>1972</ele>
        <time>2017-09-16T10:41:01.764Z</time>
      </trkpt>
      <trkpt lat="42.62575" lon="1.94274">
        <ele>1967</ele>
        <time>2017-09-16T10:41:11.569Z</time>
      </trkpt>
      <trkpt lat="42.62576" lon="1.94288">
        <ele>1965</ele>
        <time>2017-09-16T10:41:19.571Z</time>
      </trkpt>
      <trkpt lat="42.6259" lon="1.94309">
        <ele>1976</ele>
        <time>2017-09-16T10:41:26.571Z</time>
      </trkpt>
      <trkpt lat="42.62598" lon="1.94321">
        <ele>1974</ele>
        <time>2017-09-16T10:41:32.575Z</time>
      </trkpt>
      <trkpt lat="42.62608" lon="1.94329">
        <ele>1976</ele>
        <time>2017-09-16T10:41:37.564Z</time>
      </trkpt>
      <trkpt lat="42.62617" lon="1.94342">
        <ele>1968</ele>
        <time>2017-09-16T10:41:42.574Z</time>
      </trkpt>
      <trkpt lat="42.62621" lon="1.94356">
        <ele>1968</ele>
        <time>2017-09-16T10:41:52.569Z</time>
      </trkpt>
      <trkpt lat="42.62626" lon="1.94369">
        <ele>1968</ele>
        <time>2017-09-16T10:42:00.568Z</time>
      </trkpt>
      <trkpt lat="42.62631" lon="1.94382">
        <ele>1967</ele>
        <time>2017-09-16T10:42:09.570Z</time>
      </trkpt>
      <trkpt lat="42.62638" lon="1.94392">
        <ele>1967</ele>
        <time>2017-09-16T10:42:32.566Z</time>
      </trkpt>
      <trkpt lat="42.62651" lon="1.94392">
        <ele>1969</ele>
        <time>2017-09-16T10:42:58.567Z</time>
      </trkpt>
      <trkpt lat="42.62658" lon="1.94403">
        <ele>1968</ele>
        <time>2017-09-16T10:43:34.565Z</time>
      </trkpt>
      <trkpt lat="42.62658" lon="1.94416">
        <ele>1968</ele>
        <time>2017-09-16T10:44:46.570Z</time>
      </trkpt>
      <trkpt lat="42.62662" lon="1.94402">
        <ele>1969</ele>
        <time>2017-09-16T10:45:13.571Z</time>
      </trkpt>
      <trkpt lat="42.62652" lon="1.94398">
        <ele>1968</ele>
        <time>2017-09-16T10:46:39.571Z</time>
      </trkpt>
      <trkpt lat="42.62666" lon="1.94418">
        <ele>1968</ele>
        <time>2017-09-16T10:49:48.570Z</time>
      </trkpt>
      <trkpt lat="42.62659" lon="1.94409">
        <ele>1968</ele>
        <time>2017-09-16T10:50:30.571Z</time>
      </trkpt>
      <trkpt lat="42.62662" lon="1.94399">
        <ele>1969</ele>
        <time>2017-09-16T10:51:21.569Z</time>
      </trkpt>
      <trkpt lat="42.6266" lon="1.94413">
        <ele>1969</ele>
        <time>2017-09-16T10:52:52.570Z</time>
      </trkpt>
      <trkpt lat="42.62669" lon="1.9441">
        <ele>1971</ele>
        <time>2017-09-16T10:54:18.571Z</time>
      </trkpt>
      <trkpt lat="42.62659" lon="1.94411">
        <ele>1968</ele>
        <time>2017-09-16T10:55:15.570Z</time>
      </trkpt>
      <trkpt lat="42.62667" lon="1.94403">
        <ele>1972</ele>
        <time>2017-09-16T10:57:05.572Z</time>
      </trkpt>
      <trkpt lat="42.62659" lon="1.94411">
        <ele>1968</ele>
        <time>2017-09-16T10:58:18.572Z</time>
      </trkpt>
      <trkpt lat="42.62669" lon="1.94412">
        <ele>1971</ele>
        <time>2017-09-16T10:59:30.562Z</time>
      </trkpt>
      <trkpt lat="42.62677" lon="1.94418">
        <ele>1969</ele>
        <time>2017-09-16T11:00:29.569Z</time>
      </trkpt>
      <trkpt lat="42.62668" lon="1.94413">
        <ele>1970</ele>
        <time>2017-09-16T11:00:34.573Z</time>
      </trkpt>
      <trkpt lat="42.62658" lon="1.9441">
        <ele>1968</ele>
        <time>2017-09-16T11:00:50.569Z</time>
      </trkpt>
      <trkpt lat="42.62652" lon="1.94399">
        <ele>1968</ele>
        <time>2017-09-16T11:00:58.570Z</time>
      </trkpt>
      <trkpt lat="42.62658" lon="1.94412">
        <ele>1968</ele>
        <time>2017-09-16T11:01:39.569Z</time>
      </trkpt>
      <trkpt lat="42.62665" lon="1.94402">
        <ele>1969</ele>
        <time>2017-09-16T11:02:50.571Z</time>
      </trkpt>
      <trkpt lat="42.62659" lon="1.94412">
        <ele>1968</ele>
        <time>2017-09-16T11:03:37.570Z</time>
      </trkpt>
      <trkpt lat="42.62664" lon="1.9441">
        <ele>1969</ele>
        <time>2017-09-16T11:14:56.571Z</time>
      </trkpt>
      <trkpt lat="42.6267" lon="1.944">
        <ele>1973</ele>
        <time>2017-09-16T11:21:37.573Z</time>
      </trkpt>
      <trkpt lat="42.62663" lon="1.94411">
        <ele>1969</ele>
        <time>2017-09-16T11:22:24.576Z</time>
      </trkpt>
      <trkpt lat="42.62672" lon="1.94418">
        <ele>1969</ele>
        <time>2017-09-16T11:25:01.568Z</time>
      </trkpt>
      <trkpt lat="42.62675" lon="1.94432">
        <ele>1968</ele>
        <time>2017-09-16T11:25:07.569Z</time>
      </trkpt>
      <trkpt lat="42.62674" lon="1.94447">
        <ele>1968</ele>
        <time>2017-09-16T11:25:14.565Z</time>
      </trkpt>
      <trkpt lat="42.62668" lon="1.94461">
        <ele>1967</ele>
        <time>2017-09-16T11:25:25.564Z</time>
      </trkpt>
      <trkpt lat="42.6266" lon="1.94477">
        <ele>1961</ele>
        <time>2017-09-16T11:25:33.577Z</time>
      </trkpt>
      <trkpt lat="42.62673" lon="1.94494">
        <ele>1964</ele>
        <time>2017-09-16T11:25:45.578Z</time>
      </trkpt>
      <trkpt lat="42.62676" lon="1.94512">
        <ele>1967</ele>
        <time>2017-09-16T11:25:53.564Z</time>
      </trkpt>
      <trkpt lat="42.62676" lon="1.94529">
        <ele>1969</ele>
        <time>2017-09-16T11:26:05.565Z</time>
      </trkpt>
      <trkpt lat="42.6269" lon="1.94539">
        <ele>1970</ele>
        <time>2017-09-16T11:26:17.568Z</time>
      </trkpt>
      <trkpt lat="42.62705" lon="1.94541">
        <ele>1971</ele>
        <time>2017-09-16T11:26:25.568Z</time>
      </trkpt>
      <trkpt lat="42.62712" lon="1.94551">
        <ele>1973</ele>
        <time>2017-09-16T11:26:33.568Z</time>
      </trkpt>
      <trkpt lat="42.62696" lon="1.94554">
        <ele>1971</ele>
        <time>2017-09-16T11:26:45.571Z</time>
      </trkpt>
      <trkpt lat="42.62686" lon="1.94565">
        <ele>1971</ele>
        <time>2017-09-16T11:27:01.574Z</time>
      </trkpt>
      <trkpt lat="42.62686" lon="1.9458">
        <ele>1971</ele>
        <time>2017-09-16T11:27:13.571Z</time>
      </trkpt>
      <trkpt lat="42.62685" lon="1.94595">
        <ele>1974</ele>
        <time>2017-09-16T11:27:21.565Z</time>
      </trkpt>
      <trkpt lat="42.62686" lon="1.94619">
        <ele>1974</ele>
        <time>2017-09-16T11:27:29.572Z</time>
      </trkpt>
      <trkpt lat="42.62692" lon="1.94639">
        <ele>1974</ele>
        <time>2017-09-16T11:27:37.571Z</time>
      </trkpt>
      <trkpt lat="42.62703" lon="1.94646">
        <ele>1976</ele>
        <time>2017-09-16T11:27:45.569Z</time>
      </trkpt>
      <trkpt lat="42.62709" lon="1.94662">
        <ele>1977</ele>
        <time>2017-09-16T11:27:53.568Z</time>
      </trkpt>
      <trkpt lat="42.62705" lon="1.94678">
        <ele>1972</ele>
        <time>2017-09-16T11:28:05.573Z</time>
      </trkpt>
      <trkpt lat="42.62713" lon="1.947">
        <ele>1972</ele>
        <time>2017-09-16T11:28:17.573Z</time>
      </trkpt>
      <trkpt lat="42.62713" lon="1.94715">
        <ele>1971</ele>
        <time>2017-09-16T11:28:25.576Z</time>
      </trkpt>
      <trkpt lat="42.62722" lon="1.94727">
        <ele>1971</ele>
        <time>2017-09-16T11:28:33.565Z</time>
      </trkpt>
      <trkpt lat="42.62728" lon="1.94742">
        <ele>1971</ele>
        <time>2017-09-16T11:28:41.573Z</time>
      </trkpt>
      <trkpt lat="42.62736" lon="1.94751">
        <ele>1973</ele>
        <time>2017-09-16T11:28:57.566Z</time>
      </trkpt>
      <trkpt lat="42.62737" lon="1.94768">
        <ele>1974</ele>
        <time>2017-09-16T11:29:17.570Z</time>
      </trkpt>
      <trkpt lat="42.62747" lon="1.94773">
        <ele>1974</ele>
        <time>2017-09-16T11:29:29.568Z</time>
      </trkpt>
      <trkpt lat="42.62746" lon="1.94788">
        <ele>1975</ele>
        <time>2017-09-16T11:29:41.571Z</time>
      </trkpt>
      <trkpt lat="42.62745" lon="1.9481">
        <ele>1977</ele>
        <time>2017-09-16T11:29:49.566Z</time>
      </trkpt>
      <trkpt lat="42.62756" lon="1.94826">
        <ele>1976</ele>
        <time>2017-09-16T11:29:57.569Z</time>
      </trkpt>
      <trkpt lat="42.62779" lon="1.94839">
        <ele>1973</ele>
        <time>2017-09-16T11:30:09.570Z</time>
      </trkpt>
      <trkpt lat="42.62778" lon="1.94858">
        <ele>1974</ele>
        <time>2017-09-16T11:30:25.575Z</time>
      </trkpt>
      <trkpt lat="42.62779" lon="1.94883">
        <ele>1975</ele>
        <time>2017-09-16T11:30:33.574Z</time>
      </trkpt>
      <trkpt lat="42.62776" lon="1.94899">
        <ele>1979</ele>
        <time>2017-09-16T11:30:41.576Z</time>
      </trkpt>
      <trkpt lat="42.62783" lon="1.9491">
        <ele>1977</ele>
        <time>2017-09-16T11:30:49.578Z</time>
      </trkpt>
      <trkpt lat="42.62786" lon="1.94924">
        <ele>1987</ele>
        <time>2017-09-16T11:30:57.572Z</time>
      </trkpt>
      <trkpt lat="42.628" lon="1.94956">
        <ele>1988</ele>
        <time>2017-09-16T11:31:04.571Z</time>
      </trkpt>
      <trkpt lat="42.62803" lon="1.94975">
        <ele>1990</ele>
        <time>2017-09-16T11:31:12.571Z</time>
      </trkpt>
      <trkpt lat="42.62805" lon="1.94998">
        <ele>1992</ele>
        <time>2017-09-16T11:31:25.574Z</time>
      </trkpt>
      <trkpt lat="42.62815" lon="1.9501">
        <ele>2002</ele>
        <time>2017-09-16T11:31:41.565Z</time>
      </trkpt>
      <trkpt lat="42.62807" lon="1.95">
        <ele>1992</ele>
        <time>2017-09-16T11:31:54.571Z</time>
      </trkpt>
      <trkpt lat="42.62815" lon="1.95011">
        <ele>2002</ele>
        <time>2017-09-16T11:32:05.571Z</time>
      </trkpt>
      <trkpt lat="42.62824" lon="1.95017">
        <ele>2000</ele>
        <time>2017-09-16T11:32:11.573Z</time>
      </trkpt>
      <trkpt lat="42.62831" lon="1.95007">
        <ele>1993</ele>
        <time>2017-09-16T11:32:21.571Z</time>
      </trkpt>
      <trkpt lat="42.62841" lon="1.95016">
        <ele>1976</ele>
        <time>2017-09-16T11:32:36.570Z</time>
      </trkpt>
      <trkpt lat="42.62849" lon="1.95026">
        <ele>1972</ele>
        <time>2017-09-16T11:32:41.571Z</time>
      </trkpt>
      <trkpt lat="42.62854" lon="1.95042">
        <ele>1971</ele>
        <time>2017-09-16T11:32:59.567Z</time>
      </trkpt>
      <trkpt lat="42.62857" lon="1.95057">
        <ele>1971</ele>
        <time>2017-09-16T11:33:06.573Z</time>
      </trkpt>
      <trkpt lat="42.62869" lon="1.95059">
        <ele>1968</ele>
        <time>2017-09-16T11:33:18.571Z</time>
      </trkpt>
      <trkpt lat="42.62881" lon="1.95062">
        <ele>1965</ele>
        <time>2017-09-16T11:33:28.579Z</time>
      </trkpt>
      <trkpt lat="42.62891" lon="1.9506">
        <ele>1963</ele>
        <time>2017-09-16T11:33:36.572Z</time>
      </trkpt>
      <trkpt lat="42.62902" lon="1.9506">
        <ele>1960</ele>
        <time>2017-09-16T11:33:44.568Z</time>
      </trkpt>
      <trkpt lat="42.62913" lon="1.95059">
        <ele>1959</ele>
        <time>2017-09-16T11:33:51.563Z</time>
      </trkpt>
      <trkpt lat="42.62923" lon="1.95055">
        <ele>1939</ele>
        <time>2017-09-16T11:33:58.564Z</time>
      </trkpt>
      <trkpt lat="42.62942" lon="1.95064">
        <ele>1938</ele>
        <time>2017-09-16T11:34:08.568Z</time>
      </trkpt>
      <trkpt lat="42.62952" lon="1.9506">
        <ele>1935</ele>
        <time>2017-09-16T11:34:13.569Z</time>
      </trkpt>
      <trkpt lat="42.62972" lon="1.95067">
        <ele>1933</ele>
        <time>2017-09-16T11:34:23.569Z</time>
      </trkpt>
      <trkpt lat="42.62983" lon="1.95068">
        <ele>1932</ele>
        <time>2017-09-16T11:34:28.573Z</time>
      </trkpt>
      <trkpt lat="42.62981" lon="1.95051">
        <ele>1931</ele>
        <time>2017-09-16T11:34:46.571Z</time>
      </trkpt>
      <trkpt lat="42.62998" lon="1.95068">
        <ele>1931</ele>
        <time>2017-09-16T11:34:59.571Z</time>
      </trkpt>
      <trkpt lat="42.63015" lon="1.95082">
        <ele>1923</ele>
        <time>2017-09-16T11:35:11.571Z</time>
      </trkpt>
      <trkpt lat="42.63024" lon="1.95093">
        <ele>1927</ele>
        <time>2017-09-16T11:35:17.571Z</time>
      </trkpt>
      <trkpt lat="42.63033" lon="1.95101">
        <ele>1925</ele>
        <time>2017-09-16T11:35:23.571Z</time>
      </trkpt>
      <trkpt lat="42.63044" lon="1.95106">
        <ele>1923</ele>
        <time>2017-09-16T11:35:29.472Z</time>
      </trkpt>
      <trkpt lat="42.63054" lon="1.95108">
        <ele>1921</ele>
        <time>2017-09-16T11:35:35.568Z</time>
      </trkpt>
      <trkpt lat="42.6308" lon="1.95117">
        <ele>1918</ele>
        <time>2017-09-16T11:35:47.571Z</time>
      </trkpt>
      <trkpt lat="42.63101" lon="1.95134">
        <ele>1898</ele>
        <time>2017-09-16T11:35:58.577Z</time>
      </trkpt>
      <trkpt lat="42.63117" lon="1.95142">
        <ele>1896</ele>
        <time>2017-09-16T11:36:07.571Z</time>
      </trkpt>
      <trkpt lat="42.63131" lon="1.95143">
        <ele>1893</ele>
        <time>2017-09-16T11:36:16.571Z</time>
      </trkpt>
      <trkpt lat="42.63143" lon="1.95138">
        <ele>1891</ele>
        <time>2017-09-16T11:36:25.571Z</time>
      </trkpt>
      <trkpt lat="42.63162" lon="1.95159">
        <ele>1892</ele>
        <time>2017-09-16T11:36:37.574Z</time>
      </trkpt>
      <trkpt lat="42.63174" lon="1.95161">
        <ele>1879</ele>
        <time>2017-09-16T11:36:42.571Z</time>
      </trkpt>
      <trkpt lat="42.63183" lon="1.95168">
        <ele>1890</ele>
        <time>2017-09-16T11:36:50.573Z</time>
      </trkpt>
      <trkpt lat="42.63173" lon="1.95167">
        <ele>1892</ele>
        <time>2017-09-16T11:37:07.573Z</time>
      </trkpt>
      <trkpt lat="42.6318" lon="1.95157">
        <ele>1872</ele>
        <time>2017-09-16T11:37:28.871Z</time>
      </trkpt>
      <trkpt lat="42.63192" lon="1.95162">
        <ele>1865</ele>
        <time>2017-09-16T11:37:35.571Z</time>
      </trkpt>
      <trkpt lat="42.63203" lon="1.95165">
        <ele>1859</ele>
        <time>2017-09-16T11:37:43.570Z</time>
      </trkpt>
      <trkpt lat="42.63213" lon="1.95161">
        <ele>1854</ele>
        <time>2017-09-16T11:37:49.571Z</time>
      </trkpt>
      <trkpt lat="42.63224" lon="1.95168">
        <ele>1871</ele>
        <time>2017-09-16T11:37:55.581Z</time>
      </trkpt>
      <trkpt lat="42.6324" lon="1.95177">
        <ele>1859</ele>
        <time>2017-09-16T11:38:03.571Z</time>
      </trkpt>
      <trkpt lat="42.63254" lon="1.95181">
        <ele>1847</ele>
        <time>2017-09-16T11:38:13.571Z</time>
      </trkpt>
      <trkpt lat="42.63266" lon="1.95189">
        <ele>1854</ele>
        <time>2017-09-16T11:38:23.571Z</time>
      </trkpt>
      <trkpt lat="42.63288" lon="1.95189">
        <ele>1856</ele>
        <time>2017-09-16T11:38:33.571Z</time>
      </trkpt>
      <trkpt lat="42.63305" lon="1.95194">
        <ele>1855</ele>
        <time>2017-09-16T11:38:39.571Z</time>
      </trkpt>
      <trkpt lat="42.63322" lon="1.9519">
        <ele>1849</ele>
        <time>2017-09-16T11:38:47.571Z</time>
      </trkpt>
      <trkpt lat="42.63346" lon="1.95195">
        <ele>1837</ele>
        <time>2017-09-16T11:38:56.573Z</time>
      </trkpt>
      <trkpt lat="42.63334" lon="1.95182">
        <ele>1830</ele>
        <time>2017-09-16T11:39:02.566Z</time>
      </trkpt>
      <trkpt lat="42.63324" lon="1.95158">
        <ele>1819</ele>
        <time>2017-09-16T11:39:12.571Z</time>
      </trkpt>
      <trkpt lat="42.63321" lon="1.95132">
        <ele>1817</ele>
        <time>2017-09-16T11:39:27.571Z</time>
      </trkpt>
      <trkpt lat="42.63325" lon="1.95125">
        <ele>1816</ele>
        <time>2017-09-16T11:39:40.572Z</time>
      </trkpt>
      <trkpt lat="42.63327" lon="1.95111">
        <ele>1812</ele>
        <time>2017-09-16T11:39:47.464Z</time>
      </trkpt>
      <trkpt lat="42.63333" lon="1.95093">
        <ele>1805</ele>
        <time>2017-09-16T11:40:07.575Z</time>
      </trkpt>
      <trkpt lat="42.63341" lon="1.95072">
        <ele>1788</ele>
        <time>2017-09-16T11:40:18.571Z</time>
      </trkpt>
      <trkpt lat="42.63349" lon="1.95061">
        <ele>1782</ele>
        <time>2017-09-16T11:40:30.569Z</time>
      </trkpt>
      <trkpt lat="42.63359" lon="1.9506">
        <ele>1779</ele>
        <time>2017-09-16T11:40:37.571Z</time>
      </trkpt>
      <trkpt lat="42.63373" lon="1.95063">
        <ele>1775</ele>
        <time>2017-09-16T11:40:44.571Z</time>
      </trkpt>
      <trkpt lat="42.63392" lon="1.95062">
        <ele>1770</ele>
        <time>2017-09-16T11:40:54.571Z</time>
      </trkpt>
      <trkpt lat="42.63402" lon="1.95058">
        <ele>1767</ele>
        <time>2017-09-16T11:41:00.571Z</time>
      </trkpt>
      <trkpt lat="42.63425" lon="1.95051">
        <ele>1741</ele>
        <time>2017-09-16T11:41:06.571Z</time>
      </trkpt>
      <trkpt lat="42.63454" lon="1.95055">
        <ele>1735</ele>
        <time>2017-09-16T11:41:15.571Z</time>
      </trkpt>
      <trkpt lat="42.63472" lon="1.95049">
        <ele>1731</ele>
        <time>2017-09-16T11:41:20.571Z</time>
      </trkpt>
      <trkpt lat="42.63492" lon="1.9506">
        <ele>1729</ele>
        <time>2017-09-16T11:41:27.571Z</time>
      </trkpt>
      <trkpt lat="42.63502" lon="1.9507">
        <ele>1718</ele>
        <time>2017-09-16T11:41:33.571Z</time>
      </trkpt>
      <trkpt lat="42.63509" lon="1.95083">
        <ele>1721</ele>
        <time>2017-09-16T11:41:54.571Z</time>
      </trkpt>
      <trkpt lat="42.63517" lon="1.95089">
        <ele>1729</ele>
        <time>2017-09-16T11:41:59.766Z</time>
      </trkpt>
      <trkpt lat="42.63531" lon="1.95084">
        <ele>1728</ele>
        <time>2017-09-16T11:42:06.571Z</time>
      </trkpt>
      <trkpt lat="42.63546" lon="1.95075">
        <ele>1709</ele>
        <time>2017-09-16T11:42:16.571Z</time>
      </trkpt>
      <trkpt lat="42.63553" lon="1.9506">
        <ele>1707</ele>
        <time>2017-09-16T11:42:27.571Z</time>
      </trkpt>
      <trkpt lat="42.63554" lon="1.95074">
        <ele>1708</ele>
        <time>2017-09-16T11:43:24.571Z</time>
      </trkpt>
      <trkpt lat="42.63561" lon="1.95063">
        <ele>1706</ele>
        <time>2017-09-16T11:47:19.569Z</time>
      </trkpt>
      <trkpt lat="42.63551" lon="1.95064">
        <ele>1707</ele>
        <time>2017-09-16T11:48:36.571Z</time>
      </trkpt>
      <trkpt lat="42.63561" lon="1.95069">
        <ele>1707</ele>
        <time>2017-09-16T11:48:56.571Z</time>
      </trkpt>
      <trkpt lat="42.63555" lon="1.95059">
        <ele>1706</ele>
        <time>2017-09-16T11:51:28.571Z</time>
      </trkpt>
      <trkpt lat="42.63545" lon="1.95065">
        <ele>1708</ele>
        <time>2017-09-16T11:51:42.571Z</time>
      </trkpt>
      <trkpt lat="42.63555" lon="1.9507">
        <ele>1707</ele>
        <time>2017-09-16T11:51:51.572Z</time>
      </trkpt>
      <trkpt lat="42.63564" lon="1.95068">
        <ele>1707</ele>
        <time>2017-09-16T11:52:05.574Z</time>
      </trkpt>
      <trkpt lat="42.63574" lon="1.95073">
        <ele>1706</ele>
        <time>2017-09-16T11:52:22.571Z</time>
      </trkpt>
      <trkpt lat="42.63588" lon="1.95079">
        <ele>1702</ele>
        <time>2017-09-16T11:52:31.566Z</time>
      </trkpt>
      <trkpt lat="42.63595" lon="1.9509">
        <ele>1707</ele>
        <time>2017-09-16T11:52:37.571Z</time>
      </trkpt>
      <trkpt lat="42.63612" lon="1.95097">
        <ele>1705</ele>
        <time>2017-09-16T11:52:46.571Z</time>
      </trkpt>
      <trkpt lat="42.63632" lon="1.95104">
        <ele>1702</ele>
        <time>2017-09-16T11:52:58.575Z</time>
      </trkpt>
      <trkpt lat="42.6364" lon="1.95115">
        <ele>1703</ele>
        <time>2017-09-16T11:53:03.571Z</time>
      </trkpt>
      <trkpt lat="42.63656" lon="1.95133">
        <ele>1704</ele>
        <time>2017-09-16T11:53:17.571Z</time>
      </trkpt>
      <trkpt lat="42.63658" lon="1.95119">
        <ele>1700</ele>
        <time>2017-09-16T11:53:31.564Z</time>
      </trkpt>
      <trkpt lat="42.63678" lon="1.95123">
        <ele>1682</ele>
        <time>2017-09-16T11:53:40.571Z</time>
      </trkpt>
      <trkpt lat="42.63695" lon="1.95132">
        <ele>1681</ele>
        <time>2017-09-16T11:53:47.571Z</time>
      </trkpt>
      <trkpt lat="42.63714" lon="1.95134">
        <ele>1677</ele>
        <time>2017-09-16T11:53:58.574Z</time>
      </trkpt>
      <trkpt lat="42.63724" lon="1.95138">
        <ele>1676</ele>
        <time>2017-09-16T11:54:03.571Z</time>
      </trkpt>
      <trkpt lat="42.63744" lon="1.95152">
        <ele>1676</ele>
        <time>2017-09-16T11:54:10.571Z</time>
      </trkpt>
      <trkpt lat="42.63759" lon="1.95135">
        <ele>1655</ele>
        <time>2017-09-16T11:54:19.571Z</time>
      </trkpt>
      <trkpt lat="42.63757" lon="1.95115">
        <ele>1650</ele>
        <time>2017-09-16T11:54:38.571Z</time>
      </trkpt>
      <trkpt lat="42.63778" lon="1.95122">
        <ele>1649</ele>
        <time>2017-09-16T11:54:48.570Z</time>
      </trkpt>
      <trkpt lat="42.63788" lon="1.95128">
        <ele>1648</ele>
        <time>2017-09-16T11:54:53.568Z</time>
      </trkpt>
      <trkpt lat="42.63796" lon="1.95137">
        <ele>1648</ele>
        <time>2017-09-16T11:54:58.575Z</time>
      </trkpt>
      <trkpt lat="42.63824" lon="1.95135">
        <ele>1644</ele>
        <time>2017-09-16T11:55:10.571Z</time>
      </trkpt>
      <trkpt lat="42.63846" lon="1.95121">
        <ele>1622</ele>
        <time>2017-09-16T11:55:17.571Z</time>
      </trkpt>
      <trkpt lat="42.63867" lon="1.95139">
        <ele>1621</ele>
        <time>2017-09-16T11:55:26.571Z</time>
      </trkpt>
      <trkpt lat="42.6388" lon="1.95149">
        <ele>1619</ele>
        <time>2017-09-16T11:55:33.571Z</time>
      </trkpt>
      <trkpt lat="42.63893" lon="1.95172">
        <ele>1623</ele>
        <time>2017-09-16T11:55:42.571Z</time>
      </trkpt>
      <trkpt lat="42.63913" lon="1.95185">
        <ele>1620</ele>
        <time>2017-09-16T11:55:50.565Z</time>
      </trkpt>
      <trkpt lat="42.63923" lon="1.95194">
        <ele>1601</ele>
        <time>2017-09-16T11:56:01.571Z</time>
      </trkpt>
      <trkpt lat="42.63931" lon="1.95205">
        <ele>1601</ele>
        <time>2017-09-16T11:56:09.565Z</time>
      </trkpt>
      <trkpt lat="42.6394" lon="1.95219">
        <ele>1601</ele>
        <time>2017-09-16T11:56:28.571Z</time>
      </trkpt>
      <trkpt lat="42.63962" lon="1.95247">
        <ele>1594</ele>
        <time>2017-09-16T11:56:38.571Z</time>
      </trkpt>
      <trkpt lat="42.63973" lon="1.95274">
        <ele>1594</ele>
        <time>2017-09-16T11:56:44.571Z</time>
      </trkpt>
      <trkpt lat="42.6399" lon="1.95285">
        <ele>1591</ele>
        <time>2017-09-16T11:57:04.571Z</time>
      </trkpt>
      <trkpt lat="42.6401" lon="1.95254">
        <ele>1568</ele>
        <time>2017-09-16T11:57:13.571Z</time>
      </trkpt>
      <trkpt lat="42.63997" lon="1.95231">
        <ele>1583</ele>
        <time>2017-09-16T11:57:19.573Z</time>
      </trkpt>
      <trkpt lat="42.64007" lon="1.95235">
        <ele>1572</ele>
        <time>2017-09-16T11:57:25.574Z</time>
      </trkpt>
      <trkpt lat="42.64024" lon="1.95259">
        <ele>1565</ele>
        <time>2017-09-16T11:57:32.572Z</time>
      </trkpt>
      <trkpt lat="42.64037" lon="1.95279">
        <ele>1563</ele>
        <time>2017-09-16T11:57:40.567Z</time>
      </trkpt>
      <trkpt lat="42.64045" lon="1.953">
        <ele>1561</ele>
        <time>2017-09-16T11:57:45.571Z</time>
      </trkpt>
      <trkpt lat="42.64075" lon="1.95353">
        <ele>1547</ele>
        <time>2017-09-16T11:57:59.571Z</time>
      </trkpt>
      <trkpt lat="42.64071" lon="1.95392">
        <ele>1543</ele>
        <time>2017-09-16T11:58:13.571Z</time>
      </trkpt>
      <trkpt lat="42.64071" lon="1.95409">
        <ele>1537</ele>
        <time>2017-09-16T11:58:19.568Z</time>
      </trkpt>
      <trkpt lat="42.64076" lon="1.9544">
        <ele>1535</ele>
        <time>2017-09-16T11:58:26.573Z</time>
      </trkpt>
      <trkpt lat="42.64084" lon="1.95466">
        <ele>1517</ele>
        <time>2017-09-16T11:58:32.571Z</time>
      </trkpt>
      <trkpt lat="42.64098" lon="1.95505">
        <ele>1509</ele>
        <time>2017-09-16T11:58:44.571Z</time>
      </trkpt>
      <trkpt lat="42.64104" lon="1.9553">
        <ele>1508</ele>
        <time>2017-09-16T11:58:51.571Z</time>
      </trkpt>
      <trkpt lat="42.64095" lon="1.95558">
        <ele>1510</ele>
        <time>2017-09-16T11:58:59.569Z</time>
      </trkpt>
      <trkpt lat="42.64095" lon="1.95577">
        <ele>1512</ele>
        <time>2017-09-16T11:59:04.571Z</time>
      </trkpt>
      <trkpt lat="42.64108" lon="1.95592">
        <ele>1508</ele>
        <time>2017-09-16T11:59:10.571Z</time>
      </trkpt>
      <trkpt lat="42.64122" lon="1.95629">
        <ele>1505</ele>
        <time>2017-09-16T11:59:18.571Z</time>
      </trkpt>
      <trkpt lat="42.64134" lon="1.95635">
        <ele>1503</ele>
        <time>2017-09-16T11:59:25.571Z</time>
      </trkpt>
      <trkpt lat="42.64143" lon="1.95626">
        <ele>1501</ele>
        <time>2017-09-16T11:59:39.571Z</time>
      </trkpt>
      <trkpt lat="42.64167" lon="1.95619">
        <ele>1498</ele>
        <time>2017-09-16T11:59:46.571Z</time>
      </trkpt>
      <trkpt lat="42.64186" lon="1.95613">
        <ele>1493</ele>
        <time>2017-09-16T11:59:54.571Z</time>
      </trkpt>
      <trkpt lat="42.64214" lon="1.95644">
        <ele>1494</ele>
        <time>2017-09-16T12:00:06.571Z</time>
      </trkpt>
      <trkpt lat="42.64238" lon="1.95673">
        <ele>1487</ele>
        <time>2017-09-16T12:00:15.571Z</time>
      </trkpt>
      <trkpt lat="42.64249" lon="1.95714">
        <ele>1482</ele>
        <time>2017-09-16T12:00:23.571Z</time>
      </trkpt>
      <trkpt lat="42.64253" lon="1.95749">
        <ele>1475</ele>
        <time>2017-09-16T12:00:32.571Z</time>
      </trkpt>
      <trkpt lat="42.64252" lon="1.95772">
        <ele>1475</ele>
        <time>2017-09-16T12:00:39.571Z</time>
      </trkpt>
      <trkpt lat="42.64254" lon="1.95794">
        <ele>1475</ele>
        <time>2017-09-16T12:00:47.571Z</time>
      </trkpt>
      <trkpt lat="42.64243" lon="1.95818">
        <ele>1472</ele>
        <time>2017-09-16T12:00:54.571Z</time>
      </trkpt>
      <trkpt lat="42.64242" lon="1.95838">
        <ele>1470</ele>
        <time>2017-09-16T12:01:00.571Z</time>
      </trkpt>
      <trkpt lat="42.64248" lon="1.95866">
        <ele>1476</ele>
        <time>2017-09-16T12:01:06.572Z</time>
      </trkpt>
      <trkpt lat="42.64256" lon="1.9588">
        <ele>1469</ele>
        <time>2017-09-16T12:01:12.571Z</time>
      </trkpt>
      <trkpt lat="42.64284" lon="1.95899">
        <ele>1468</ele>
        <time>2017-09-16T12:01:24.571Z</time>
      </trkpt>
      <trkpt lat="42.64304" lon="1.95909">
        <ele>1466</ele>
        <time>2017-09-16T12:01:37.571Z</time>
      </trkpt>
      <trkpt lat="42.64324" lon="1.95926">
        <ele>1464</ele>
        <time>2017-09-16T12:01:44.571Z</time>
      </trkpt>
      <trkpt lat="42.64345" lon="1.95931">
        <ele>1460</ele>
        <time>2017-09-16T12:01:53.571Z</time>
      </trkpt>
      <trkpt lat="42.64386" lon="1.95957">
        <ele>1460</ele>
        <time>2017-09-16T12:02:08.571Z</time>
      </trkpt>
      <trkpt lat="42.64396" lon="1.95953">
        <ele>1460</ele>
        <time>2017-09-16T12:02:17.571Z</time>
      </trkpt>
      <trkpt lat="42.64395" lon="1.95968">
        <ele>1459</ele>
        <time>2017-09-16T12:03:43.571Z</time>
      </trkpt>
      <trkpt lat="42.64404" lon="1.95959">
        <ele>1459</ele>
        <time>2017-09-16T12:04:11.580Z</time>
      </trkpt>
      <trkpt lat="42.64394" lon="1.95955">
        <ele>1460</ele>
        <time>2017-09-16T12:05:11.568Z</time>
      </trkpt>
      <trkpt lat="42.64383" lon="1.95957">
        <ele>1460</ele>
        <time>2017-09-16T12:05:22.564Z</time>
      </trkpt>
      <trkpt lat="42.64395" lon="1.95955">
        <ele>1460</ele>
        <time>2017-09-16T12:05:31.571Z</time>
      </trkpt>
      <trkpt lat="42.64405" lon="1.95959">
        <ele>1459</ele>
        <time>2017-09-16T12:06:05.571Z</time>
      </trkpt>
      <trkpt lat="42.64408" lon="1.95943">
        <ele>1460</ele>
        <time>2017-09-16T12:06:19.571Z</time>
      </trkpt>
      <trkpt lat="42.64394" lon="1.95944">
        <ele>1460</ele>
        <time>2017-09-16T12:06:31.571Z</time>
      </trkpt>
      <trkpt lat="42.64403" lon="1.95954">
        <ele>1460</ele>
        <time>2017-09-16T12:06:47.571Z</time>
      </trkpt>
      <trkpt lat="42.64405" lon="1.95939">
        <ele>1460</ele>
        <time>2017-09-16T12:07:51.567Z</time>
      </trkpt>
      <trkpt lat="42.64414" lon="1.95932">
        <ele>1461</ele>
        <time>2017-09-16T12:07:56.566Z</time>
      </trkpt>
      <trkpt lat="42.64416" lon="1.95915">
        <ele>1463</ele>
        <time>2017-09-16T12:08:06.571Z</time>
      </trkpt>
      <trkpt lat="42.64433" lon="1.95928">
        <ele>1463</ele>
        <time>2017-09-16T12:08:14.571Z</time>
      </trkpt>
      <trkpt lat="42.64444" lon="1.9593">
        <ele>1465</ele>
        <time>2017-09-16T12:08:23.570Z</time>
      </trkpt>
      <trkpt lat="42.64451" lon="1.9594">
        <ele>1465</ele>
        <time>2017-09-16T12:08:32.571Z</time>
      </trkpt>
      <trkpt lat="42.6446" lon="1.95948">
        <ele>1465</ele>
        <time>2017-09-16T12:08:41.571Z</time>
      </trkpt>
      <trkpt lat="42.64472" lon="1.95955">
        <ele>1465</ele>
        <time>2017-09-16T12:08:52.571Z</time>
      </trkpt>
      <trkpt lat="42.64482" lon="1.95961">
        <ele>1464</ele>
        <time>2017-09-16T12:09:01.571Z</time>
      </trkpt>
      <trkpt lat="42.64493" lon="1.95965">
        <ele>1463</ele>
        <time>2017-09-16T12:09:07.571Z</time>
      </trkpt>
      <trkpt lat="42.64503" lon="1.95972">
        <ele>1470</ele>
        <time>2017-09-16T12:09:15.571Z</time>
      </trkpt>
      <trkpt lat="42.64512" lon="1.95981">
        <ele>1467</ele>
        <time>2017-09-16T12:09:22.571Z</time>
      </trkpt>
      <trkpt lat="42.64521" lon="1.9599">
        <ele>1467</ele>
        <time>2017-09-16T12:09:27.571Z</time>
      </trkpt>
      <trkpt lat="42.6454" lon="1.96002">
        <ele>1454</ele>
        <time>2017-09-16T12:09:37.571Z</time>
      </trkpt>
      <trkpt lat="42.6455" lon="1.9601">
        <ele>1456</ele>
        <time>2017-09-16T12:09:42.571Z</time>
      </trkpt>
      <trkpt lat="42.64561" lon="1.96016">
        <ele>1457</ele>
        <time>2017-09-16T12:09:47.571Z</time>
      </trkpt>
      <trkpt lat="42.64573" lon="1.96023">
        <ele>1457</ele>
        <time>2017-09-16T12:09:52.571Z</time>
      </trkpt>
      <trkpt lat="42.6459" lon="1.96042">
        <ele>1460</ele>
        <time>2017-09-16T12:10:00.571Z</time>
      </trkpt>
      <trkpt lat="42.646" lon="1.96049">
        <ele>1459</ele>
        <time>2017-09-16T12:10:05.571Z</time>
      </trkpt>
      <trkpt lat="42.64622" lon="1.96064">
        <ele>1458</ele>
        <time>2017-09-16T12:10:14.571Z</time>
      </trkpt>
      <trkpt lat="42.64632" lon="1.96069">
        <ele>1458</ele>
        <time>2017-09-16T12:10:19.571Z</time>
      </trkpt>
      <trkpt lat="42.64643" lon="1.96077">
        <ele>1457</ele>
        <time>2017-09-16T12:10:24.571Z</time>
      </trkpt>
      <trkpt lat="42.64663" lon="1.96093">
        <ele>1445</ele>
        <time>2017-09-16T12:10:32.571Z</time>
      </trkpt>
      <trkpt lat="42.64673" lon="1.961">
        <ele>1444</ele>
        <time>2017-09-16T12:10:37.571Z</time>
      </trkpt>
      <trkpt lat="42.64691" lon="1.96119">
        <ele>1440</ele>
        <time>2017-09-16T12:10:45.571Z</time>
      </trkpt>
      <trkpt lat="42.6471" lon="1.96125">
        <ele>1440</ele>
        <time>2017-09-16T12:10:53.571Z</time>
      </trkpt>
      <trkpt lat="42.64733" lon="1.96123">
        <ele>1441</ele>
        <time>2017-09-16T12:11:02.571Z</time>
      </trkpt>
      <trkpt lat="42.64746" lon="1.96124">
        <ele>1441</ele>
        <time>2017-09-16T12:11:07.571Z</time>
      </trkpt>
      <trkpt lat="42.64766" lon="1.9612">
        <ele>1445</ele>
        <time>2017-09-16T12:11:15.571Z</time>
      </trkpt>
      <trkpt lat="42.64785" lon="1.9611">
        <ele>1447</ele>
        <time>2017-09-16T12:11:23.571Z</time>
      </trkpt>
      <trkpt lat="42.64804" lon="1.96117">
        <ele>1447</ele>
        <time>2017-09-16T12:11:31.571Z</time>
      </trkpt>
      <trkpt lat="42.64822" lon="1.96129">
        <ele>1444</ele>
        <time>2017-09-16T12:11:39.571Z</time>
      </trkpt>
      <trkpt lat="42.64844" lon="1.96136">
        <ele>1441</ele>
        <time>2017-09-16T12:11:47.571Z</time>
      </trkpt>
      <trkpt lat="42.64864" lon="1.96146">
        <ele>1440</ele>
        <time>2017-09-16T12:11:55.571Z</time>
      </trkpt>
      <trkpt lat="42.64882" lon="1.96159">
        <ele>1439</ele>
        <time>2017-09-16T12:12:03.571Z</time>
      </trkpt>
      <trkpt lat="42.64902" lon="1.96175">
        <ele>1429</ele>
        <time>2017-09-16T12:12:12.571Z</time>
      </trkpt>
      <trkpt lat="42.64914" lon="1.96179">
        <ele>1430</ele>
        <time>2017-09-16T12:12:17.571Z</time>
      </trkpt>
      <trkpt lat="42.64936" lon="1.96189">
        <ele>1432</ele>
        <time>2017-09-16T12:12:26.571Z</time>
      </trkpt>
      <trkpt lat="42.64957" lon="1.96199">
        <ele>1432</ele>
        <time>2017-09-16T12:12:35.571Z</time>
      </trkpt>
      <trkpt lat="42.64968" lon="1.96205">
        <ele>1433</ele>
        <time>2017-09-16T12:12:40.571Z</time>
      </trkpt>
      <trkpt lat="42.64988" lon="1.96211">
        <ele>1433</ele>
        <time>2017-09-16T12:12:48.571Z</time>
      </trkpt>
      <trkpt lat="42.64999" lon="1.96216">
        <ele>1433</ele>
        <time>2017-09-16T12:12:53.571Z</time>
      </trkpt>
      <trkpt lat="42.65017" lon="1.96222">
        <ele>1434</ele>
        <time>2017-09-16T12:13:01.571Z</time>
      </trkpt>
      <trkpt lat="42.65033" lon="1.96226">
        <ele>1434</ele>
        <time>2017-09-16T12:13:08.571Z</time>
      </trkpt>
      <trkpt lat="42.65045" lon="1.96227">
        <ele>1434</ele>
        <time>2017-09-16T12:13:16.571Z</time>
      </trkpt>
      <trkpt lat="42.65062" lon="1.96224">
        <ele>1434</ele>
        <time>2017-09-16T12:13:28.571Z</time>
      </trkpt>
      <trkpt lat="42.65074" lon="1.96222">
        <ele>1434</ele>
        <time>2017-09-16T12:13:36.571Z</time>
      </trkpt>
      <trkpt lat="42.65086" lon="1.9622">
        <ele>1433</ele>
        <time>2017-09-16T12:13:44.571Z</time>
      </trkpt>
      <trkpt lat="42.65101" lon="1.96219">
        <ele>1433</ele>
        <time>2017-09-16T12:13:56.571Z</time>
      </trkpt>
      <trkpt lat="42.65113" lon="1.96216">
        <ele>1433</ele>
        <time>2017-09-16T12:14:04.571Z</time>
      </trkpt>
      <trkpt lat="42.65125" lon="1.96211">
        <ele>1433</ele>
        <time>2017-09-16T12:14:20.571Z</time>
      </trkpt>
      <trkpt lat="42.65137" lon="1.9621">
        <ele>1433</ele>
        <time>2017-09-16T12:14:28.571Z</time>
      </trkpt>
      <trkpt lat="42.65147" lon="1.96209">
        <ele>1433</ele>
        <time>2017-09-16T12:14:36.571Z</time>
      </trkpt>
      <trkpt lat="42.65159" lon="1.96211">
        <ele>1432</ele>
        <time>2017-09-16T12:14:56.571Z</time>
      </trkpt>
      <trkpt lat="42.65169" lon="1.96215">
        <ele>1430</ele>
        <time>2017-09-16T12:15:04.571Z</time>
      </trkpt>
      <trkpt lat="42.65179" lon="1.96223">
        <ele>1429</ele>
        <time>2017-09-16T12:15:12.571Z</time>
      </trkpt>
      <trkpt lat="42.65199" lon="1.96233">
        <ele>1428</ele>
        <time>2017-09-16T12:15:20.571Z</time>
      </trkpt>
      <trkpt lat="42.6522" lon="1.96235">
        <ele>1427</ele>
        <time>2017-09-16T12:15:28.571Z</time>
      </trkpt>
      <trkpt lat="42.65239" lon="1.96242">
        <ele>1424</ele>
        <time>2017-09-16T12:15:36.571Z</time>
      </trkpt>
      <trkpt lat="42.65255" lon="1.9626">
        <ele>1417</ele>
        <time>2017-09-16T12:15:44.571Z</time>
      </trkpt>
      <trkpt lat="42.6528" lon="1.9628">
        <ele>1414</ele>
        <time>2017-09-16T12:15:56.571Z</time>
      </trkpt>
      <trkpt lat="42.653" lon="1.9629">
        <ele>1413</ele>
        <time>2017-09-16T12:16:04.571Z</time>
      </trkpt>
      <trkpt lat="42.65322" lon="1.96295">
        <ele>1413</ele>
        <time>2017-09-16T12:16:12.571Z</time>
      </trkpt>
      <trkpt lat="42.65344" lon="1.96302">
        <ele>1412</ele>
        <time>2017-09-16T12:16:20.571Z</time>
      </trkpt>
      <trkpt lat="42.65352" lon="1.96306">
        <ele>1411</ele>
        <time>2017-09-16T12:16:28.571Z</time>
      </trkpt>
      <trkpt lat="42.65367" lon="1.96318">
        <ele>1410</ele>
        <time>2017-09-16T12:16:52.571Z</time>
      </trkpt>
      <trkpt lat="42.6539" lon="1.96331">
        <ele>1409</ele>
        <time>2017-09-16T12:17:00.571Z</time>
      </trkpt>
      <trkpt lat="42.65412" lon="1.96344">
        <ele>1403</ele>
        <time>2017-09-16T12:17:08.571Z</time>
      </trkpt>
      <trkpt lat="42.65434" lon="1.96356">
        <ele>1403</ele>
        <time>2017-09-16T12:17:16.571Z</time>
      </trkpt>
      <trkpt lat="42.65458" lon="1.9637">
        <ele>1402</ele>
        <time>2017-09-16T12:17:24.571Z</time>
      </trkpt>
      <trkpt lat="42.65477" lon="1.96387">
        <ele>1402</ele>
        <time>2017-09-16T12:17:32.571Z</time>
      </trkpt>
      <trkpt lat="42.65498" lon="1.964">
        <ele>1402</ele>
        <time>2017-09-16T12:17:40.571Z</time>
      </trkpt>
      <trkpt lat="42.65519" lon="1.96408">
        <ele>1403</ele>
        <time>2017-09-16T12:17:48.571Z</time>
      </trkpt>
      <trkpt lat="42.65542" lon="1.96415">
        <ele>1403</ele>
        <time>2017-09-16T12:17:56.571Z</time>
      </trkpt>
      <trkpt lat="42.65555" lon="1.9642">
        <ele>1398</ele>
        <time>2017-09-16T12:18:01.571Z</time>
      </trkpt>
      <trkpt lat="42.65577" lon="1.96428">
        <ele>1398</ele>
        <time>2017-09-16T12:18:09.571Z</time>
      </trkpt>
      <trkpt lat="42.65599" lon="1.96435">
        <ele>1398</ele>
        <time>2017-09-16T12:18:17.571Z</time>
      </trkpt>
      <trkpt lat="42.6562" lon="1.96446">
        <ele>1397</ele>
        <time>2017-09-16T12:18:25.571Z</time>
      </trkpt>
      <trkpt lat="42.65639" lon="1.96458">
        <ele>1397</ele>
        <time>2017-09-16T12:18:33.571Z</time>
      </trkpt>
      <trkpt lat="42.65658" lon="1.96471">
        <ele>1396</ele>
        <time>2017-09-16T12:18:41.571Z</time>
      </trkpt>
      <trkpt lat="42.65676" lon="1.96485">
        <ele>1396</ele>
        <time>2017-09-16T12:18:49.571Z</time>
      </trkpt>
      <trkpt lat="42.65698" lon="1.96493">
        <ele>1397</ele>
        <time>2017-09-16T12:18:57.571Z</time>
      </trkpt>
      <trkpt lat="42.65719" lon="1.96498">
        <ele>1397</ele>
        <time>2017-09-16T12:19:05.571Z</time>
      </trkpt>
      <trkpt lat="42.6574" lon="1.96495">
        <ele>1395</ele>
        <time>2017-09-16T12:19:13.571Z</time>
      </trkpt>
      <trkpt lat="42.65759" lon="1.96487">
        <ele>1395</ele>
        <time>2017-09-16T12:19:21.571Z</time>
      </trkpt>
      <trkpt lat="42.6578" lon="1.96486">
        <ele>1395</ele>
        <time>2017-09-16T12:19:29.571Z</time>
      </trkpt>
      <trkpt lat="42.65805" lon="1.96484">
        <ele>1394</ele>
        <time>2017-09-16T12:19:41.571Z</time>
      </trkpt>
      <trkpt lat="42.65818" lon="1.96478">
        <ele>1393</ele>
        <time>2017-09-16T12:19:49.571Z</time>
      </trkpt>
      <trkpt lat="42.65828" lon="1.96473">
        <ele>1393</ele>
        <time>2017-09-16T12:19:57.571Z</time>
      </trkpt>
      <trkpt lat="42.6584" lon="1.9647">
        <ele>1389</ele>
        <time>2017-09-16T12:20:05.571Z</time>
      </trkpt>
      <trkpt lat="42.65851" lon="1.96469">
        <ele>1389</ele>
        <time>2017-09-16T12:22:15.571Z</time>
      </trkpt>
      <trkpt lat="42.65839" lon="1.96488">
        <ele>1387</ele>
        <time>2017-09-16T12:24:45.673Z</time>
      </trkpt>
      <trkpt lat="42.65838" lon="1.96477">
        <ele>1388</ele>
        <time>2017-09-16T12:24:53.571Z</time>
      </trkpt>
      <trkpt lat="42.65856" lon="1.96473">
        <ele>1389</ele>
        <time>2017-09-16T12:25:07.571Z</time>
      </trkpt>
      <trkpt lat="42.65878" lon="1.9646">
        <ele>1389</ele>
        <time>2017-09-16T12:25:18.571Z</time>
      </trkpt>
      <trkpt lat="42.65893" lon="1.96444">
        <ele>1390</ele>
        <time>2017-09-16T12:25:24.571Z</time>
      </trkpt>
      <trkpt lat="42.65912" lon="1.96449">
        <ele>1389</ele>
        <time>2017-09-16T12:25:33.567Z</time>
      </trkpt>
      <trkpt lat="42.65932" lon="1.96461">
        <ele>1387</ele>
        <time>2017-09-16T12:25:40.575Z</time>
      </trkpt>
      <trkpt lat="42.65943" lon="1.96475">
        <ele>1386</ele>
        <time>2017-09-16T12:25:45.571Z</time>
      </trkpt>
      <trkpt lat="42.65964" lon="1.96487">
        <ele>1385</ele>
        <time>2017-09-16T12:25:54.571Z</time>
      </trkpt>
      <trkpt lat="42.65981" lon="1.96498">
        <ele>1382</ele>
        <time>2017-09-16T12:26:00.571Z</time>
      </trkpt>
      <trkpt lat="42.66" lon="1.96508">
        <ele>1373</ele>
        <time>2017-09-16T12:26:07.571Z</time>
      </trkpt>
      <trkpt lat="42.66006" lon="1.96518">
        <ele>1371</ele>
        <time>2017-09-16T12:26:15.571Z</time>
      </trkpt>
      <trkpt lat="42.6598" lon="1.9653">
        <ele>1371</ele>
        <time>2017-09-16T12:26:23.571Z</time>
      </trkpt>
      <trkpt lat="42.6597" lon="1.96523">
        <ele>1372</ele>
        <time>2017-09-16T12:26:28.573Z</time>
      </trkpt>
      <trkpt lat="42.6596" lon="1.96523">
        <ele>1372</ele>
        <time>2017-09-16T12:26:35.568Z</time>
      </trkpt>
      <trkpt lat="42.65966" lon="1.9654">
        <ele>1371</ele>
        <time>2017-09-16T12:26:43.571Z</time>
      </trkpt>
      <trkpt lat="42.65976" lon="1.96546">
        <ele>1370</ele>
        <time>2017-09-16T12:26:48.567Z</time>
      </trkpt>
      <trkpt lat="42.65994" lon="1.96554">
        <ele>1367</ele>
        <time>2017-09-16T12:26:54.571Z</time>
      </trkpt>
      <trkpt lat="42.66014" lon="1.96561">
        <ele>1364</ele>
        <time>2017-09-16T12:27:02.571Z</time>
      </trkpt>
      <trkpt lat="42.66035" lon="1.96572">
        <ele>1364</ele>
        <time>2017-09-16T12:27:10.567Z</time>
      </trkpt>
      <trkpt lat="42.66055" lon="1.96573">
        <ele>1364</ele>
        <time>2017-09-16T12:27:16.571Z</time>
      </trkpt>
      <trkpt lat="42.6608" lon="1.96588">
        <ele>1357</ele>
        <time>2017-09-16T12:27:26.571Z</time>
      </trkpt>
      <trkpt lat="42.66105" lon="1.96597">
        <ele>1357</ele>
        <time>2017-09-16T12:27:34.568Z</time>
      </trkpt>
      <trkpt lat="42.66127" lon="1.96613">
        <ele>1357</ele>
        <time>2017-09-16T12:27:42.573Z</time>
      </trkpt>
      <trkpt lat="42.66144" lon="1.96627">
        <ele>1356</ele>
        <time>2017-09-16T12:27:49.571Z</time>
      </trkpt>
      <trkpt lat="42.66158" lon="1.96626">
        <ele>1356</ele>
        <time>2017-09-16T12:27:54.571Z</time>
      </trkpt>
      <trkpt lat="42.66179" lon="1.96603">
        <ele>1354</ele>
        <time>2017-09-16T12:28:01.571Z</time>
      </trkpt>
      <trkpt lat="42.66194" lon="1.96599">
        <ele>1354</ele>
        <time>2017-09-16T12:28:07.571Z</time>
      </trkpt>
      <trkpt lat="42.66209" lon="1.96595">
        <ele>1353</ele>
        <time>2017-09-16T12:28:13.571Z</time>
      </trkpt>
      <trkpt lat="42.66231" lon="1.96595">
        <ele>1354</ele>
        <time>2017-09-16T12:28:21.565Z</time>
      </trkpt>
      <trkpt lat="42.66246" lon="1.966">
        <ele>1354</ele>
        <time>2017-09-16T12:28:26.571Z</time>
      </trkpt>
      <trkpt lat="42.6626" lon="1.96604">
        <ele>1349</ele>
        <time>2017-09-16T12:28:34.571Z</time>
      </trkpt>
      <trkpt lat="42.66279" lon="1.96615">
        <ele>1345</ele>
        <time>2017-09-16T12:28:45.571Z</time>
      </trkpt>
      <trkpt lat="42.66291" lon="1.96619">
        <ele>1343</ele>
        <time>2017-09-16T12:28:50.571Z</time>
      </trkpt>
      <trkpt lat="42.66302" lon="1.96621">
        <ele>1343</ele>
        <time>2017-09-16T12:28:55.571Z</time>
      </trkpt>
      <trkpt lat="42.66313" lon="1.96625">
        <ele>1341</ele>
        <time>2017-09-16T12:29:01.571Z</time>
      </trkpt>
      <trkpt lat="42.66342" lon="1.96626">
        <ele>1334</ele>
        <time>2017-09-16T12:29:12.571Z</time>
      </trkpt>
      <trkpt lat="42.66353" lon="1.96625">
        <ele>1333</ele>
        <time>2017-09-16T12:29:17.571Z</time>
      </trkpt>
      <trkpt lat="42.66357" lon="1.96651">
        <ele>1328</ele>
        <time>2017-09-16T12:29:26.571Z</time>
      </trkpt>
      <trkpt lat="42.66337" lon="1.9667">
        <ele>1322</ele>
        <time>2017-09-16T12:29:34.571Z</time>
      </trkpt>
      <trkpt lat="42.66329" lon="1.96678">
        <ele>1324</ele>
        <time>2017-09-16T12:29:40.571Z</time>
      </trkpt>
      <trkpt lat="42.66345" lon="1.96677">
        <ele>1318</ele>
        <time>2017-09-16T12:29:47.571Z</time>
      </trkpt>
      <trkpt lat="42.66364" lon="1.96665">
        <ele>1326</ele>
        <time>2017-09-16T12:29:54.571Z</time>
      </trkpt>
      <trkpt lat="42.66383" lon="1.9665">
        <ele>1326</ele>
        <time>2017-09-16T12:30:01.571Z</time>
      </trkpt>
      <trkpt lat="42.66401" lon="1.96631">
        <ele>1327</ele>
        <time>2017-09-16T12:30:08.571Z</time>
      </trkpt>
      <trkpt lat="42.66426" lon="1.96624">
        <ele>1324</ele>
        <time>2017-09-16T12:30:16.571Z</time>
      </trkpt>
      <trkpt lat="42.66447" lon="1.96627">
        <ele>1323</ele>
        <time>2017-09-16T12:30:23.571Z</time>
      </trkpt>
      <trkpt lat="42.66468" lon="1.96628">
        <ele>1323</ele>
        <time>2017-09-16T12:30:31.571Z</time>
      </trkpt>
      <trkpt lat="42.6648" lon="1.96625">
        <ele>1324</ele>
        <time>2017-09-16T12:30:38.571Z</time>
      </trkpt>
      <trkpt lat="42.665" lon="1.9663">
        <ele>1317</ele>
        <time>2017-09-16T12:30:46.571Z</time>
      </trkpt>
      <trkpt lat="42.66534" lon="1.96637">
        <ele>1313</ele>
        <time>2017-09-16T12:30:58.571Z</time>
      </trkpt>
      <trkpt lat="42.66565" lon="1.9664">
        <ele>1310</ele>
        <time>2017-09-16T12:31:10.571Z</time>
      </trkpt>
      <trkpt lat="42.66586" lon="1.96641">
        <ele>1303</ele>
        <time>2017-09-16T12:31:19.564Z</time>
      </trkpt>
      <trkpt lat="42.66607" lon="1.96639">
        <ele>1304</ele>
        <time>2017-09-16T12:31:28.571Z</time>
      </trkpt>
      <trkpt lat="42.66619" lon="1.96631">
        <ele>1305</ele>
        <time>2017-09-16T12:31:35.571Z</time>
      </trkpt>
      <trkpt lat="42.66637" lon="1.96614">
        <ele>1305</ele>
        <time>2017-09-16T12:31:42.571Z</time>
      </trkpt>
      <trkpt lat="42.66656" lon="1.96597">
        <ele>1303</ele>
        <time>2017-09-16T12:31:52.571Z</time>
      </trkpt>
      <trkpt lat="42.6666" lon="1.96583">
        <ele>1303</ele>
        <time>2017-09-16T12:31:58.571Z</time>
      </trkpt>
      <trkpt lat="42.66654" lon="1.96569">
        <ele>1308</ele>
        <time>2017-09-16T12:32:04.571Z</time>
      </trkpt>
      <trkpt lat="42.66655" lon="1.96554">
        <ele>1310</ele>
        <time>2017-09-16T12:32:10.571Z</time>
      </trkpt>
      <trkpt lat="42.66667" lon="1.96526">
        <ele>1308</ele>
        <time>2017-09-16T12:32:18.571Z</time>
      </trkpt>
      <trkpt lat="42.66675" lon="1.96514">
        <ele>1294</ele>
        <time>2017-09-16T12:32:23.571Z</time>
      </trkpt>
      <trkpt lat="42.66683" lon="1.96501">
        <ele>1294</ele>
        <time>2017-09-16T12:32:28.571Z</time>
      </trkpt>
      <trkpt lat="42.66694" lon="1.96471">
        <ele>1292</ele>
        <time>2017-09-16T12:32:36.571Z</time>
      </trkpt>
      <trkpt lat="42.66712" lon="1.9645">
        <ele>1290</ele>
        <time>2017-09-16T12:32:43.571Z</time>
      </trkpt>
      <trkpt lat="42.66724" lon="1.96428">
        <ele>1287</ele>
        <time>2017-09-16T12:32:51.571Z</time>
      </trkpt>
      <trkpt lat="42.66739" lon="1.96402">
        <ele>1290</ele>
        <time>2017-09-16T12:32:58.571Z</time>
      </trkpt>
      <trkpt lat="42.66744" lon="1.96388">
        <ele>1294</ele>
        <time>2017-09-16T12:33:03.571Z</time>
      </trkpt>
      <trkpt lat="42.66757" lon="1.96363">
        <ele>1281</ele>
        <time>2017-09-16T12:33:12.571Z</time>
      </trkpt>
      <trkpt lat="42.6677" lon="1.96338">
        <ele>1283</ele>
        <time>2017-09-16T12:33:20.571Z</time>
      </trkpt>
      <trkpt lat="42.6679" lon="1.96321">
        <ele>1285</ele>
        <time>2017-09-16T12:33:27.571Z</time>
      </trkpt>
      <trkpt lat="42.66811" lon="1.96302">
        <ele>1283</ele>
        <time>2017-09-16T12:33:35.571Z</time>
      </trkpt>
      <trkpt lat="42.66818" lon="1.9629">
        <ele>1283</ele>
        <time>2017-09-16T12:33:40.571Z</time>
      </trkpt>
      <trkpt lat="42.66833" lon="1.9627">
        <ele>1280</ele>
        <time>2017-09-16T12:33:47.571Z</time>
      </trkpt>
      <trkpt lat="42.6685" lon="1.96249">
        <ele>1276</ele>
        <time>2017-09-16T12:33:55.571Z</time>
      </trkpt>
      <trkpt lat="42.66868" lon="1.96229">
        <ele>1277</ele>
        <time>2017-09-16T12:34:04.571Z</time>
      </trkpt>
      <trkpt lat="42.66883" lon="1.9621">
        <ele>1278</ele>
        <time>2017-09-16T12:34:13.571Z</time>
      </trkpt>
      <trkpt lat="42.66906" lon="1.96189">
        <ele>1275</ele>
        <time>2017-09-16T12:34:24.571Z</time>
      </trkpt>
      <trkpt lat="42.66923" lon="1.9617">
        <ele>1269</ele>
        <time>2017-09-16T12:34:31.571Z</time>
      </trkpt>
      <trkpt lat="42.66943" lon="1.96152">
        <ele>1270</ele>
        <time>2017-09-16T12:34:39.571Z</time>
      </trkpt>
      <trkpt lat="42.66958" lon="1.96132">
        <ele>1269</ele>
        <time>2017-09-16T12:34:47.571Z</time>
      </trkpt>
      <trkpt lat="42.66968" lon="1.96118">
        <ele>1268</ele>
        <time>2017-09-16T12:34:52.571Z</time>
      </trkpt>
      <trkpt lat="42.66985" lon="1.96099">
        <ele>1262</ele>
        <time>2017-09-16T12:34:59.571Z</time>
      </trkpt>
      <trkpt lat="42.66996" lon="1.96089">
        <ele>1254</ele>
        <time>2017-09-16T12:35:05.571Z</time>
      </trkpt>
      <trkpt lat="42.6701" lon="1.96081">
        <ele>1251</ele>
        <time>2017-09-16T12:35:11.571Z</time>
      </trkpt>
      <trkpt lat="42.67023" lon="1.96056">
        <ele>1253</ele>
        <time>2017-09-16T12:35:18.572Z</time>
      </trkpt>
      <trkpt lat="42.67032" lon="1.9603">
        <ele>1252</ele>
        <time>2017-09-16T12:35:26.570Z</time>
      </trkpt>
      <trkpt lat="42.67037" lon="1.96016">
        <ele>1252</ele>
        <time>2017-09-16T12:35:31.571Z</time>
      </trkpt>
      <trkpt lat="42.67042" lon="1.95985">
        <ele>1250</ele>
        <time>2017-09-16T12:35:38.571Z</time>
      </trkpt>
      <trkpt lat="42.67045" lon="1.95953">
        <ele>1250</ele>
        <time>2017-09-16T12:35:46.571Z</time>
      </trkpt>
      <trkpt lat="42.67048" lon="1.95926">
        <ele>1249</ele>
        <time>2017-09-16T12:35:54.571Z</time>
      </trkpt>
      <trkpt lat="42.67053" lon="1.95896">
        <ele>1246</ele>
        <time>2017-09-16T12:36:02.571Z</time>
      </trkpt>
      <trkpt lat="42.67059" lon="1.95865">
        <ele>1243</ele>
        <time>2017-09-16T12:36:10.571Z</time>
      </trkpt>
      <trkpt lat="42.67064" lon="1.95835">
        <ele>1236</ele>
        <time>2017-09-16T12:36:18.571Z</time>
      </trkpt>
      <trkpt lat="42.67065" lon="1.95806">
        <ele>1240</ele>
        <time>2017-09-16T12:36:27.571Z</time>
      </trkpt>
      <trkpt lat="42.67076" lon="1.95798">
        <ele>1238</ele>
        <time>2017-09-16T12:36:32.571Z</time>
      </trkpt>
      <trkpt lat="42.67098" lon="1.95791">
        <ele>1220</ele>
        <time>2017-09-16T12:36:41.571Z</time>
      </trkpt>
      <trkpt lat="42.67119" lon="1.95784">
        <ele>1219</ele>
        <time>2017-09-16T12:36:49.571Z</time>
      </trkpt>
      <trkpt lat="42.67142" lon="1.95771">
        <ele>1216</ele>
        <time>2017-09-16T12:36:57.571Z</time>
      </trkpt>
      <trkpt lat="42.67155" lon="1.95767">
        <ele>1215</ele>
        <time>2017-09-16T12:37:02.571Z</time>
      </trkpt>
      <trkpt lat="42.67174" lon="1.95759">
        <ele>1213</ele>
        <time>2017-09-16T12:37:09.571Z</time>
      </trkpt>
      <trkpt lat="42.67194" lon="1.95738">
        <ele>1210</ele>
        <time>2017-09-16T12:37:16.571Z</time>
      </trkpt>
      <trkpt lat="42.6721" lon="1.95719">
        <ele>1210</ele>
        <time>2017-09-16T12:37:24.571Z</time>
      </trkpt>
      <trkpt lat="42.67228" lon="1.957">
        <ele>1209</ele>
        <time>2017-09-16T12:37:31.571Z</time>
      </trkpt>
      <trkpt lat="42.67243" lon="1.95681">
        <ele>1206</ele>
        <time>2017-09-16T12:37:38.571Z</time>
      </trkpt>
      <trkpt lat="42.67253" lon="1.95674">
        <ele>1204</ele>
        <time>2017-09-16T12:37:43.571Z</time>
      </trkpt>
      <trkpt lat="42.67262" lon="1.95666">
        <ele>1202</ele>
        <time>2017-09-16T12:37:48.571Z</time>
      </trkpt>
      <trkpt lat="42.67284" lon="1.95659">
        <ele>1201</ele>
        <time>2017-09-16T12:37:56.571Z</time>
      </trkpt>
      <trkpt lat="42.67303" lon="1.95642">
        <ele>1200</ele>
        <time>2017-09-16T12:38:03.571Z</time>
      </trkpt>
      <trkpt lat="42.67321" lon="1.95618">
        <ele>1198</ele>
        <time>2017-09-16T12:38:10.571Z</time>
      </trkpt>
      <trkpt lat="42.67326" lon="1.95591">
        <ele>1195</ele>
        <time>2017-09-16T12:38:18.571Z</time>
      </trkpt>
      <trkpt lat="42.67327" lon="1.95577">
        <ele>1197</ele>
        <time>2017-09-16T12:38:23.571Z</time>
      </trkpt>
      <trkpt lat="42.67347" lon="1.95582">
        <ele>1192</ele>
        <time>2017-09-16T12:38:30.571Z</time>
      </trkpt>
      <trkpt lat="42.67352" lon="1.95595">
        <ele>1193</ele>
        <time>2017-09-16T12:38:35.571Z</time>
      </trkpt>
      <trkpt lat="42.67361" lon="1.95585">
        <ele>1193</ele>
        <time>2017-09-16T12:38:49.571Z</time>
      </trkpt>
      <trkpt lat="42.6737" lon="1.95577">
        <ele>1191</ele>
        <time>2017-09-16T12:39:05.571Z</time>
      </trkpt>
      <trkpt lat="42.67386" lon="1.95558">
        <ele>1191</ele>
        <time>2017-09-16T12:39:15.571Z</time>
      </trkpt>
      <trkpt lat="42.67406" lon="1.95541">
        <ele>1191</ele>
        <time>2017-09-16T12:39:22.571Z</time>
      </trkpt>
      <trkpt lat="42.67431" lon="1.95517">
        <ele>1191</ele>
        <time>2017-09-16T12:39:31.571Z</time>
      </trkpt>
      <trkpt lat="42.6745" lon="1.95493">
        <ele>1189</ele>
        <time>2017-09-16T12:39:45.571Z</time>
      </trkpt>
      <trkpt lat="42.6745" lon="1.95479">
        <ele>1190</ele>
        <time>2017-09-16T12:40:06.571Z</time>
      </trkpt>
      <trkpt lat="42.67473" lon="1.95459">
        <ele>1189</ele>
        <time>2017-09-16T12:40:16.571Z</time>
      </trkpt>
      <trkpt lat="42.67489" lon="1.95432">
        <ele>1186</ele>
        <time>2017-09-16T12:40:25.571Z</time>
      </trkpt>
      <trkpt lat="42.67513" lon="1.95416">
        <ele>1182</ele>
        <time>2017-09-16T12:40:32.571Z</time>
      </trkpt>
      <trkpt lat="42.67533" lon="1.95393">
        <ele>1181</ele>
        <time>2017-09-16T12:40:40.571Z</time>
      </trkpt>
      <trkpt lat="42.67556" lon="1.95386">
        <ele>1180</ele>
        <time>2017-09-16T12:40:47.571Z</time>
      </trkpt>
      <trkpt lat="42.67576" lon="1.95383">
        <ele>1179</ele>
        <time>2017-09-16T12:40:54.571Z</time>
      </trkpt>
      <trkpt lat="42.67586" lon="1.95376">
        <ele>1175</ele>
        <time>2017-09-16T12:40:59.571Z</time>
      </trkpt>
      <trkpt lat="42.67602" lon="1.95358">
        <ele>1174</ele>
        <time>2017-09-16T12:41:06.571Z</time>
      </trkpt>
      <trkpt lat="42.67607" lon="1.9533">
        <ele>1169</ele>
        <time>2017-09-16T12:41:14.571Z</time>
      </trkpt>
      <trkpt lat="42.67616" lon="1.95303">
        <ele>1169</ele>
        <time>2017-09-16T12:41:22.571Z</time>
      </trkpt>
      <trkpt lat="42.67626" lon="1.95278">
        <ele>1169</ele>
        <time>2017-09-16T12:41:30.571Z</time>
      </trkpt>
      <trkpt lat="42.67635" lon="1.95267">
        <ele>1168</ele>
        <time>2017-09-16T12:41:36.571Z</time>
      </trkpt>
      <trkpt lat="42.67655" lon="1.95254">
        <ele>1165</ele>
        <time>2017-09-16T12:41:44.571Z</time>
      </trkpt>
      <trkpt lat="42.67678" lon="1.95245">
        <ele>1163</ele>
        <time>2017-09-16T12:41:52.571Z</time>
      </trkpt>
      <trkpt lat="42.67688" lon="1.95236">
        <ele>1164</ele>
        <time>2017-09-16T12:41:57.571Z</time>
      </trkpt>
      <trkpt lat="42.67704" lon="1.95218">
        <ele>1164</ele>
        <time>2017-09-16T12:42:05.571Z</time>
      </trkpt>
      <trkpt lat="42.67722" lon="1.95196">
        <ele>1163</ele>
        <time>2017-09-16T12:42:13.571Z</time>
      </trkpt>
      <trkpt lat="42.6774" lon="1.95177">
        <ele>1160</ele>
        <time>2017-09-16T12:42:20.571Z</time>
      </trkpt>
      <trkpt lat="42.67747" lon="1.95164">
        <ele>1158</ele>
        <time>2017-09-16T12:42:25.571Z</time>
      </trkpt>
      <trkpt lat="42.67763" lon="1.95144">
        <ele>1158</ele>
        <time>2017-09-16T12:42:33.571Z</time>
      </trkpt>
      <trkpt lat="42.67781" lon="1.9512">
        <ele>1158</ele>
        <time>2017-09-16T12:42:41.571Z</time>
      </trkpt>
      <trkpt lat="42.67796" lon="1.95097">
        <ele>1157</ele>
        <time>2017-09-16T12:42:49.571Z</time>
      </trkpt>
      <trkpt lat="42.67804" lon="1.95087">
        <ele>1156</ele>
        <time>2017-09-16T12:42:55.571Z</time>
      </trkpt>
      <trkpt lat="42.67813" lon="1.95078">
        <ele>1153</ele>
        <time>2017-09-16T12:43:00.571Z</time>
      </trkpt>
      <trkpt lat="42.67823" lon="1.95075">
        <ele>1152</ele>
        <time>2017-09-16T12:43:05.571Z</time>
      </trkpt>
      <trkpt lat="42.67826" lon="1.95074">
        <ele>1152</ele>
        <time>2017-09-16T12:43:07.571Z</time>
      </trkpt>
    </trkseg>
  </trk>
</gpx>